Dirección General De Aeronáutica Civil

Dirección Meteorológica de Chile - Servicios Climáticos

Informe General de Control de Calidad de la Estación

Listado de niveles de control de calidad para algunos parámetros
Estación El Huertón liceo agrícola, Los Ángeles (370036)
Fecha de Revisión de los datos :

Elementos

Registros Niveles de Control Total
Nivel 0 Nivel 1 Nivel 2 Nivel 3 Errores Porcentaje
01 Temperatura del Aire Seco 60.951 0 . 0 . 0 . 0 . 0 0.00 %
02 Temperatura de Rocío 59.881 0 . 0 . 0 . 0 . 0 0.00 %
03 Humedad Relativa del Aire 59.880 0 . 0 . 0 . 0 . 0 0.00 %
04 Temperatura Máxima PM 2.868 0 . 0 . 351 12.24 % 0 . 351 12.24 %
05 Temperatura Mínima AM 2.857 0 . 0 . 984 34.44 % 0 . 984 34.44 %
06 Viento a 10 m. de Altura 59.882 0 . 0 . 0 . 0 . 0 0.00 %
07 Agua Caida, Acumulada 6 Horas 9.984 0 . 0 . 0 . 0 . 0 0.00 %
08 Presión Atm. a Nivel de Estación (QFE) 55.443 0 . 0 . 0 . 0 . 0 0.00 %
09 Presión Atm. a Nivel Medio del Mar (QFF) 55.443 0 . 0 . 0 . 0 . 0 0.00 %
10 Presión Atm. Estándar OACI (QNH) 37.594 0 . 0 . 0 . 0 . 0 0.00 %

Totales

404.783 . 0.0000 % . 0.0000 % . 0.3298 % . 0.0000 % 1,335 0.3298 %

Detalle de Errores Encontrados

Nivel Fecha del Dato Descripción Información Error Fecha Ingreso
2 2013-08-13 00:00:00 Temperatura 10.6 del 12-08-2013 18:00, Mayor que la Máxima 10.0 13-08-2013 00:00 10.6 -- 10.0 2018-02-07 15:39:00
2 2020-09-23 00:00:00 Temperatura 18.7 del 22-09-2020 20:00, Mayor que la Máxima 14.4 23-09-2020 00:00 18.7 -- 14.4 2020-09-23 01:11:00
2 2020-11-16 00:00:00 Temperatura 24.4 del 15-11-2020 21:00, Mayor que la Máxima 24.2 16-11-2020 00:00 24.4 -- 24.2 2020-11-16 00:20:00
2 2020-11-23 00:00:00 Temperatura 26.1 del 22-11-2020 20:00, Mayor que la Máxima 22.4 23-11-2020 00:00 26.1 -- 22.4 2020-11-23 00:20:00
2 2020-11-26 00:00:00 Temperatura 23.2 del 25-11-2020 20:00, Mayor que la Máxima 21.6 26-11-2020 00:00 23.2 -- 21.6 2020-11-26 00:20:00
2 2020-12-06 00:00:00 Temperatura 32.9 del 05-12-2020 20:00, Mayor que la Máxima 23.4 06-12-2020 00:00 32.9 -- 23.4 2020-12-06 00:20:00
2 2020-12-08 00:00:00 Temperatura 27.9 del 07-12-2020 18:00, Mayor que la Máxima 16.7 08-12-2020 00:00 27.9 -- 16.7 2020-12-08 00:20:00
2 2020-12-09 00:00:00 Temperatura 26.0 del 08-12-2020 20:00, Mayor que la Máxima 21.8 09-12-2020 00:00 26.0 -- 21.8 2020-12-09 00:20:00
2 2020-12-10 00:00:00 Temperatura 29.1 del 09-12-2020 22:00, Mayor que la Máxima 23.0 10-12-2020 00:00 29.1 -- 23.0 2020-12-10 00:20:00
2 2020-12-14 00:00:00 Temperatura 23.6 del 13-12-2020 21:00, Mayor que la Máxima 17.6 14-12-2020 00:00 23.6 -- 17.6 2020-12-14 00:20:00
2 2020-12-15 00:00:00 Temperatura 21.5 del 14-12-2020 19:00, Mayor que la Máxima 18.1 15-12-2020 00:00 21.5 -- 18.1 2020-12-15 00:20:00
2 2020-12-16 00:00:00 Temperatura 23.8 del 15-12-2020 20:00, Mayor que la Máxima 23.7 16-12-2020 00:00 23.8 -- 23.7 2020-12-16 00:20:00
2 2020-12-17 00:00:00 Temperatura 28.1 del 16-12-2020 21:00, Mayor que la Máxima 25.2 17-12-2020 00:00 28.1 -- 25.2 2020-12-17 00:20:00
2 2020-12-18 00:00:00 Temperatura 28.2 del 17-12-2020 19:00, Mayor que la Máxima 22.3 18-12-2020 00:00 28.2 -- 22.3 2020-12-18 00:20:00
2 2020-12-19 00:00:00 Temperatura 19.3 del 18-12-2020 21:00, Mayor que la Máxima 13.6 19-12-2020 00:00 19.3 -- 13.6 2020-12-19 00:20:00
2 2020-12-20 00:00:00 Temperatura 21.3 del 19-12-2020 21:00, Mayor que la Máxima 21.2 20-12-2020 00:00 21.3 -- 21.2 2020-12-20 00:20:00
2 2020-12-21 00:00:00 Temperatura 25.7 del 20-12-2020 20:00, Mayor que la Máxima 20.1 21-12-2020 00:00 25.7 -- 20.1 2020-12-21 00:20:00
2 2020-12-22 00:00:00 Temperatura 29.9 del 21-12-2020 21:00, Mayor que la Máxima 23.0 22-12-2020 00:00 29.9 -- 23.0 2020-12-22 00:20:00
2 2020-12-23 00:00:00 Temperatura 28.4 del 22-12-2020 20:00, Mayor que la Máxima 26.2 23-12-2020 00:00 28.4 -- 26.2 2020-12-23 00:20:00
2 2020-12-24 00:00:00 Temperatura 27.2 del 23-12-2020 21:00, Mayor que la Máxima 22.1 24-12-2020 00:00 27.2 -- 22.1 2020-12-24 00:20:00
2 2020-12-25 00:00:00 Temperatura 28.0 del 24-12-2020 20:00, Mayor que la Máxima 22.2 25-12-2020 00:00 28.0 -- 22.2 2020-12-25 00:20:00
2 2020-12-26 00:00:00 Temperatura 30.8 del 25-12-2020 20:00, Mayor que la Máxima 25.1 26-12-2020 00:00 30.8 -- 25.1 2020-12-26 00:20:00
2 2020-12-27 00:00:00 Temperatura 31.3 del 26-12-2020 21:00, Mayor que la Máxima 28.3 27-12-2020 00:00 31.3 -- 28.3 2020-12-27 00:20:00
2 2020-12-28 00:00:00 Temperatura 29.5 del 27-12-2020 22:00, Mayor que la Máxima 23.7 28-12-2020 00:00 29.5 -- 23.7 2020-12-28 00:20:00
2 2020-12-29 00:00:00 Temperatura 30.6 del 28-12-2020 21:00, Mayor que la Máxima 24.3 29-12-2020 00:00 30.6 -- 24.3 2020-12-29 00:20:00
2 2020-12-30 00:00:00 Temperatura 22.5 del 29-12-2020 15:00, Mayor que la Máxima 16.4 30-12-2020 00:00 22.5 -- 16.4 2020-12-30 00:20:00
2 2020-12-31 00:00:00 Temperatura 23.6 del 30-12-2020 21:00, Mayor que la Máxima 18.1 31-12-2020 00:00 23.6 -- 18.1 2020-12-31 00:20:00
2 2021-01-01 00:00:00 Temperatura 28.1 del 31-12-2020 20:00, Mayor que la Máxima 22.4 01-01-2021 00:00 28.1 -- 22.4 2021-01-01 00:20:00
2 2021-02-02 00:00:00 Temperatura 25.7 del 01-02-2021 19:00, Mayor que la Máxima 17.3 02-02-2021 00:00 25.7 -- 17.3 2021-02-02 00:20:00
2 2021-02-03 00:00:00 Temperatura 31.0 del 02-02-2021 22:00, Mayor que la Máxima 24.2 03-02-2021 00:00 31.0 -- 24.2 2021-02-03 00:20:00
2 2021-02-04 00:00:00 Temperatura 35.0 del 03-02-2021 21:00, Mayor que la Máxima 26.7 04-02-2021 00:00 35.0 -- 26.7 2021-02-04 00:20:00
2 2021-02-05 00:00:00 Temperatura 37.4 del 04-02-2021 19:00, Mayor que la Máxima 26.7 05-02-2021 00:00 37.4 -- 26.7 2021-02-05 00:20:00
2 2021-02-06 00:00:00 Temperatura 27.3 del 05-02-2021 21:00, Mayor que la Máxima 21.1 06-02-2021 00:00 27.3 -- 21.1 2021-02-06 00:20:00
2 2021-02-07 00:00:00 Temperatura 18.2 del 06-02-2021 21:00, Mayor que la Máxima 17.2 07-02-2021 00:00 18.2 -- 17.2 2021-02-07 00:20:00
2 2021-02-08 00:00:00 Temperatura 21.0 del 07-02-2021 21:00, Mayor que la Máxima 17.8 08-02-2021 00:00 21.0 -- 17.8 2021-02-08 00:20:00
2 2021-02-09 00:00:00 Temperatura 26.6 del 08-02-2021 20:00, Mayor que la Máxima 23.3 09-02-2021 00:00 26.6 -- 23.3 2021-02-09 00:20:00
2 2021-02-10 00:00:00 Temperatura 33.6 del 09-02-2021 21:00, Mayor que la Máxima 26.3 10-02-2021 00:00 33.6 -- 26.3 2021-02-10 00:20:00
2 2021-02-11 00:00:00 Temperatura 34.8 del 10-02-2021 21:00, Mayor que la Máxima 24.6 11-02-2021 00:00 34.8 -- 24.6 2021-02-11 00:20:00
2 2021-02-12 00:00:00 Temperatura 25.6 del 11-02-2021 22:00, Mayor que la Máxima 21.4 12-02-2021 00:00 25.6 -- 21.4 2021-02-12 00:20:00
2 2021-02-13 00:00:00 Temperatura 28.3 del 12-02-2021 22:00, Mayor que la Máxima 21.9 13-02-2021 00:00 28.3 -- 21.9 2021-02-13 00:20:00
2 2021-02-14 00:00:00 Temperatura 28.2 del 13-02-2021 21:00, Mayor que la Máxima 22.4 14-02-2021 00:00 28.2 -- 22.4 2021-02-14 00:20:00
2 2021-02-15 00:00:00 Temperatura 27.3 del 14-02-2021 21:00, Mayor que la Máxima 21.7 15-02-2021 00:00 27.3 -- 21.7 2021-02-15 00:20:00
2 2021-02-16 00:00:00 Temperatura 27.9 del 15-02-2021 21:00, Mayor que la Máxima 23.0 16-02-2021 00:00 27.9 -- 23.0 2021-02-16 00:20:00
2 2021-02-17 00:00:00 Temperatura 22.6 del 16-02-2021 20:00, Mayor que la Máxima 19.5 17-02-2021 00:00 22.6 -- 19.5 2021-02-17 00:20:00
2 2021-02-18 00:00:00 Temperatura 23.1 del 17-02-2021 21:00, Mayor que la Máxima 18.4 18-02-2021 00:00 23.1 -- 18.4 2021-02-18 00:20:00
2 2021-02-19 00:00:00 Temperatura 19.6 del 18-02-2021 19:00, Mayor que la Máxima 13.4 19-02-2021 00:00 19.6 -- 13.4 2021-02-19 00:20:00
2 2021-02-20 00:00:00 Temperatura 23.2 del 19-02-2021 20:00, Mayor que la Máxima 9.2 20-02-2021 00:00 23.2 -- 9.2 2021-02-20 00:20:00
2 2021-02-21 00:00:00 Temperatura 25.8 del 20-02-2021 21:00, Mayor que la Máxima 18.3 21-02-2021 00:00 25.8 -- 18.3 2021-02-21 00:20:00
2 2021-02-22 00:00:00 Temperatura 25.7 del 21-02-2021 21:00, Mayor que la Máxima 20.2 22-02-2021 00:00 25.7 -- 20.2 2021-02-22 00:20:00
2 2021-02-23 00:00:00 Temperatura 24.6 del 22-02-2021 21:00, Mayor que la Máxima 18.6 23-02-2021 00:00 24.6 -- 18.6 2021-02-23 00:20:00
2 2021-02-24 00:00:00 Temperatura 27.4 del 23-02-2021 21:00, Mayor que la Máxima 21.6 24-02-2021 00:00 27.4 -- 21.6 2021-02-24 00:20:00
2 2021-02-25 00:00:00 Temperatura 34.8 del 24-02-2021 22:00, Mayor que la Máxima 23.8 25-02-2021 00:00 34.8 -- 23.8 2021-02-25 00:20:00
2 2021-02-26 00:00:00 Temperatura 33.0 del 25-02-2021 21:00, Mayor que la Máxima 21.7 26-02-2021 00:00 33.0 -- 21.7 2021-02-26 00:20:00
2 2021-02-27 00:00:00 Temperatura 29.7 del 26-02-2021 20:00, Mayor que la Máxima 21.5 27-02-2021 00:00 29.7 -- 21.5 2021-02-27 00:20:00
2 2021-02-28 00:00:00 Temperatura 28.0 del 27-02-2021 20:00, Mayor que la Máxima 20.4 28-02-2021 00:00 28.0 -- 20.4 2021-02-28 00:20:00
2 2021-03-01 00:00:00 Temperatura 29.0 del 28-02-2021 20:00, Mayor que la Máxima 22.2 01-03-2021 00:00 29.0 -- 22.2 2021-03-01 00:20:00
2 2021-03-02 00:00:00 Temperatura 32.0 del 01-03-2021 20:00, Mayor que la Máxima 23.7 02-03-2021 00:00 32.0 -- 23.7 2021-03-02 00:20:00
2 2021-03-03 00:00:00 Temperatura 31.0 del 02-03-2021 21:00, Mayor que la Máxima 24.0 03-03-2021 00:00 31.0 -- 24.0 2021-03-03 00:20:00
2 2021-03-04 00:00:00 Temperatura 30.1 del 03-03-2021 21:00, Mayor que la Máxima 23.5 04-03-2021 00:00 30.1 -- 23.5 2021-03-04 00:20:00
2 2021-03-05 00:00:00 Temperatura 31.6 del 04-03-2021 22:00, Mayor que la Máxima 25.8 05-03-2021 00:00 31.6 -- 25.8 2021-03-05 00:20:00
2 2021-03-06 00:00:00 Temperatura 30.4 del 05-03-2021 19:00, Mayor que la Máxima 19.1 06-03-2021 00:00 30.4 -- 19.1 2021-03-06 00:20:00
2 2021-03-07 00:00:00 Temperatura 28.5 del 06-03-2021 21:00, Mayor que la Máxima 21.9 07-03-2021 00:00 28.5 -- 21.9 2021-03-07 00:20:00
2 2021-03-08 00:00:00 Temperatura 27.2 del 07-03-2021 20:00, Mayor que la Máxima 21.0 08-03-2021 00:00 27.2 -- 21.0 2021-03-08 00:20:00
2 2021-03-09 00:00:00 Temperatura 29.7 del 08-03-2021 21:00, Mayor que la Máxima 19.9 09-03-2021 00:00 29.7 -- 19.9 2021-03-09 00:20:00
2 2021-03-10 00:00:00 Temperatura 30.3 del 09-03-2021 20:00, Mayor que la Máxima 19.2 10-03-2021 00:00 30.3 -- 19.2 2021-03-10 00:20:00
2 2021-03-11 00:00:00 Temperatura 20.0 del 10-03-2021 15:00, Mayor que la Máxima 15.5 11-03-2021 00:00 20.0 -- 15.5 2021-03-11 00:20:00
2 2021-03-12 00:00:00 Temperatura 22.9 del 11-03-2021 19:00, Mayor que la Máxima 16.9 12-03-2021 00:00 22.9 -- 16.9 2021-03-12 00:20:00
2 2021-03-13 00:00:00 Temperatura 26.9 del 12-03-2021 21:00, Mayor que la Máxima 18.5 13-03-2021 00:00 26.9 -- 18.5 2021-03-13 00:20:00
2 2021-03-14 00:00:00 Temperatura 30.0 del 13-03-2021 22:00, Mayor que la Máxima 19.3 14-03-2021 00:00 30.0 -- 19.3 2021-03-14 00:20:00
2 2021-03-15 00:00:00 Temperatura 28.0 del 14-03-2021 20:00, Mayor que la Máxima 17.0 15-03-2021 00:00 28.0 -- 17.0 2021-03-15 00:20:00
2 2021-03-16 00:00:00 Temperatura 15.9 del 15-03-2021 22:00, Mayor que la Máxima 14.9 16-03-2021 00:00 15.9 -- 14.9 2021-03-16 00:20:00
2 2021-03-17 00:00:00 Temperatura 19.1 del 16-03-2021 17:00, Mayor que la Máxima 15.7 17-03-2021 00:00 19.1 -- 15.7 2021-03-17 00:20:00
2 2021-03-18 00:00:00 Temperatura 26.4 del 17-03-2021 21:00, Mayor que la Máxima 18.5 18-03-2021 00:00 26.4 -- 18.5 2021-03-18 00:20:00
2 2021-03-19 00:00:00 Temperatura 22.5 del 18-03-2021 19:00, Mayor que la Máxima 15.2 19-03-2021 00:00 22.5 -- 15.2 2021-03-19 00:20:00
2 2021-03-20 00:00:00 Temperatura 21.8 del 19-03-2021 19:00, Mayor que la Máxima 15.7 20-03-2021 00:00 21.8 -- 15.7 2021-03-20 00:20:00
2 2021-03-21 00:00:00 Temperatura 22.7 del 20-03-2021 21:00, Mayor que la Máxima 15.9 21-03-2021 00:00 22.7 -- 15.9 2021-03-21 00:20:00
2 2021-03-22 00:00:00 Temperatura 28.3 del 21-03-2021 20:00, Mayor que la Máxima 18.0 22-03-2021 00:00 28.3 -- 18.0 2021-03-22 00:20:00
2 2021-03-23 00:00:00 Temperatura 27.5 del 22-03-2021 21:00, Mayor que la Máxima 10.0 23-03-2021 00:00 27.5 -- 10.0 2021-03-23 00:40:00
2 2021-03-24 00:00:00 Temperatura 24.9 del 23-03-2021 20:00, Mayor que la Máxima 18.0 24-03-2021 00:00 24.9 -- 18.0 2021-03-24 00:20:00
2 2021-03-25 00:00:00 Temperatura 22.6 del 24-03-2021 22:00, Mayor que la Máxima 15.8 25-03-2021 00:00 22.6 -- 15.8 2021-03-25 00:20:00
2 2021-03-26 00:00:00 Temperatura 20.6 del 25-03-2021 21:00, Mayor que la Máxima 13.0 26-03-2021 00:00 20.6 -- 13.0 2021-03-26 00:20:00
2 2021-03-27 00:00:00 Temperatura 25.5 del 26-03-2021 20:00, Mayor que la Máxima 19.3 27-03-2021 00:00 25.5 -- 19.3 2021-03-27 00:20:00
2 2021-03-28 00:00:00 Temperatura 27.1 del 27-03-2021 19:00, Mayor que la Máxima 18.4 28-03-2021 00:00 27.1 -- 18.4 2021-03-28 00:20:00
2 2021-03-29 00:00:00 Temperatura 27.8 del 28-03-2021 21:00, Mayor que la Máxima 16.9 29-03-2021 00:00 27.8 -- 16.9 2021-03-29 00:20:00
2 2021-03-30 00:00:00 Temperatura 26.1 del 29-03-2021 19:00, Mayor que la Máxima 13.1 30-03-2021 00:00 26.1 -- 13.1 2021-03-30 00:21:00
2 2021-03-31 00:00:00 Temperatura 20.8 del 30-03-2021 21:00, Mayor que la Máxima 13.8 31-03-2021 00:00 20.8 -- 13.8 2021-03-31 00:21:00
2 2021-04-01 00:00:00 Temperatura 21.7 del 31-03-2021 20:00, Mayor que la Máxima 15.2 01-04-2021 00:00 21.7 -- 15.2 2021-04-01 00:20:00
2 2021-04-02 00:00:00 Temperatura 22.8 del 01-04-2021 21:00, Mayor que la Máxima 12.8 02-04-2021 00:00 22.8 -- 12.8 2021-04-02 00:41:00
2 2021-04-03 00:00:00 Temperatura 23.3 del 02-04-2021 20:00, Mayor que la Máxima 14.8 03-04-2021 00:00 23.3 -- 14.8 2021-04-03 00:20:00
2 2021-04-04 00:00:00 Temperatura 26.2 del 03-04-2021 21:00, Mayor que la Máxima 15.2 04-04-2021 00:00 26.2 -- 15.2 2021-04-04 00:20:00
2 2021-04-05 00:00:00 Temperatura 24.7 del 04-04-2021 19:00, Mayor que la Máxima 11.4 05-04-2021 00:00 24.7 -- 11.4 2021-04-05 00:20:00
2 2021-04-06 00:00:00 Temperatura 18.0 del 05-04-2021 18:00, Mayor que la Máxima 15.0 06-04-2021 00:00 18.0 -- 15.0 2021-04-06 00:20:00
2 2021-04-07 00:00:00 Temperatura 15.2 del 06-04-2021 18:00, Mayor que la Máxima 13.9 07-04-2021 00:00 15.2 -- 13.9 2021-04-07 00:20:00
2 2021-04-08 00:00:00 Temperatura 20.9 del 07-04-2021 19:00, Mayor que la Máxima 13.4 08-04-2021 00:00 20.9 -- 13.4 2021-04-08 00:21:00
2 2021-04-09 00:00:00 Temperatura 14.6 del 08-04-2021 16:00, Mayor que la Máxima 11.5 09-04-2021 00:00 14.6 -- 11.5 2021-04-09 00:21:00
2 2021-04-10 00:00:00 Temperatura 14.6 del 09-04-2021 17:00, Mayor que la Máxima 9.2 10-04-2021 00:00 14.6 -- 9.2 2021-04-10 00:20:00
2 2021-04-11 00:00:00 Temperatura 18.4 del 10-04-2021 20:00, Mayor que la Máxima 9.7 11-04-2021 00:00 18.4 -- 9.7 2021-04-11 00:20:00
2 2021-04-12 00:00:00 Temperatura 23.0 del 11-04-2021 20:00, Mayor que la Máxima 17.1 12-04-2021 00:00 23.0 -- 17.1 2021-04-12 00:21:00
2 2021-04-13 00:00:00 Temperatura 23.5 del 12-04-2021 20:00, Mayor que la Máxima 18.1 13-04-2021 00:00 23.5 -- 18.1 2021-04-13 00:20:00
2 2021-04-14 00:00:00 Temperatura 27.4 del 13-04-2021 20:00, Mayor que la Máxima 17.5 14-04-2021 00:00 27.4 -- 17.5 2021-04-14 00:21:00
2 2021-04-15 00:00:00 Temperatura 22.6 del 14-04-2021 21:00, Mayor que la Máxima 13.6 15-04-2021 00:00 22.6 -- 13.6 2021-04-15 00:21:00
2 2021-04-16 00:00:00 Temperatura 24.9 del 15-04-2021 21:00, Mayor que la Máxima 14.8 16-04-2021 00:00 24.9 -- 14.8 2021-04-16 00:20:00
2 2021-04-17 00:00:00 Temperatura 22.7 del 16-04-2021 20:00, Mayor que la Máxima 15.1 17-04-2021 00:00 22.7 -- 15.1 2021-04-17 00:21:00
2 2021-04-18 00:00:00 Temperatura 23.6 del 17-04-2021 20:00, Mayor que la Máxima 16.3 18-04-2021 00:00 23.6 -- 16.3 2021-04-18 00:21:00
2 2021-04-19 00:00:00 Temperatura 18.3 del 18-04-2021 20:00, Mayor que la Máxima 11.3 19-04-2021 00:00 18.3 -- 11.3 2021-04-19 00:20:00
2 2021-04-20 00:00:00 Temperatura 22.2 del 19-04-2021 19:00, Mayor que la Máxima 14.2 20-04-2021 00:00 22.2 -- 14.2 2021-04-20 00:20:00
2 2021-04-21 00:00:00 Temperatura 19.8 del 20-04-2021 17:00, Mayor que la Máxima 12.9 21-04-2021 00:00 19.8 -- 12.9 2021-04-21 00:20:00
2 2021-04-22 00:00:00 Temperatura 15.6 del 21-04-2021 17:00, Mayor que la Máxima 12.8 22-04-2021 00:00 15.6 -- 12.8 2021-04-22 00:20:00
2 2021-04-23 00:00:00 Temperatura 18.2 del 22-04-2021 18:00, Mayor que la Máxima 11.4 23-04-2021 00:00 18.2 -- 11.4 2021-04-23 00:31:00
2 2021-04-24 00:00:00 Temperatura 19.6 del 23-04-2021 20:00, Mayor que la Máxima 11.5 24-04-2021 00:00 19.6 -- 11.5 2021-04-24 00:31:00
2 2021-04-25 00:00:00 Temperatura 22.1 del 24-04-2021 20:00, Mayor que la Máxima 13.9 25-04-2021 00:00 22.1 -- 13.9 2021-04-25 00:20:00
2 2021-04-26 00:00:00 Temperatura 21.6 del 25-04-2021 19:00, Mayor que la Máxima 14.0 26-04-2021 00:00 21.6 -- 14.0 2021-04-26 00:20:00
2 2021-04-27 00:00:00 Temperatura 21.0 del 26-04-2021 20:00, Mayor que la Máxima 11.6 27-04-2021 00:00 21.0 -- 11.6 2021-04-27 00:20:00
2 2021-04-28 00:00:00 Temperatura 21.6 del 27-04-2021 20:00, Mayor que la Máxima 14.5 28-04-2021 00:00 21.6 -- 14.5 2021-04-28 00:20:00
2 2021-04-29 00:00:00 Temperatura 22.9 del 28-04-2021 20:00, Mayor que la Máxima 15.1 29-04-2021 00:00 22.9 -- 15.1 2021-04-29 00:21:00
2 2021-04-30 00:00:00 Temperatura 20.2 del 29-04-2021 20:00, Mayor que la Máxima 11.4 30-04-2021 00:00 20.2 -- 11.4 2021-04-30 00:31:00
2 2021-05-01 00:00:00 Temperatura 15.2 del 30-04-2021 16:00, Mayor que la Máxima 12.6 01-05-2021 00:00 15.2 -- 12.6 2021-05-01 00:35:00
2 2021-05-02 00:00:00 Temperatura 12.4 del 01-05-2021 20:00, Mayor que la Máxima 11.5 02-05-2021 00:00 12.4 -- 11.5 2021-05-02 00:21:00
2 2021-05-03 00:00:00 Temperatura 12.2 del 02-05-2021 15:00, Mayor que la Máxima 11.9 03-05-2021 00:00 12.2 -- 11.9 2021-05-03 00:44:00
2 2021-05-04 00:00:00 Temperatura 15.9 del 03-05-2021 19:00, Mayor que la Máxima 10.2 04-05-2021 00:00 15.9 -- 10.2 2021-05-04 00:22:00
2 2021-05-05 00:00:00 Temperatura 19.2 del 04-05-2021 20:00, Mayor que la Máxima 10.3 05-05-2021 00:00 19.2 -- 10.3 2021-05-05 00:22:00
2 2021-05-06 00:00:00 Temperatura 20.4 del 05-05-2021 20:00, Mayor que la Máxima 11.0 06-05-2021 00:00 20.4 -- 11.0 2021-05-06 00:22:00
2 2021-05-07 00:00:00 Temperatura 21.8 del 06-05-2021 20:00, Mayor que la Máxima 12.3 07-05-2021 00:00 21.8 -- 12.3 2021-05-07 00:21:00
2 2021-05-08 00:00:00 Temperatura 15.6 del 07-05-2021 17:00, Mayor que la Máxima 13.2 08-05-2021 00:00 15.6 -- 13.2 2021-05-08 00:21:00
2 2021-05-09 00:00:00 Temperatura 17.8 del 08-05-2021 19:00, Mayor que la Máxima 11.9 09-05-2021 00:00 17.8 -- 11.9 2021-05-09 00:31:00
2 2021-05-10 00:00:00 Temperatura 16.4 del 09-05-2021 18:00, Mayor que la Máxima 10.8 10-05-2021 00:00 16.4 -- 10.8 2021-05-10 00:21:00
2 2021-05-11 00:00:00 Temperatura 16.8 del 10-05-2021 19:00, Mayor que la Máxima 10.0 11-05-2021 00:00 16.8 -- 10.0 2021-05-11 00:31:00
2 2021-05-12 00:00:00 Temperatura 18.8 del 11-05-2021 19:00, Mayor que la Máxima 8.2 12-05-2021 00:00 18.8 -- 8.2 2021-05-12 00:32:00
2 2021-05-13 00:00:00 Temperatura 17.9 del 12-05-2021 19:00, Mayor que la Máxima 10.0 13-05-2021 00:00 17.9 -- 10.0 2021-05-13 00:21:00
2 2021-05-14 00:00:00 Temperatura 18.1 del 13-05-2021 20:00, Mayor que la Máxima 8.3 14-05-2021 00:00 18.1 -- 8.3 2021-05-14 00:31:00
2 2021-05-15 00:00:00 Temperatura 16.2 del 14-05-2021 19:00, Mayor que la Máxima 10.1 15-05-2021 00:00 16.2 -- 10.1 2021-05-15 00:31:00
2 2021-05-16 00:00:00 Temperatura 17.5 del 15-05-2021 19:00, Mayor que la Máxima 9.4 16-05-2021 00:00 17.5 -- 9.4 2021-05-16 00:21:00
2 2021-05-17 00:00:00 Temperatura 17.0 del 16-05-2021 20:00, Mayor que la Máxima 10.1 17-05-2021 00:00 17.0 -- 10.1 2021-05-17 00:31:00
2 2021-05-18 00:00:00 Temperatura 16.5 del 17-05-2021 19:00, Mayor que la Máxima 7.5 18-05-2021 00:00 16.5 -- 7.5 2021-05-18 00:21:00
2 2021-05-20 00:00:00 Temperatura 13.3 del 19-05-2021 16:00, Mayor que la Máxima 12.2 20-05-2021 00:00 13.3 -- 12.2 2021-05-20 00:21:00
2 2021-05-21 00:00:00 Temperatura 14.1 del 20-05-2021 16:00, Mayor que la Máxima 8.4 21-05-2021 00:00 14.1 -- 8.4 2021-05-21 00:31:00
2 2021-05-22 00:00:00 Temperatura 12.7 del 21-05-2021 18:00, Mayor que la Máxima 8.8 22-05-2021 00:00 12.7 -- 8.8 2021-05-22 00:22:00
2 2021-05-23 00:00:00 Temperatura 14.5 del 22-05-2021 18:00, Mayor que la Máxima 8.2 23-05-2021 00:00 14.5 -- 8.2 2021-05-23 00:21:00
2 2021-05-24 00:00:00 Temperatura 16.5 del 23-05-2021 19:00, Mayor que la Máxima 10.5 24-05-2021 00:00 16.5 -- 10.5 2021-05-24 00:31:00
2 2021-05-25 00:00:00 Temperatura 15.4 del 24-05-2021 18:00, Mayor que la Máxima 10.2 25-05-2021 00:00 15.4 -- 10.2 2021-05-25 00:31:00
2 2021-05-26 00:00:00 Temperatura 16.0 del 25-05-2021 19:00, Mayor que la Máxima 11.0 26-05-2021 00:00 16.0 -- 11.0 2021-05-26 00:32:00
2 2021-05-27 00:00:00 Temperatura 17.7 del 26-05-2021 18:00, Mayor que la Máxima 13.8 27-05-2021 00:00 17.7 -- 13.8 2021-05-27 00:31:00
2 2021-05-28 00:00:00 Temperatura 13.9 del 27-05-2021 16:00, Mayor que la Máxima 9.3 28-05-2021 00:00 13.9 -- 9.3 2021-05-28 00:22:00
2 2021-05-29 00:00:00 Temperatura 14.8 del 28-05-2021 18:00, Mayor que la Máxima 8.6 29-05-2021 00:00 14.8 -- 8.6 2021-05-29 00:31:00
2 2021-05-30 00:00:00 Temperatura 12.2 del 29-05-2021 19:00, Mayor que la Máxima 6.9 30-05-2021 00:00 12.2 -- 6.9 2021-05-30 00:31:00
2 2021-05-31 00:00:00 Temperatura 14.3 del 30-05-2021 19:00, Mayor que la Máxima 11.9 31-05-2021 00:00 14.3 -- 11.9 2021-05-31 00:31:00
2 2021-10-02 00:00:00 Temperatura 15.1 del 01-10-2021 18:00, Mayor que la Máxima 10.8 02-10-2021 00:00 15.1 -- 10.8 2021-10-02 00:20:00
2 2021-10-03 00:00:00 Temperatura 13.1 del 02-10-2021 19:00, Mayor que la Máxima 8.3 03-10-2021 00:00 13.1 -- 8.3 2021-10-03 00:31:00
2 2021-10-04 00:00:00 Temperatura 15.2 del 03-10-2021 20:00, Mayor que la Máxima 10.2 04-10-2021 00:00 15.2 -- 10.2 2021-10-04 00:20:00
2 2021-10-05 00:00:00 Temperatura 19.8 del 04-10-2021 19:00, Mayor que la Máxima 13.0 05-10-2021 00:00 19.8 -- 13.0 2021-10-05 00:20:00
2 2021-10-06 00:00:00 Temperatura 17.7 del 05-10-2021 19:00, Mayor que la Máxima 11.7 06-10-2021 00:00 17.7 -- 11.7 2021-10-06 00:20:00
2 2021-10-07 00:00:00 Temperatura 23.6 del 06-10-2021 19:00, Mayor que la Máxima 16.7 07-10-2021 00:00 23.6 -- 16.7 2021-10-07 00:20:00
2 2021-10-08 00:00:00 Temperatura 23.7 del 07-10-2021 20:00, Mayor que la Máxima 14.4 08-10-2021 00:00 23.7 -- 14.4 2021-10-08 00:20:00
2 2021-10-09 00:00:00 Temperatura 19.9 del 08-10-2021 20:00, Mayor que la Máxima 14.4 09-10-2021 00:00 19.9 -- 14.4 2021-10-09 00:20:00
2 2021-10-10 00:00:00 Temperatura 20.9 del 09-10-2021 21:00, Mayor que la Máxima 14.6 10-10-2021 00:00 20.9 -- 14.6 2021-10-10 00:20:00
2 2021-10-11 00:00:00 Temperatura 16.3 del 10-10-2021 20:00, Mayor que la Máxima 11.3 11-10-2021 00:00 16.3 -- 11.3 2021-10-11 00:20:00
2 2021-10-12 00:00:00 Temperatura 23.4 del 11-10-2021 20:00, Mayor que la Máxima 15.9 12-10-2021 00:00 23.4 -- 15.9 2021-10-12 00:20:00
2 2021-10-13 00:00:00 Temperatura 17.8 del 12-10-2021 20:00, Mayor que la Máxima 12.5 13-10-2021 00:00 17.8 -- 12.5 2021-10-13 00:20:00
2 2021-10-14 00:00:00 Temperatura 13.7 del 13-10-2021 20:00, Mayor que la Máxima 9.4 14-10-2021 00:00 13.7 -- 9.4 2021-10-14 00:20:00
2 2021-10-15 00:00:00 Temperatura 12.7 del 14-10-2021 16:00, Mayor que la Máxima 9.7 15-10-2021 00:00 12.7 -- 9.7 2021-10-15 00:20:00
2 2021-10-16 00:00:00 Temperatura 16.6 del 15-10-2021 20:00, Mayor que la Máxima 10.8 16-10-2021 00:00 16.6 -- 10.8 2021-10-16 00:20:00
2 2021-10-17 00:00:00 Temperatura 17.2 del 16-10-2021 17:00, Mayor que la Máxima 11.6 17-10-2021 00:00 17.2 -- 11.6 2021-10-17 00:20:00
2 2021-10-18 00:00:00 Temperatura 20.5 del 17-10-2021 20:00, Mayor que la Máxima 15.2 18-10-2021 00:00 20.5 -- 15.2 2021-10-18 00:20:00
2 2021-10-19 00:00:00 Temperatura 24.1 del 18-10-2021 20:00, Mayor que la Máxima 17.2 19-10-2021 00:00 24.1 -- 17.2 2021-10-19 00:20:00
2 2021-10-20 00:00:00 Temperatura 29.3 del 19-10-2021 20:00, Mayor que la Máxima 19.2 20-10-2021 00:00 29.3 -- 19.2 2021-10-20 00:20:00
2 2021-10-21 00:00:00 Temperatura 14.6 del 20-10-2021 19:00, Mayor que la Máxima 13.4 21-10-2021 00:00 14.6 -- 13.4 2021-10-21 00:20:00
2 2021-10-22 00:00:00 Temperatura 19.3 del 21-10-2021 19:00, Mayor que la Máxima 13.3 22-10-2021 00:00 19.3 -- 13.3 2021-10-22 00:20:00
2 2021-10-23 00:00:00 Temperatura 16.2 del 22-10-2021 17:00, Mayor que la Máxima 12.1 23-10-2021 00:00 16.2 -- 12.1 2021-10-23 00:31:00
2 2021-10-24 00:00:00 Temperatura 18.4 del 23-10-2021 20:00, Mayor que la Máxima 13.1 24-10-2021 00:00 18.4 -- 13.1 2021-10-24 00:31:00
2 2021-10-25 00:00:00 Temperatura 23.2 del 24-10-2021 20:00, Mayor que la Máxima 16.2 25-10-2021 00:00 23.2 -- 16.2 2021-10-25 00:31:00
2 2021-10-26 00:00:00 Temperatura 22.7 del 25-10-2021 20:00, Mayor que la Máxima 15.4 26-10-2021 00:00 22.7 -- 15.4 2021-10-26 00:20:00
2 2021-10-27 00:00:00 Temperatura 24.8 del 26-10-2021 20:00, Mayor que la Máxima 17.4 27-10-2021 00:00 24.8 -- 17.4 2021-10-27 00:31:00
2 2021-10-28 00:00:00 Temperatura 25.5 del 27-10-2021 21:00, Mayor que la Máxima 17.7 28-10-2021 00:00 25.5 -- 17.7 2021-10-28 00:31:00
2 2021-10-29 00:00:00 Temperatura 25.6 del 28-10-2021 20:00, Mayor que la Máxima 18.5 29-10-2021 00:00 25.6 -- 18.5 2021-10-29 00:31:00
2 2021-10-30 00:00:00 Temperatura 22.6 del 29-10-2021 18:00, Mayor que la Máxima 16.2 30-10-2021 00:00 22.6 -- 16.2 2021-10-30 00:31:00
2 2021-10-31 00:00:00 Temperatura 22.8 del 30-10-2021 18:00, Mayor que la Máxima 18.4 31-10-2021 00:00 22.8 -- 18.4 2021-10-31 00:31:00
2 2021-11-01 00:00:00 Temperatura 25.9 del 31-10-2021 19:00, Mayor que la Máxima 16.4 01-11-2021 00:00 25.9 -- 16.4 2021-11-01 00:31:00
2 2021-11-02 00:00:00 Temperatura 24.5 del 01-11-2021 22:00, Mayor que la Máxima 17.4 02-11-2021 00:00 24.5 -- 17.4 2021-11-02 00:20:00
2 2021-11-03 00:00:00 Temperatura 26.4 del 02-11-2021 21:00, Mayor que la Máxima 17.5 03-11-2021 00:00 26.4 -- 17.5 2021-11-03 00:20:00
2 2021-11-04 00:00:00 Temperatura 15.5 del 03-11-2021 22:00, Mayor que la Máxima 9.1 04-11-2021 00:00 15.5 -- 9.1 2021-11-04 00:20:00
2 2021-11-05 00:00:00 Temperatura 17.3 del 04-11-2021 19:00, Mayor que la Máxima 11.7 05-11-2021 00:00 17.3 -- 11.7 2021-11-05 00:20:00
2 2021-11-06 00:00:00 Temperatura 25.3 del 05-11-2021 21:00, Mayor que la Máxima 19.0 06-11-2021 00:00 25.3 -- 19.0 2021-11-06 00:20:00
2 2021-11-07 00:00:00 Temperatura 25.0 del 06-11-2021 20:00, Mayor que la Máxima 14.2 07-11-2021 00:00 25.0 -- 14.2 2021-11-07 00:31:00
2 2021-11-08 00:00:00 Temperatura 23.4 del 07-11-2021 20:00, Mayor que la Máxima 17.2 08-11-2021 00:00 23.4 -- 17.2 2021-11-08 00:20:00
2 2021-11-09 00:00:00 Temperatura 25.7 del 08-11-2021 21:00, Mayor que la Máxima 19.5 09-11-2021 00:00 25.7 -- 19.5 2021-11-09 00:20:00
2 2021-11-10 00:00:00 Temperatura 28.1 del 09-11-2021 20:00, Mayor que la Máxima 18.1 10-11-2021 00:00 28.1 -- 18.1 2021-11-10 00:20:00
2 2021-11-11 00:00:00 Temperatura 22.8 del 10-11-2021 21:00, Mayor que la Máxima 16.3 11-11-2021 00:00 22.8 -- 16.3 2021-11-11 00:20:00
2 2021-11-12 00:00:00 Temperatura 23.8 del 11-11-2021 19:00, Mayor que la Máxima 13.3 12-11-2021 00:00 23.8 -- 13.3 2021-11-12 00:31:00
2 2021-11-13 00:00:00 Temperatura 16.8 del 12-11-2021 17:00, Mayor que la Máxima 14.0 13-11-2021 00:00 16.8 -- 14.0 2021-11-13 00:20:00
2 2021-11-14 00:00:00 Temperatura 17.9 del 13-11-2021 21:00, Mayor que la Máxima 13.1 14-11-2021 00:00 17.9 -- 13.1 2021-11-14 00:20:00
2 2021-11-15 00:00:00 Temperatura 20.1 del 14-11-2021 20:00, Mayor que la Máxima 14.8 15-11-2021 00:00 20.1 -- 14.8 2021-11-15 00:20:00
2 2021-11-16 00:00:00 Temperatura 18.8 del 15-11-2021 20:00, Mayor que la Máxima 13.2 16-11-2021 00:00 18.8 -- 13.2 2021-11-16 00:20:00
2 2021-11-17 00:00:00 Temperatura 26.2 del 16-11-2021 20:00, Mayor que la Máxima 19.7 17-11-2021 00:00 26.2 -- 19.7 2021-11-17 00:20:00
2 2021-11-18 00:00:00 Temperatura 25.7 del 17-11-2021 19:00, Mayor que la Máxima 18.4 18-11-2021 00:00 25.7 -- 18.4 2021-11-18 00:20:00
2 2021-11-19 00:00:00 Temperatura 24.2 del 18-11-2021 19:00, Mayor que la Máxima 18.7 19-11-2021 00:00 24.2 -- 18.7 2021-11-19 00:20:00
2 2021-11-20 00:00:00 Temperatura 28.4 del 19-11-2021 21:00, Mayor que la Máxima 22.6 20-11-2021 00:00 28.4 -- 22.6 2021-11-20 00:20:00
2 2021-11-21 00:00:00 Temperatura 28.8 del 20-11-2021 20:00, Mayor que la Máxima 21.2 21-11-2021 00:00 28.8 -- 21.2 2021-11-21 00:20:00
2 2021-11-22 00:00:00 Temperatura 28.0 del 21-11-2021 20:00, Mayor que la Máxima 20.7 22-11-2021 00:00 28.0 -- 20.7 2021-11-22 00:20:00
2 2021-11-23 00:00:00 Temperatura 27.4 del 22-11-2021 20:00, Mayor que la Máxima 21.1 23-11-2021 00:00 27.4 -- 21.1 2021-11-23 00:31:00
2 2021-11-24 00:00:00 Temperatura 30.7 del 23-11-2021 21:00, Mayor que la Máxima 22.8 24-11-2021 00:00 30.7 -- 22.8 2021-11-24 00:31:00
2 2021-11-25 00:00:00 Temperatura 15.7 del 24-11-2021 20:00, Mayor que la Máxima 14.7 25-11-2021 00:00 15.7 -- 14.7 2021-11-25 00:31:00
2 2021-11-26 00:00:00 Temperatura 25.9 del 25-11-2021 21:00, Mayor que la Máxima 20.3 26-11-2021 00:00 25.9 -- 20.3 2021-11-26 00:20:00
2 2021-11-27 00:00:00 Temperatura 27.8 del 26-11-2021 20:00, Mayor que la Máxima 18.5 27-11-2021 00:00 27.8 -- 18.5 2021-11-27 00:20:00
2 2021-11-28 00:00:00 Temperatura 21.7 del 27-11-2021 21:00, Mayor que la Máxima 16.5 28-11-2021 00:00 21.7 -- 16.5 2021-11-28 00:20:00
2 2021-11-29 00:00:00 Temperatura 25.2 del 28-11-2021 20:00, Mayor que la Máxima 17.9 29-11-2021 00:00 25.2 -- 17.9 2021-11-29 00:20:00
2 2021-11-30 00:00:00 Temperatura 25.0 del 29-11-2021 21:00, Mayor que la Máxima 18.4 30-11-2021 00:00 25.0 -- 18.4 2021-11-30 00:20:00
2 2021-12-01 00:00:00 Temperatura 26.1 del 30-11-2021 20:00, Mayor que la Máxima 20.2 01-12-2021 00:00 26.1 -- 20.2 2021-12-01 00:20:00
2 2021-12-07 00:00:00 Temperatura 29.6 del 06-12-2021 17:00, Mayor que la Máxima 17.0 07-12-2021 00:00 29.6 -- 17.0 2021-12-08 00:53:00
2 2021-12-08 00:00:00 Temperatura 21.1 del 07-12-2021 21:00, Mayor que la Máxima 16.8 08-12-2021 00:00 21.1 -- 16.8 2021-12-08 00:53:00
2 2021-12-09 00:00:00 Temperatura 32.2 del 08-12-2021 21:00, Mayor que la Máxima 23.3 09-12-2021 00:00 32.2 -- 23.3 2021-12-09 00:31:00
2 2021-12-10 00:00:00 Temperatura 34.4 del 09-12-2021 20:00, Mayor que la Máxima 27.4 10-12-2021 00:00 34.4 -- 27.4 2021-12-10 00:31:00
2 2021-12-11 00:00:00 Temperatura 28.8 del 10-12-2021 18:00, Mayor que la Máxima 15.3 11-12-2021 00:00 28.8 -- 15.3 2021-12-11 00:31:00
2 2021-12-12 00:00:00 Temperatura 19.2 del 11-12-2021 20:00, Mayor que la Máxima 16.9 12-12-2021 00:00 19.2 -- 16.9 2021-12-12 00:20:00
2 2021-12-13 00:00:00 Temperatura 20.5 del 12-12-2021 21:00, Mayor que la Máxima 15.3 13-12-2021 00:00 20.5 -- 15.3 2021-12-13 00:20:00
2 2021-12-14 00:00:00 Temperatura 23.5 del 13-12-2021 22:00, Mayor que la Máxima 18.1 14-12-2021 00:00 23.5 -- 18.1 2021-12-14 00:20:00
2 2021-12-15 00:00:00 Temperatura 25.7 del 14-12-2021 22:00, Mayor que la Máxima 20.9 15-12-2021 00:00 25.7 -- 20.9 2021-12-15 00:20:00
2 2021-12-16 00:00:00 Temperatura 29.2 del 15-12-2021 21:00, Mayor que la Máxima 22.2 16-12-2021 00:00 29.2 -- 22.2 2021-12-16 00:20:00
2 2021-12-17 00:00:00 Temperatura 30.6 del 16-12-2021 19:00, Mayor que la Máxima 20.4 17-12-2021 00:00 30.6 -- 20.4 2021-12-17 00:20:00
2 2022-01-08 00:00:00 Temperatura 32.9 del 07-01-2022 21:00, Mayor que la Máxima 26.8 08-01-2022 00:00 32.9 -- 26.8 2022-01-08 00:20:00
2 2022-01-12 00:00:00 Temperatura 34.6 del 11-01-2022 21:00, Mayor que la Máxima 32.2 12-01-2022 00:00 34.6 -- 32.2 2022-01-12 00:20:00
2 2022-01-13 00:00:00 Temperatura 32.9 del 12-01-2022 20:00, Mayor que la Máxima 32.6 13-01-2022 00:00 32.9 -- 32.6 2022-01-13 00:20:00
2 2022-07-14 00:00:00 Temperatura 5.7 del 13-07-2022 15:00, Mayor que la Máxima 3.3 14-07-2022 00:00 5.7 -- 3.3 2022-07-14 00:09:00
2 2022-09-07 00:00:00 Temperatura 22.6 del 06-09-2022 19:00, Mayor que la Máxima 10.3 07-09-2022 00:00 22.6 -- 10.3 2022-09-07 00:11:00
2 2022-09-08 00:00:00 Temperatura 11.4 del 07-09-2022 18:00, Mayor que la Máxima 8.5 08-09-2022 00:00 11.4 -- 8.5 2022-09-08 00:10:00
2 2022-09-09 00:00:00 Temperatura 12.0 del 08-09-2022 20:00, Mayor que la Máxima 11.8 09-09-2022 00:00 12.0 -- 11.8 2022-09-09 00:10:00
2 2022-09-22 00:00:00 Temperatura 12.6 del 21-09-2022 18:00, Mayor que la Máxima 9.2 22-09-2022 00:00 12.6 -- 9.2 2022-09-22 00:10:00
2 2022-09-24 00:00:00 Temperatura 19.7 del 23-09-2022 19:00, Mayor que la Máxima 19.6 24-09-2022 00:00 19.7 -- 19.6 2022-09-24 00:10:00
2 2022-09-30 00:00:00 Temperatura 20.7 del 29-09-2022 20:00, Mayor que la Máxima 18.2 30-09-2022 00:00 20.7 -- 18.2 2022-09-30 00:10:00
2 2022-10-01 00:00:00 Temperatura 19.9 del 30-09-2022 20:00, Mayor que la Máxima 14.1 01-10-2022 00:00 19.9 -- 14.1 2022-10-01 00:10:00
2 2022-10-03 00:00:00 Temperatura 25.8 del 02-10-2022 20:00, Mayor que la Máxima 13.9 03-10-2022 00:00 25.8 -- 13.9 2022-10-03 00:10:00
2 2022-10-04 00:00:00 Temperatura 14.1 del 03-10-2022 19:00, Mayor que la Máxima 10.6 04-10-2022 00:00 14.1 -- 10.6 2022-10-04 00:10:00
2 2022-10-05 00:00:00 Temperatura 11.8 del 04-10-2022 19:00, Mayor que la Máxima 10.6 05-10-2022 00:00 11.8 -- 10.6 2022-10-05 00:10:00
2 2022-10-06 00:00:00 Temperatura 16.5 del 05-10-2022 20:00, Mayor que la Máxima 11.1 06-10-2022 00:00 16.5 -- 11.1 2022-10-06 00:08:00
2 2022-10-07 00:00:00 Temperatura 15.6 del 06-10-2022 21:00, Mayor que la Máxima 13.4 07-10-2022 00:00 15.6 -- 13.4 2022-10-07 00:08:00
2 2022-10-08 00:00:00 Temperatura 14.6 del 07-10-2022 17:00, Mayor que la Máxima 7.8 08-10-2022 00:00 14.6 -- 7.8 2022-10-08 00:08:00
2 2022-10-09 00:00:00 Temperatura 14.0 del 08-10-2022 20:00, Mayor que la Máxima 9.6 09-10-2022 00:00 14.0 -- 9.6 2022-10-09 00:08:00
2 2022-10-10 00:00:00 Temperatura 18.4 del 09-10-2022 19:00, Mayor que la Máxima 12.9 10-10-2022 00:00 18.4 -- 12.9 2022-10-10 00:09:00
2 2022-10-11 00:00:00 Temperatura 19.0 del 10-10-2022 21:00, Mayor que la Máxima 12.0 11-10-2022 00:00 19.0 -- 12.0 2022-10-11 00:08:00
2 2022-10-12 00:00:00 Temperatura 16.2 del 11-10-2022 20:00, Mayor que la Máxima 13.5 12-10-2022 00:00 16.2 -- 13.5 2022-10-12 00:08:00
2 2022-10-13 00:00:00 Temperatura 16.7 del 12-10-2022 20:00, Mayor que la Máxima 10.9 13-10-2022 00:00 16.7 -- 10.9 2022-10-13 00:08:00
2 2022-10-14 00:00:00 Temperatura 17.0 del 13-10-2022 19:00, Mayor que la Máxima 10.9 14-10-2022 00:00 17.0 -- 10.9 2022-10-14 00:08:00
2 2022-10-15 00:00:00 Temperatura 21.8 del 14-10-2022 20:00, Mayor que la Máxima 16.2 15-10-2022 00:00 21.8 -- 16.2 2022-10-15 00:08:00
2 2022-10-16 00:00:00 Temperatura 25.6 del 15-10-2022 20:00, Mayor que la Máxima 18.2 16-10-2022 00:00 25.6 -- 18.2 2022-10-16 00:09:00
2 2022-10-17 00:00:00 Temperatura 22.0 del 16-10-2022 20:00, Mayor que la Máxima 16.3 17-10-2022 00:00 22.0 -- 16.3 2022-10-17 00:08:00
2 2022-10-18 00:00:00 Temperatura 23.9 del 17-10-2022 21:00, Mayor que la Máxima 19.1 18-10-2022 00:00 23.9 -- 19.1 2022-10-18 00:08:00
2 2022-10-19 00:00:00 Temperatura 19.3 del 18-10-2022 22:00, Mayor que la Máxima 14.8 19-10-2022 00:00 19.3 -- 14.8 2022-10-19 00:09:00
2 2022-10-20 00:00:00 Temperatura 16.0 del 19-10-2022 19:00, Mayor que la Máxima 12.5 20-10-2022 00:00 16.0 -- 12.5 2022-10-20 00:09:00
2 2022-10-21 00:00:00 Temperatura 17.9 del 20-10-2022 19:00, Mayor que la Máxima 15.3 21-10-2022 00:00 17.9 -- 15.3 2022-10-21 00:08:00
2 2022-10-22 00:00:00 Temperatura 19.7 del 21-10-2022 20:00, Mayor que la Máxima 14.5 22-10-2022 00:00 19.7 -- 14.5 2022-10-22 00:09:00
2 2022-10-23 00:00:00 Temperatura 24.5 del 22-10-2022 20:00, Mayor que la Máxima 13.6 23-10-2022 00:00 24.5 -- 13.6 2022-10-23 00:09:00
2 2022-10-24 00:00:00 Temperatura 20.0 del 23-10-2022 20:00, Mayor que la Máxima 11.2 24-10-2022 00:00 20.0 -- 11.2 2022-10-24 00:09:00
2 2022-10-25 00:00:00 Temperatura 22.7 del 24-10-2022 21:00, Mayor que la Máxima 16.5 25-10-2022 00:00 22.7 -- 16.5 2022-10-25 00:09:00
2 2022-10-26 00:00:00 Temperatura 21.7 del 25-10-2022 20:00, Mayor que la Máxima 13.6 26-10-2022 00:00 21.7 -- 13.6 2022-10-27 15:11:00
2 2022-10-27 00:00:00 Temperatura 20.0 del 26-10-2022 21:00, Mayor que la Máxima 13.3 27-10-2022 00:00 20.0 -- 13.3 2022-10-27 15:11:00
2 2022-10-28 00:00:00 Temperatura 21.8 del 27-10-2022 19:00, Mayor que la Máxima 13.9 28-10-2022 00:00 21.8 -- 13.9 2022-10-28 00:09:00
2 2022-10-29 00:00:00 Temperatura 13.4 del 28-10-2022 19:00, Mayor que la Máxima 12.7 29-10-2022 00:00 13.4 -- 12.7 2022-10-29 00:09:00
2 2022-10-30 00:00:00 Temperatura 16.7 del 29-10-2022 20:00, Mayor que la Máxima 9.6 30-10-2022 00:00 16.7 -- 9.6 2022-10-30 00:09:00
2 2022-10-31 00:00:00 Temperatura 15.7 del 30-10-2022 20:00, Mayor que la Máxima 11.5 31-10-2022 00:00 15.7 -- 11.5 2022-10-31 00:09:00
2 2022-11-01 00:00:00 Temperatura 24.7 del 31-10-2022 20:00, Mayor que la Máxima 17.7 01-11-2022 00:00 24.7 -- 17.7 2022-11-01 00:09:00
2 2022-11-02 00:00:00 Temperatura 30.8 del 01-11-2022 19:00, Mayor que la Máxima 22.4 02-11-2022 00:00 30.8 -- 22.4 2022-11-02 00:09:00
2 2022-11-03 00:00:00 Temperatura 30.2 del 02-11-2022 21:00, Mayor que la Máxima 21.5 03-11-2022 00:00 30.2 -- 21.5 2022-11-03 00:09:00
2 2022-11-04 00:00:00 Temperatura 26.5 del 03-11-2022 20:00, Mayor que la Máxima 15.4 04-11-2022 00:00 26.5 -- 15.4 2022-11-04 00:09:00
2 2022-11-05 00:00:00 Temperatura 24.4 del 04-11-2022 20:00, Mayor que la Máxima 13.5 05-11-2022 00:00 24.4 -- 13.5 2022-11-05 00:08:00
2 2022-11-06 00:00:00 Temperatura 21.4 del 05-11-2022 22:00, Mayor que la Máxima 16.2 06-11-2022 00:00 21.4 -- 16.2 2022-11-06 00:08:00
2 2022-11-07 00:00:00 Temperatura 24.2 del 06-11-2022 20:00, Mayor que la Máxima 17.5 07-11-2022 00:00 24.2 -- 17.5 2022-11-07 00:08:00
2 2022-11-08 00:00:00 Temperatura 27.2 del 07-11-2022 20:00, Mayor que la Máxima 20.3 08-11-2022 00:00 27.2 -- 20.3 2022-11-08 00:09:00
2 2022-11-09 00:00:00 Temperatura 26.2 del 08-11-2022 17:00, Mayor que la Máxima 16.1 09-11-2022 00:00 26.2 -- 16.1 2022-11-09 00:09:00
2 2022-11-10 00:00:00 Temperatura 19.9 del 09-11-2022 19:00, Mayor que la Máxima 12.6 10-11-2022 00:00 19.9 -- 12.6 2022-11-10 00:09:00
2 2022-11-11 00:00:00 Temperatura 19.7 del 10-11-2022 16:00, Mayor que la Máxima 14.5 11-11-2022 00:00 19.7 -- 14.5 2022-11-11 00:09:00
2 2022-11-12 00:00:00 Temperatura 20.3 del 11-11-2022 18:00, Mayor que la Máxima 12.0 12-11-2022 00:00 20.3 -- 12.0 2022-11-12 00:36:00
2 2022-11-13 00:00:00 Temperatura 15.4 del 12-11-2022 19:00, Mayor que la Máxima 11.4 13-11-2022 00:00 15.4 -- 11.4 2022-11-13 00:36:00
2 2022-11-14 00:00:00 Temperatura 20.0 del 13-11-2022 21:00, Mayor que la Máxima 14.6 14-11-2022 00:00 20.0 -- 14.6 2022-11-14 00:21:00
2 2022-11-15 00:00:00 Temperatura 22.0 del 14-11-2022 21:00, Mayor que la Máxima 15.6 15-11-2022 00:00 22.0 -- 15.6 2022-11-15 01:10:00
2 2022-11-16 00:00:00 Temperatura 26.5 del 15-11-2022 20:00, Mayor que la Máxima 20.5 16-11-2022 00:00 26.5 -- 20.5 2022-11-16 00:21:00
2 2022-11-17 00:00:00 Temperatura 27.7 del 16-11-2022 21:00, Mayor que la Máxima 20.9 17-11-2022 00:00 27.7 -- 20.9 2022-11-17 00:21:00
2 2022-11-19 00:00:00 Temperatura 26.1 del 18-11-2022 20:00, Mayor que la Máxima 20.1 19-11-2022 00:00 26.1 -- 20.1 2022-11-19 00:09:00
2 2022-11-20 00:00:00 Temperatura 21.8 del 19-11-2022 19:00, Mayor que la Máxima 15.0 20-11-2022 00:00 21.8 -- 15.0 2022-11-20 00:09:00
2 2022-11-21 00:00:00 Temperatura 24.3 del 20-11-2022 20:00, Mayor que la Máxima 18.1 21-11-2022 00:00 24.3 -- 18.1 2022-11-21 00:09:00
2 2022-11-22 00:00:00 Temperatura 27.7 del 21-11-2022 20:00, Mayor que la Máxima 20.6 22-11-2022 00:00 27.7 -- 20.6 2022-11-22 02:37:00
2 2022-11-23 00:00:00 Temperatura 29.0 del 22-11-2022 20:00, Mayor que la Máxima 22.4 23-11-2022 00:00 29.0 -- 22.4 2022-11-23 00:09:00
2 2022-11-25 00:00:00 Temperatura 28.9 del 24-11-2022 20:00, Mayor que la Máxima 22.6 25-11-2022 00:00 28.9 -- 22.6 2022-11-25 00:09:00
2 2022-11-26 00:00:00 Temperatura 30.1 del 25-11-2022 20:00, Mayor que la Máxima 27.0 26-11-2022 00:00 30.1 -- 27.0 2022-11-26 00:09:00
2 2022-12-02 00:00:00 Temperatura 27.6 del 01-12-2022 21:00, Mayor que la Máxima 26.9 02-12-2022 00:00 27.6 -- 26.9 2022-12-02 00:09:00
2 2022-12-03 00:00:00 Temperatura 28.7 del 02-12-2022 21:00, Mayor que la Máxima 22.1 03-12-2022 00:00 28.7 -- 22.1 2022-12-03 00:09:00
2 2022-12-04 00:00:00 Temperatura 27.3 del 03-12-2022 20:00, Mayor que la Máxima 20.5 04-12-2022 00:00 27.3 -- 20.5 2022-12-04 00:09:00
2 2022-12-05 00:00:00 Temperatura 28.5 del 04-12-2022 21:00, Mayor que la Máxima 21.6 05-12-2022 00:00 28.5 -- 21.6 2022-12-05 00:09:00
2 2022-12-06 00:00:00 Temperatura 29.4 del 05-12-2022 19:00, Mayor que la Máxima 20.6 06-12-2022 00:00 29.4 -- 20.6 2022-12-06 00:09:00
2 2022-12-07 00:00:00 Temperatura 29.5 del 06-12-2022 21:00, Mayor que la Máxima 23.3 07-12-2022 00:00 29.5 -- 23.3 2022-12-07 00:08:00
2 2022-12-08 00:00:00 Temperatura 23.5 del 07-12-2022 20:00, Mayor que la Máxima 18.8 08-12-2022 00:00 23.5 -- 18.8 2022-12-08 00:08:00
2 2022-12-09 00:00:00 Temperatura 25.0 del 08-12-2022 21:00, Mayor que la Máxima 24.7 09-12-2022 00:00 25.0 -- 24.7 2022-12-09 00:09:00
2 2022-12-10 00:00:00 Temperatura 27.7 del 09-12-2022 19:00, Mayor que la Máxima 21.0 10-12-2022 00:00 27.7 -- 21.0 2022-12-10 00:08:00
2 2022-12-11 00:00:00 Temperatura 28.3 del 10-12-2022 19:00, Mayor que la Máxima 22.1 11-12-2022 00:00 28.3 -- 22.1 2022-12-11 00:08:00
2 2022-12-12 00:00:00 Temperatura 25.5 del 11-12-2022 19:00, Mayor que la Máxima 19.1 12-12-2022 00:00 25.5 -- 19.1 2022-12-12 00:09:00
2 2022-12-13 00:00:00 Temperatura 24.4 del 12-12-2022 18:00, Mayor que la Máxima 18.3 13-12-2022 00:00 24.4 -- 18.3 2022-12-13 01:51:00
2 2022-12-14 00:00:00 Temperatura 28.8 del 13-12-2022 21:00, Mayor que la Máxima 22.7 14-12-2022 00:00 28.8 -- 22.7 2022-12-14 00:09:00
2 2022-12-15 00:00:00 Temperatura 26.3 del 14-12-2022 20:00, Mayor que la Máxima 21.4 15-12-2022 00:00 26.3 -- 21.4 2022-12-15 00:08:00
2 2022-12-18 00:00:00 Temperatura 28.7 del 17-12-2022 21:00, Mayor que la Máxima 22.1 18-12-2022 00:00 28.7 -- 22.1 2022-12-18 00:08:00
2 2022-12-19 00:00:00 Temperatura 29.5 del 18-12-2022 21:00, Mayor que la Máxima 21.8 19-12-2022 00:00 29.5 -- 21.8 2022-12-19 00:08:00
2 2022-12-20 00:00:00 Temperatura 25.1 del 19-12-2022 17:00, Mayor que la Máxima 16.1 20-12-2022 00:00 25.1 -- 16.1 2022-12-20 01:36:00
2 2022-12-21 00:00:00 Temperatura 25.4 del 20-12-2022 19:00, Mayor que la Máxima 19.8 21-12-2022 00:00 25.4 -- 19.8 2022-12-21 00:35:00
2 2022-12-22 00:00:00 Temperatura 27.1 del 21-12-2022 20:00, Mayor que la Máxima 19.7 22-12-2022 00:00 27.1 -- 19.7 2022-12-22 02:09:00
2 2022-12-23 00:00:00 Temperatura 17.4 del 22-12-2022 13:00, Mayor que la Máxima 15.0 23-12-2022 00:00 17.4 -- 15.0 2022-12-23 00:21:00
2 2022-12-24 00:00:00 Temperatura 22.8 del 23-12-2022 19:00, Mayor que la Máxima 16.9 24-12-2022 00:00 22.8 -- 16.9 2022-12-24 00:21:00
2 2022-12-25 00:00:00 Temperatura 32.2 del 24-12-2022 20:00, Mayor que la Máxima 25.9 25-12-2022 00:00 32.2 -- 25.9 2022-12-25 00:36:00
2 2022-12-26 00:00:00 Temperatura 36.2 del 25-12-2022 20:00, Mayor que la Máxima 28.7 26-12-2022 00:00 36.2 -- 28.7 2022-12-26 00:36:00
2 2022-12-27 00:00:00 Temperatura 19.5 del 26-12-2022 20:00, Mayor que la Máxima 17.9 27-12-2022 00:00 19.5 -- 17.9 2022-12-27 00:09:00
2 2022-12-28 00:00:00 Temperatura 27.5 del 27-12-2022 20:00, Mayor que la Máxima 20.4 28-12-2022 00:00 27.5 -- 20.4 2022-12-28 00:09:00
2 2022-12-29 00:00:00 Temperatura 27.7 del 28-12-2022 20:00, Mayor que la Máxima 20.7 29-12-2022 00:00 27.7 -- 20.7 2022-12-29 00:36:00
2 2022-12-30 00:00:00 Temperatura 31.6 del 29-12-2022 21:00, Mayor que la Máxima 24.6 30-12-2022 00:00 31.6 -- 24.6 2022-12-30 00:09:00
2 2022-12-31 00:00:00 Temperatura 31.8 del 30-12-2022 19:00, Mayor que la Máxima 24.0 31-12-2022 00:00 31.8 -- 24.0 2022-12-31 00:09:00
2 2023-01-01 00:00:00 Temperatura 25.0 del 31-12-2022 18:00, Mayor que la Máxima 19.7 01-01-2023 00:00 25.0 -- 19.7 2023-01-01 00:36:00
2 2023-01-02 00:00:00 Temperatura 24.6 del 01-01-2023 20:00, Mayor que la Máxima 21.1 02-01-2023 00:00 24.6 -- 21.1 2023-01-02 00:09:00
2 2023-01-02 00:00:00 Temperatura 24.6 del 01-01-2023 20:00, Mayor que la Máxima 21.1 02-01-2023 00:00 24.6 -- 21.1 2023-01-02 00:09:00
2 2023-01-03 00:00:00 Temperatura 25.9 del 02-01-2023 20:00, Mayor que la Máxima 19.4 03-01-2023 00:00 25.9 -- 19.4 2023-01-03 00:09:00
2 2023-01-04 00:00:00 Temperatura 26.9 del 03-01-2023 20:00, Mayor que la Máxima 21.9 04-01-2023 00:00 26.9 -- 21.9 2023-01-04 00:09:00
2 2023-01-05 00:00:00 Temperatura 32.2 del 04-01-2023 22:00, Mayor que la Máxima 26.4 05-01-2023 00:00 32.2 -- 26.4 2023-01-05 00:09:00
2 2023-01-06 00:00:00 Temperatura 28.5 del 05-01-2023 19:00, Mayor que la Máxima 20.7 06-01-2023 00:00 28.5 -- 20.7 2023-01-06 00:21:00
2 2023-01-07 00:00:00 Temperatura 29.6 del 06-01-2023 19:00, Mayor que la Máxima 21.1 07-01-2023 00:00 29.6 -- 21.1 2023-01-07 00:35:00
2 2023-01-08 00:00:00 Temperatura 30.8 del 07-01-2023 20:00, Mayor que la Máxima 23.0 08-01-2023 00:00 30.8 -- 23.0 2023-01-08 00:35:00
2 2023-01-09 00:00:00 Temperatura 33.3 del 08-01-2023 21:00, Mayor que la Máxima 26.1 09-01-2023 00:00 33.3 -- 26.1 2023-01-09 00:21:00
2 2023-01-10 00:00:00 Temperatura 28.7 del 09-01-2023 22:00, Mayor que la Máxima 22.5 10-01-2023 00:00 28.7 -- 22.5 2023-01-10 00:35:00
2 2023-01-11 00:00:00 Temperatura 26.1 del 10-01-2023 19:00, Mayor que la Máxima 19.6 11-01-2023 00:00 26.1 -- 19.6 2023-01-11 00:21:00
2 2023-01-12 00:00:00 Temperatura 26.0 del 11-01-2023 20:00, Mayor que la Máxima 19.3 12-01-2023 00:00 26.0 -- 19.3 2023-01-12 00:09:00
2 2023-01-13 00:00:00 Temperatura 26.7 del 12-01-2023 20:00, Mayor que la Máxima 21.0 13-01-2023 00:00 26.7 -- 21.0 2023-01-13 00:09:00
2 2023-01-14 00:00:00 Temperatura 28.0 del 13-01-2023 21:00, Mayor que la Máxima 23.0 14-01-2023 00:00 28.0 -- 23.0 2023-01-14 00:36:00
2 2023-01-15 00:00:00 Temperatura 26.4 del 14-01-2023 19:00, Mayor que la Máxima 22.1 15-01-2023 00:00 26.4 -- 22.1 2023-01-15 00:36:00
2 2023-01-16 00:00:00 Temperatura 29.2 del 15-01-2023 21:00, Mayor que la Máxima 23.9 16-01-2023 00:00 29.2 -- 23.9 2023-01-16 00:36:00
2 2023-01-17 00:00:00 Temperatura 29.3 del 16-01-2023 21:00, Mayor que la Máxima 23.9 17-01-2023 00:00 29.3 -- 23.9 2023-01-17 00:36:00
2 2023-01-18 00:00:00 Temperatura 30.6 del 17-01-2023 22:00, Mayor que la Máxima 23.9 18-01-2023 00:00 30.6 -- 23.9 2023-01-18 00:36:00
2 2023-01-19 00:00:00 Temperatura 34.6 del 18-01-2023 21:00, Mayor que la Máxima 26.2 19-01-2023 00:00 34.6 -- 26.2 2023-01-19 00:36:00
2 2023-01-20 00:00:00 Temperatura 29.2 del 19-01-2023 19:00, Mayor que la Máxima 18.6 20-01-2023 00:00 29.2 -- 18.6 2023-01-20 00:36:00
2 2023-01-21 00:00:00 Temperatura 27.4 del 20-01-2023 21:00, Mayor que la Máxima 22.1 21-01-2023 00:00 27.4 -- 22.1 2023-01-21 00:09:00
2 2023-01-22 00:00:00 Temperatura 28.8 del 21-01-2023 20:00, Mayor que la Máxima 23.8 22-01-2023 00:00 28.8 -- 23.8 2023-01-22 00:36:00
2 2023-01-23 00:00:00 Temperatura 31.1 del 22-01-2023 20:00, Mayor que la Máxima 25.2 23-01-2023 00:00 31.1 -- 25.2 2023-01-23 00:36:00
2 2023-01-24 00:00:00 Temperatura 31.8 del 23-01-2023 20:00, Mayor que la Máxima 22.6 24-01-2023 00:00 31.8 -- 22.6 2023-01-24 00:36:00
2 2023-01-25 00:00:00 Temperatura 25.1 del 24-01-2023 21:00, Mayor que la Máxima 20.5 25-01-2023 00:00 25.1 -- 20.5 2023-01-25 00:21:00
2 2023-01-26 00:00:00 Temperatura 25.4 del 25-01-2023 22:00, Mayor que la Máxima 20.3 26-01-2023 00:00 25.4 -- 20.3 2023-01-26 00:21:00
2 2023-01-27 00:00:00 Temperatura 25.0 del 26-01-2023 19:00, Mayor que la Máxima 21.4 27-01-2023 00:00 25.0 -- 21.4 2023-01-27 00:36:00
2 2023-01-28 00:00:00 Temperatura 28.0 del 27-01-2023 20:00, Mayor que la Máxima 23.2 28-01-2023 00:00 28.0 -- 23.2 2023-01-28 00:09:00
2 2023-01-29 00:00:00 Temperatura 31.8 del 28-01-2023 21:00, Mayor que la Máxima 25.8 29-01-2023 00:00 31.8 -- 25.8 2023-01-29 00:09:00
2 2023-01-30 00:00:00 Temperatura 31.8 del 29-01-2023 21:00, Mayor que la Máxima 25.6 30-01-2023 00:00 31.8 -- 25.6 2023-01-30 00:09:00
2 2023-01-31 00:00:00 Temperatura 29.2 del 30-01-2023 20:00, Mayor que la Máxima 23.4 31-01-2023 00:00 29.2 -- 23.4 2023-01-31 00:09:00
2 2023-02-01 00:00:00 Temperatura 30.7 del 31-01-2023 22:00, Mayor que la Máxima 25.5 01-02-2023 00:00 30.7 -- 25.5 2023-02-01 00:09:00
2 2023-02-02 00:00:00 Temperatura 29.3 del 01-02-2023 21:00, Mayor que la Máxima 24.7 02-02-2023 00:00 29.3 -- 24.7 2023-02-02 00:09:00
2 2023-02-03 00:00:00 Temperatura 32.0 del 02-02-2023 21:00, Mayor que la Máxima 24.4 03-02-2023 00:00 32.0 -- 24.4 2023-02-03 00:09:00
2 2023-02-04 00:00:00 Temperatura 39.0 del 03-02-2023 20:00, Mayor que la Máxima 30.6 04-02-2023 00:00 39.0 -- 30.6 2023-02-04 00:09:00
2 2023-02-05 00:00:00 Temperatura 28.0 del 04-02-2023 20:00, Mayor que la Máxima 17.9 05-02-2023 00:00 28.0 -- 17.9 2023-02-05 00:09:00
2 2023-02-06 00:00:00 Temperatura 31.5 del 05-02-2023 19:00, Mayor que la Máxima 25.3 06-02-2023 00:00 31.5 -- 25.3 2023-02-06 00:09:00
2 2023-02-07 00:00:00 Temperatura 31.5 del 06-02-2023 20:00, Mayor que la Máxima 25.0 07-02-2023 00:00 31.5 -- 25.0 2023-02-07 00:08:00
2 2023-02-08 00:00:00 Temperatura 32.2 del 07-02-2023 20:00, Mayor que la Máxima 26.2 08-02-2023 00:00 32.2 -- 26.2 2023-02-08 00:08:00
2 2023-08-11 00:00:00 Temperatura 14.8 del 10-08-2023 17:00, Mayor que la Máxima 12.2 11-08-2023 00:00 14.8 -- 12.2 2023-08-11 01:09:00
2 2016-12-19 12:00:00 Temperatura 9.5 del 19-12-2016 09:00, Menor que la Mínima 14.1 19-12-2016 12:00 9.5 -- 14.1 2017-06-02 16:50:00
2 2016-12-20 12:00:00 Temperatura 8.1 del 20-12-2016 09:00, Menor que la Mínima 14.2 20-12-2016 12:00 8.1 -- 14.2 2017-06-02 16:51:00
2 2016-12-21 12:00:00 Temperatura 10.6 del 21-12-2016 10:00, Menor que la Mínima 14.4 21-12-2016 12:00 10.6 -- 14.4 2017-06-02 16:51:00
2 2016-12-22 12:00:00 Temperatura 8.1 del 22-12-2016 10:00, Menor que la Mínima 13.7 22-12-2016 12:00 8.1 -- 13.7 2017-06-02 16:48:00
2 2016-12-23 12:00:00 Temperatura 9.2 del 23-12-2016 10:00, Menor que la Mínima 12.2 23-12-2016 12:00 9.2 -- 12.2 2017-06-02 16:50:00
2 2016-12-24 12:00:00 Temperatura 9.7 del 24-12-2016 10:00, Menor que la Mínima 13.3 24-12-2016 12:00 9.7 -- 13.3 2017-06-02 16:51:00
2 2016-12-25 12:00:00 Temperatura 11.6 del 25-12-2016 10:00, Menor que la Mínima 13.9 25-12-2016 12:00 11.6 -- 13.9 2017-06-02 16:52:00
2 2016-12-26 12:00:00 Temperatura 9.1 del 26-12-2016 10:00, Menor que la Mínima 11.7 26-12-2016 12:00 9.1 -- 11.7 2017-06-02 16:49:00
2 2016-12-27 12:00:00 Temperatura 9.8 del 27-12-2016 09:00, Menor que la Mínima 13.7 27-12-2016 12:00 9.8 -- 13.7 2017-06-02 16:48:00
2 2016-12-28 12:00:00 Temperatura 12.5 del 28-12-2016 10:00, Menor que la Mínima 13.2 28-12-2016 12:00 12.5 -- 13.2 2017-06-02 16:50:00
2 2016-12-29 12:00:00 Temperatura 13.9 del 29-12-2016 09:00, Menor que la Mínima 17.0 29-12-2016 12:00 13.9 -- 17.0 2017-06-02 16:47:00
2 2016-12-30 12:00:00 Temperatura 14.9 del 30-12-2016 03:00, Menor que la Mínima 18.1 30-12-2016 12:00 14.9 -- 18.1 2017-06-02 16:49:00
2 2016-12-31 12:00:00 Temperatura 14.5 del 31-12-2016 07:00, Menor que la Mínima 15.3 31-12-2016 12:00 14.5 -- 15.3 2017-06-02 16:47:00
2 2017-01-01 12:00:00 Temperatura 10.8 del 01-01-2017 09:00, Menor que la Mínima 15.9 01-01-2017 12:00 10.8 -- 15.9 2017-06-02 16:47:00
2 2017-01-01 12:00:00 Temperatura 10.8 del 01-01-2017 09:00, Menor que la Mínima 15.9 01-01-2017 12:00 10.8 -- 15.9 2017-06-02 16:47:00
2 2017-01-02 12:00:00 Temperatura 10.7 del 02-01-2017 10:00, Menor que la Mínima 14.4 02-01-2017 12:00 10.7 -- 14.4 2017-06-02 16:47:00
2 2017-01-03 12:00:00 Temperatura 8.5 del 03-01-2017 09:00, Menor que la Mínima 14.8 03-01-2017 12:00 8.5 -- 14.8 2017-06-02 16:51:00
2 2017-01-04 12:00:00 Temperatura 6.7 del 04-01-2017 10:00, Menor que la Mínima 14.0 04-01-2017 12:00 6.7 -- 14.0 2017-06-02 16:49:00
2 2017-01-05 12:00:00 Temperatura 9.3 del 05-01-2017 09:00, Menor que la Mínima 13.0 05-01-2017 12:00 9.3 -- 13.0 2017-06-02 16:47:00
2 2017-01-06 12:00:00 Temperatura 10.0 del 06-01-2017 10:00, Menor que la Mínima 13.1 06-01-2017 12:00 10.0 -- 13.1 2017-06-02 16:46:00
2 2017-01-07 12:00:00 Temperatura 9.9 del 07-01-2017 10:00, Menor que la Mínima 15.1 07-01-2017 12:00 9.9 -- 15.1 2017-06-02 16:47:00
2 2017-01-08 12:00:00 Temperatura 12.5 del 08-01-2017 10:00, Menor que la Mínima 17.9 08-01-2017 12:00 12.5 -- 17.9 2017-06-02 16:49:00
2 2017-01-09 12:00:00 Temperatura 12.6 del 09-01-2017 10:00, Menor que la Mínima 18.6 09-01-2017 12:00 12.6 -- 18.6 2017-06-02 16:51:00
2 2017-01-10 12:00:00 Temperatura 8.7 del 10-01-2017 10:00, Menor que la Mínima 15.1 10-01-2017 12:00 8.7 -- 15.1 2017-06-02 16:48:00
2 2017-01-12 12:00:00 Temperatura 12.4 del 12-01-2017 10:00, Menor que la Mínima 13.2 12-01-2017 12:00 12.4 -- 13.2 2017-06-02 16:51:00
2 2017-01-13 12:00:00 Temperatura 13.8 del 13-01-2017 10:00, Menor que la Mínima 18.3 13-01-2017 12:00 13.8 -- 18.3 2017-06-02 16:49:00
2 2017-01-14 12:00:00 Temperatura 11.1 del 14-01-2017 10:00, Menor que la Mínima 17.2 14-01-2017 12:00 11.1 -- 17.2 2017-06-02 16:46:00
2 2017-01-15 12:00:00 Temperatura 10.3 del 15-01-2017 10:00, Menor que la Mínima 14.0 15-01-2017 12:00 10.3 -- 14.0 2017-06-02 16:49:00
2 2017-01-16 12:00:00 Temperatura 11.1 del 16-01-2017 10:00, Menor que la Mínima 13.9 16-01-2017 12:00 11.1 -- 13.9 2017-06-02 16:46:00
2 2017-01-18 12:00:00 Temperatura 10.5 del 18-01-2017 10:00, Menor que la Mínima 17.0 18-01-2017 12:00 10.5 -- 17.0 2017-06-02 16:50:00
2 2017-01-19 12:00:00 Temperatura 11.8 del 19-01-2017 09:00, Menor que la Mínima 13.9 19-01-2017 12:00 11.8 -- 13.9 2017-06-02 16:48:00
2 2017-01-21 12:00:00 Temperatura 13.8 del 21-01-2017 09:00, Menor que la Mínima 17.8 21-01-2017 12:00 13.8 -- 17.8 2017-06-02 16:47:00
2 2017-01-22 12:00:00 Temperatura 12.8 del 22-01-2017 10:00, Menor que la Mínima 16.8 22-01-2017 12:00 12.8 -- 16.8 2017-06-02 16:49:00
2 2017-01-23 12:00:00 Temperatura 12.6 del 23-01-2017 10:00, Menor que la Mínima 15.9 23-01-2017 12:00 12.6 -- 15.9 2017-06-02 16:46:00
2 2017-01-24 12:00:00 Temperatura 12.3 del 24-01-2017 10:00, Menor que la Mínima 16.6 24-01-2017 12:00 12.3 -- 16.6 2017-06-02 16:50:00
2 2017-01-25 12:00:00 Temperatura 16.1 del 25-01-2017 10:00, Menor que la Mínima 17.1 25-01-2017 12:00 16.1 -- 17.1 2017-06-02 16:47:00
2 2017-01-26 12:00:00 Temperatura 17.8 del 26-01-2017 10:00, Menor que la Mínima 18.5 26-01-2017 12:00 17.8 -- 18.5 2017-06-02 16:50:00
2 2017-01-27 12:00:00 Temperatura 15.1 del 27-01-2017 10:00, Menor que la Mínima 21.0 27-01-2017 12:00 15.1 -- 21.0 2017-06-02 16:49:00
2 2017-01-28 12:00:00 Temperatura 15.1 del 28-01-2017 10:00, Menor que la Mínima 18.0 28-01-2017 12:00 15.1 -- 18.0 2017-06-02 16:50:00
2 2017-01-29 12:00:00 Temperatura 12.1 del 29-01-2017 10:00, Menor que la Mínima 18.6 29-01-2017 12:00 12.1 -- 18.6 2017-06-02 16:48:00
2 2017-01-30 12:00:00 Temperatura 13.0 del 30-01-2017 10:00, Menor que la Mínima 15.4 30-01-2017 12:00 13.0 -- 15.4 2017-06-02 16:49:00
2 2017-01-31 12:00:00 Temperatura 10.5 del 31-01-2017 10:00, Menor que la Mínima 16.3 31-01-2017 12:00 10.5 -- 16.3 2017-06-02 16:46:00
2 2017-02-02 12:00:00 Temperatura 10.8 del 02-02-2017 10:00, Menor que la Mínima 14.2 02-02-2017 12:00 10.8 -- 14.2 2017-06-02 16:49:00
2 2017-02-03 12:00:00 Temperatura 9.9 del 03-02-2017 08:00, Menor que la Mínima 14.2 03-02-2017 12:00 9.9 -- 14.2 2017-06-02 16:47:00
2 2017-02-05 12:00:00 Temperatura 9.4 del 05-02-2017 10:00, Menor que la Mínima 14.3 05-02-2017 12:00 9.4 -- 14.3 2017-06-02 16:51:00
2 2017-02-06 12:00:00 Temperatura 10.7 del 06-02-2017 09:00, Menor que la Mínima 13.0 06-02-2017 12:00 10.7 -- 13.0 2017-06-02 16:49:00
2 2017-02-07 12:00:00 Temperatura 11.5 del 07-02-2017 10:00, Menor que la Mínima 14.0 07-02-2017 12:00 11.5 -- 14.0 2017-06-02 16:52:00
2 2017-02-08 12:00:00 Temperatura 10.6 del 08-02-2017 10:00, Menor que la Mínima 13.9 08-02-2017 12:00 10.6 -- 13.9 2017-06-02 16:46:00
2 2017-02-09 12:00:00 Temperatura 11.4 del 09-02-2017 11:00, Menor que la Mínima 13.2 09-02-2017 12:00 11.4 -- 13.2 2017-06-02 16:49:00
2 2017-02-10 12:00:00 Temperatura 11.6 del 10-02-2017 10:00, Menor que la Mínima 13.8 10-02-2017 12:00 11.6 -- 13.8 2017-06-02 16:50:00
2 2017-02-11 12:00:00 Temperatura 11.1 del 11-02-2017 10:00, Menor que la Mínima 13.9 11-02-2017 12:00 11.1 -- 13.9 2017-06-02 16:47:00
2 2017-02-12 12:00:00 Temperatura 12.3 del 12-02-2017 09:00, Menor que la Mínima 14.3 12-02-2017 12:00 12.3 -- 14.3 2017-06-02 16:51:00
2 2017-02-13 12:00:00 Temperatura 13.8 del 13-02-2017 10:00, Menor que la Mínima 15.0 13-02-2017 12:00 13.8 -- 15.0 2017-06-02 16:49:00
2 2017-02-14 12:00:00 Temperatura 14.8 del 14-02-2017 10:00, Menor que la Mínima 16.1 14-02-2017 12:00 14.8 -- 16.1 2017-06-02 16:49:00
2 2017-02-15 12:00:00 Temperatura 10.7 del 15-02-2017 10:00, Menor que la Mínima 16.6 15-02-2017 12:00 10.7 -- 16.6 2017-06-02 16:51:00
2 2017-02-16 12:00:00 Temperatura 13.2 del 16-02-2017 07:00, Menor que la Mínima 14.5 16-02-2017 12:00 13.2 -- 14.5 2017-06-02 16:49:00
2 2017-02-17 12:00:00 Temperatura 6.3 del 17-02-2017 11:00, Menor que la Mínima 15.0 17-02-2017 12:00 6.3 -- 15.0 2017-06-02 16:48:00
2 2017-02-19 12:00:00 Temperatura 8.4 del 19-02-2017 11:00, Menor que la Mínima 12.9 19-02-2017 12:00 8.4 -- 12.9 2017-06-02 16:49:00
2 2017-02-21 12:00:00 Temperatura 17.2 del 21-02-2017 09:00, Menor que la Mínima 17.3 21-02-2017 12:00 17.2 -- 17.3 2017-06-02 16:51:00
2 2017-02-22 12:00:00 Temperatura 17.3 del 22-02-2017 09:00, Menor que la Mínima 18.8 22-02-2017 12:00 17.3 -- 18.8 2017-06-02 16:48:00
2 2017-02-24 12:00:00 Temperatura 18.7 del 24-02-2017 06:00, Menor que la Mínima 19.7 24-02-2017 12:00 18.7 -- 19.7 2017-06-02 16:47:00
2 2017-02-25 12:00:00 Temperatura 16.1 del 25-02-2017 11:00, Menor que la Mínima 19.4 25-02-2017 12:00 16.1 -- 19.4 2017-06-02 16:47:00
2 2017-02-26 12:00:00 Temperatura 16.3 del 26-02-2017 07:00, Menor que la Mínima 17.2 26-02-2017 12:00 16.3 -- 17.2 2017-06-02 16:48:00
2 2017-02-27 12:00:00 Temperatura 13.9 del 27-02-2017 08:00, Menor que la Mínima 18.7 27-02-2017 12:00 13.9 -- 18.7 2017-06-02 16:49:00
2 2017-02-28 12:00:00 Temperatura 14.9 del 28-02-2017 07:00, Menor que la Mínima 16.0 28-02-2017 12:00 14.9 -- 16.0 2017-06-02 16:50:00
2 2017-03-01 12:00:00 Temperatura 15.4 del 01-03-2017 05:00, Menor que la Mínima 16.1 01-03-2017 12:00 15.4 -- 16.1 2017-06-02 16:49:00
2 2017-03-02 12:00:00 Temperatura 12.7 del 02-03-2017 02:00, Menor que la Mínima 15.3 02-03-2017 12:00 12.7 -- 15.3 2017-06-02 16:46:00
2 2017-03-03 12:00:00 Temperatura 10.4 del 03-03-2017 11:00, Menor que la Mínima 14.2 03-03-2017 12:00 10.4 -- 14.2 2017-06-02 16:46:00
2 2017-03-04 12:00:00 Temperatura 8.8 del 04-03-2017 10:00, Menor que la Mínima 11.3 04-03-2017 12:00 8.8 -- 11.3 2017-06-02 16:50:00
2 2017-03-05 12:00:00 Temperatura 7.9 del 05-03-2017 11:00, Menor que la Mínima 10.9 05-03-2017 12:00 7.9 -- 10.9 2017-06-02 16:52:00
2 2017-03-06 12:00:00 Temperatura 7.0 del 06-03-2017 11:00, Menor que la Mínima 10.4 06-03-2017 12:00 7.0 -- 10.4 2017-06-02 16:46:00
2 2017-03-07 12:00:00 Temperatura 6.7 del 07-03-2017 11:00, Menor que la Mínima 10.6 07-03-2017 12:00 6.7 -- 10.6 2017-06-02 16:51:00
2 2017-03-09 12:00:00 Temperatura 11.3 del 09-03-2017 04:00, Menor que la Mínima 11.8 09-03-2017 12:00 11.3 -- 11.8 2017-06-02 16:48:00
2 2017-03-10 12:00:00 Temperatura 5.5 del 10-03-2017 11:00, Menor que la Mínima 12.1 10-03-2017 12:00 5.5 -- 12.1 2017-06-02 16:48:00
2 2017-03-12 12:00:00 Temperatura 6.9 del 12-03-2017 08:00, Menor que la Mínima 10.9 12-03-2017 12:00 6.9 -- 10.9 2017-06-02 16:46:00
2 2017-03-15 12:00:00 Temperatura 10.5 del 15-03-2017 11:00, Menor que la Mínima 14.1 15-03-2017 12:00 10.5 -- 14.1 2017-06-02 16:46:00
2 2017-03-16 12:00:00 Temperatura 8.4 del 16-03-2017 11:00, Menor que la Mínima 11.9 16-03-2017 12:00 8.4 -- 11.9 2017-06-02 16:51:00
2 2017-03-17 12:00:00 Temperatura 7.9 del 17-03-2017 11:00, Menor que la Mínima 11.4 17-03-2017 12:00 7.9 -- 11.4 2017-06-02 16:47:00
2 2017-03-18 12:00:00 Temperatura 8.4 del 18-03-2017 11:00, Menor que la Mínima 10.8 18-03-2017 12:00 8.4 -- 10.8 2017-06-02 16:51:00
2 2017-03-20 12:00:00 Temperatura 9.2 del 20-03-2017 10:00, Menor que la Mínima 11.8 20-03-2017 12:00 9.2 -- 11.8 2017-06-02 16:47:00
2 2017-03-22 12:00:00 Temperatura 12.0 del 22-03-2017 08:00, Menor que la Mínima 13.0 22-03-2017 12:00 12.0 -- 13.0 2017-06-02 16:50:00
2 2017-03-23 12:00:00 Temperatura 9.3 del 23-03-2017 11:00, Menor que la Mínima 14.2 23-03-2017 12:00 9.3 -- 14.2 2017-06-02 16:46:00
2 2017-03-26 12:00:00 Temperatura 13.2 del 26-03-2017 09:00, Menor que la Mínima 14.0 26-03-2017 12:00 13.2 -- 14.0 2017-06-02 16:49:00
2 2017-03-27 12:00:00 Temperatura 9.9 del 27-03-2017 08:00, Menor que la Mínima 13.4 27-03-2017 12:00 9.9 -- 13.4 2017-06-02 16:51:00
2 2017-03-28 12:00:00 Temperatura 6.2 del 28-03-2017 11:00, Menor que la Mínima 9.9 28-03-2017 12:00 6.2 -- 9.9 2017-06-02 16:50:00
2 2017-03-29 12:00:00 Temperatura 7.4 del 29-03-2017 11:00, Menor que la Mínima 8.2 29-03-2017 12:00 7.4 -- 8.2 2017-06-02 16:52:00
2 2017-03-30 12:00:00 Temperatura 7.5 del 30-03-2017 08:00, Menor que la Mínima 9.0 30-03-2017 12:00 7.5 -- 9.0 2017-06-02 16:51:00
2 2017-03-31 12:00:00 Temperatura 5.5 del 31-03-2017 11:00, Menor que la Mínima 10.4 31-03-2017 12:00 5.5 -- 10.4 2017-06-02 16:48:00
2 2017-04-01 12:00:00 Temperatura 5.1 del 01-04-2017 10:00, Menor que la Mínima 7.1 01-04-2017 12:00 5.1 -- 7.1 2017-06-02 16:51:00
2 2017-04-02 12:00:00 Temperatura 6.3 del 02-04-2017 10:00, Menor que la Mínima 7.1 02-04-2017 12:00 6.3 -- 7.1 2017-06-02 16:48:00
2 2017-04-03 12:00:00 Temperatura 4.4 del 03-04-2017 11:00, Menor que la Mínima 8.5 03-04-2017 12:00 4.4 -- 8.5 2017-06-02 16:50:00
2 2017-04-05 12:00:00 Temperatura 5.6 del 05-04-2017 09:00, Menor que la Mínima 7.5 05-04-2017 12:00 5.6 -- 7.5 2017-06-02 16:46:00
2 2017-04-06 12:00:00 Temperatura 5.1 del 06-04-2017 11:00, Menor que la Mínima 6.9 06-04-2017 12:00 5.1 -- 6.9 2017-06-02 16:51:00
2 2017-04-08 12:00:00 Temperatura 5.5 del 08-04-2017 10:00, Menor que la Mínima 9.1 08-04-2017 12:00 5.5 -- 9.1 2017-06-02 16:50:00
2 2017-04-09 12:00:00 Temperatura 5.7 del 09-04-2017 08:00, Menor que la Mínima 7.8 09-04-2017 12:00 5.7 -- 7.8 2017-06-02 16:52:00
2 2017-04-12 12:00:00 Temperatura 7.8 del 12-04-2017 11:00, Menor que la Mínima 14.1 12-04-2017 12:00 7.8 -- 14.1 2017-06-02 16:47:00
2 2017-04-13 12:00:00 Temperatura 6.5 del 13-04-2017 11:00, Menor que la Mínima 8.5 13-04-2017 12:00 6.5 -- 8.5 2017-06-02 16:47:00
2 2017-04-14 12:00:00 Temperatura 4.6 del 14-04-2017 11:00, Menor que la Mínima 7.1 14-04-2017 12:00 4.6 -- 7.1 2017-06-02 16:47:00
2 2017-04-18 12:00:00 Temperatura 8.9 del 18-04-2017 08:00, Menor que la Mínima 10.4 18-04-2017 12:00 8.9 -- 10.4 2017-06-02 16:49:00
2 2017-04-21 12:00:00 Temperatura 8.7 del 21-04-2017 12:00, Menor que la Mínima 12.6 21-04-2017 12:00 8.7 -- 12.6 2017-06-02 16:47:00
2 2017-04-22 12:00:00 Temperatura 5.7 del 22-04-2017 12:00, Menor que la Mínima 8.8 22-04-2017 12:00 5.7 -- 8.8 2017-06-02 16:50:00
2 2017-04-24 12:00:00 Temperatura 2.2 del 24-04-2017 08:00, Menor que la Mínima 6.8 24-04-2017 12:00 2.2 -- 6.8 2017-06-02 16:48:00
2 2017-04-26 12:00:00 Temperatura 2.2 del 26-04-2017 12:00, Menor que la Mínima 7.6 26-04-2017 12:00 2.2 -- 7.6 2017-06-02 16:49:00
2 2017-04-28 12:00:00 Temperatura 5.5 del 28-04-2017 11:00, Menor que la Mínima 6.2 28-04-2017 12:00 5.5 -- 6.2 2017-06-02 16:51:00
2 2017-05-01 12:00:00 Temperatura 6.6 del 01-05-2017 10:00, Menor que la Mínima 9.5 01-05-2017 12:00 6.6 -- 9.5 2017-06-02 16:46:00
2 2017-05-03 12:00:00 Temperatura 3.9 del 03-05-2017 11:00, Menor que la Mínima 10.7 03-05-2017 12:00 3.9 -- 10.7 2017-06-02 16:47:00
2 2017-05-07 12:00:00 Temperatura 10.3 del 07-05-2017 12:00, Menor que la Mínima 11.6 07-05-2017 12:00 10.3 -- 11.6 2017-06-02 16:48:00
2 2017-05-08 12:00:00 Temperatura 8.3 del 08-05-2017 04:00, Menor que la Mínima 9.8 08-05-2017 12:00 8.3 -- 9.8 2017-06-02 16:51:00
2 2017-05-09 12:00:00 Temperatura 4.4 del 09-05-2017 12:00, Menor que la Mínima 8.8 09-05-2017 12:00 4.4 -- 8.8 2017-06-02 16:48:00
2 2017-05-13 12:00:00 Temperatura 6.1 del 13-05-2017 08:00, Menor que la Mínima 11.7 13-05-2017 12:00 6.1 -- 11.7 2017-06-02 16:49:00
2 2017-05-15 12:00:00 Temperatura 0.8 del 15-05-2017 12:00, Menor que la Mínima 8.2 15-05-2017 12:00 0.8 -- 8.2 2017-06-02 16:50:00
2 2017-05-18 12:00:00 Temperatura 5.0 del 18-05-2017 11:00, Menor que la Mínima 7.6 18-05-2017 12:00 5.0 -- 7.6 2017-06-02 16:47:00
2 2017-05-19 12:00:00 Temperatura -0.4 del 19-05-2017 10:00, Menor que la Mínima 5.0 19-05-2017 12:00 -0.4 -- 5.0 2017-06-02 16:49:00
2 2017-05-20 12:00:00 Temperatura -1.9 del 20-05-2017 10:00, Menor que la Mínima 0.7 20-05-2017 12:00 -1.9 -- 0.7 2017-06-02 16:47:00
2 2017-05-22 12:00:00 Temperatura 5.0 del 22-05-2017 05:00, Menor que la Mínima 7.0 22-05-2017 12:00 5.0 -- 7.0 2017-06-02 16:48:00
2 2017-05-23 12:00:00 Temperatura -1.6 del 23-05-2017 12:00, Menor que la Mínima 5.8 23-05-2017 12:00 -1.6 -- 5.8 2017-06-02 16:47:00
2 2017-05-24 12:00:00 Temperatura -2.6 del 24-05-2017 12:00, Menor que la Mínima -1.6 24-05-2017 12:00 -2.6 -- -1.6 2017-06-02 16:50:00
2 2017-05-25 12:00:00 Temperatura -3.6 del 25-05-2017 12:00, Menor que la Mínima -2.6 25-05-2017 12:00 -3.6 -- -2.6 2017-06-02 16:48:00
2 2017-05-28 12:00:00 Temperatura -1.4 del 28-05-2017 12:00, Menor que la Mínima -0.8 28-05-2017 12:00 -1.4 -- -0.8 2017-06-02 16:49:00
2 2017-05-31 12:00:00 Temperatura 0.7 del 31-05-2017 12:00, Menor que la Mínima 1.3 31-05-2017 12:00 0.7 -- 1.3 2017-06-02 16:50:00
2 2017-06-02 12:00:00 Temperatura 1.8 del 02-06-2017 09:00, Menor que la Mínima 7.6 02-06-2017 12:00 1.8 -- 7.6 2017-06-02 12:37:00
2 2017-06-05 12:00:00 Temperatura -1.5 del 05-06-2017 12:00, Menor que la Mínima 4.3 05-06-2017 12:00 -1.5 -- 4.3 2017-06-05 12:37:00
2 2017-06-06 12:00:00 Temperatura -1.9 del 06-06-2017 12:00, Menor que la Mínima -1.8 06-06-2017 12:00 -1.9 -- -1.8 2017-06-06 12:37:00
2 2017-06-08 12:00:00 Temperatura 2.1 del 08-06-2017 08:00, Menor que la Mínima 5.7 08-06-2017 12:00 2.1 -- 5.7 2017-06-08 12:22:00
2 2017-06-11 12:00:00 Temperatura 5.1 del 11-06-2017 12:00, Menor que la Mínima 6.4 11-06-2017 12:00 5.1 -- 6.4 2017-06-11 12:22:00
2 2017-06-12 12:00:00 Temperatura -0.3 del 12-06-2017 12:00, Menor que la Mínima 4.6 12-06-2017 12:00 -0.3 -- 4.6 2017-06-12 12:22:00
2 2017-06-17 12:00:00 Temperatura 1.8 del 17-06-2017 07:00, Menor que la Mínima 6.8 17-06-2017 12:00 1.8 -- 6.8 2017-06-17 12:22:00
2 2017-06-18 12:00:00 Temperatura -2.2 del 18-06-2017 12:00, Menor que la Mínima 2.2 18-06-2017 12:00 -2.2 -- 2.2 2017-06-18 12:22:00
2 2017-06-20 12:00:00 Temperatura -1.2 del 20-06-2017 06:00, Menor que la Mínima 1.0 20-06-2017 12:00 -1.2 -- 1.0 2017-06-20 12:22:00
2 2017-06-23 12:00:00 Temperatura 8.0 del 23-06-2017 05:00, Menor que la Mínima 8.6 23-06-2017 12:00 8.0 -- 8.6 2017-06-23 12:22:00
2 2017-06-24 12:00:00 Temperatura 6.6 del 24-06-2017 07:00, Menor que la Mínima 8.9 24-06-2017 12:00 6.6 -- 8.9 2017-06-24 12:22:00
2 2017-06-27 12:00:00 Temperatura 9.0 del 27-06-2017 12:00, Menor que la Mínima 11.4 27-06-2017 12:00 9.0 -- 11.4 2017-06-27 12:22:00
2 2017-06-28 12:00:00 Temperatura 4.1 del 28-06-2017 11:00, Menor que la Mínima 7.7 28-06-2017 12:00 4.1 -- 7.7 2017-06-28 12:22:00
2 2017-07-02 12:00:00 Temperatura 4.6 del 02-07-2017 12:00, Menor que la Mínima 8.2 02-07-2017 12:00 4.6 -- 8.2 2017-07-02 12:22:00
2 2017-07-04 12:00:00 Temperatura 7.2 del 04-07-2017 09:00, Menor que la Mínima 9.7 04-07-2017 12:00 7.2 -- 9.7 2017-07-04 12:22:00
2 2017-07-05 12:00:00 Temperatura 4.0 del 05-07-2017 12:00, Menor que la Mínima 7.3 05-07-2017 12:00 4.0 -- 7.3 2017-07-05 12:22:00
2 2017-07-07 12:00:00 Temperatura 4.8 del 07-07-2017 11:00, Menor que la Mínima 5.7 07-07-2017 12:00 4.8 -- 5.7 2017-07-07 12:22:00
2 2017-07-08 12:00:00 Temperatura 4.5 del 08-07-2017 06:00, Menor que la Mínima 5.7 08-07-2017 12:00 4.5 -- 5.7 2017-07-08 12:22:00
2 2017-07-09 12:00:00 Temperatura 4.9 del 09-07-2017 12:00, Menor que la Mínima 5.8 09-07-2017 12:00 4.9 -- 5.8 2017-07-09 12:22:00
2 2017-07-10 12:00:00 Temperatura -0.2 del 10-07-2017 11:00, Menor que la Mínima 4.6 10-07-2017 12:00 -0.2 -- 4.6 2017-07-10 12:22:00
2 2017-07-11 12:00:00 Temperatura -1.4 del 11-07-2017 12:00, Menor que la Mínima -0.9 11-07-2017 12:00 -1.4 -- -0.9 2017-07-11 12:22:00
2 2017-07-12 12:00:00 Temperatura -2.3 del 12-07-2017 07:00, Menor que la Mínima -1.7 12-07-2017 12:00 -2.3 -- -1.7 2017-07-12 12:22:00
2 2017-07-15 12:00:00 Temperatura 1.9 del 15-07-2017 09:00, Menor que la Mínima 4.7 15-07-2017 12:00 1.9 -- 4.7 2017-07-15 12:22:00
2 2017-07-16 12:00:00 Temperatura -3.7 del 16-07-2017 12:00, Menor que la Mínima 0.8 16-07-2017 12:00 -3.7 -- 0.8 2017-07-16 12:22:00
2 2017-07-18 12:00:00 Temperatura 0.6 del 18-07-2017 11:00, Menor que la Mínima 0.8 18-07-2017 12:00 0.6 -- 0.8 2017-07-18 12:22:00
2 2017-07-19 12:00:00 Temperatura -0.3 del 19-07-2017 12:00, Menor que la Mínima 1.5 19-07-2017 12:00 -0.3 -- 1.5 2017-07-19 12:22:00
2 2017-07-23 12:00:00 Temperatura 5.2 del 23-07-2017 12:00, Menor que la Mínima 9.2 23-07-2017 12:00 5.2 -- 9.2 2017-07-23 12:22:00
2 2017-07-24 12:00:00 Temperatura 0.4 del 24-07-2017 12:00, Menor que la Mínima 4.0 24-07-2017 12:00 0.4 -- 4.0 2017-07-24 12:22:00
2 2017-07-25 12:00:00 Temperatura -1.1 del 25-07-2017 10:00, Menor que la Mínima 0.1 25-07-2017 12:00 -1.1 -- 0.1 2017-07-25 12:22:00
2 2017-07-26 12:00:00 Temperatura -2.0 del 26-07-2017 12:00, Menor que la Mínima -0.5 26-07-2017 12:00 -2.0 -- -0.5 2017-07-26 12:22:00
2 2017-07-29 12:00:00 Temperatura 0.4 del 29-07-2017 05:00, Menor que la Mínima 5.3 29-07-2017 12:00 0.4 -- 5.3 2017-07-29 12:22:00
2 2017-07-30 12:00:00 Temperatura -1.7 del 30-07-2017 12:00, Menor que la Mínima 1.5 30-07-2017 12:00 -1.7 -- 1.5 2017-07-30 12:22:00
2 2017-08-02 12:00:00 Temperatura -2.1 del 02-08-2017 11:00, Menor que la Mínima 0.1 02-08-2017 12:00 -2.1 -- 0.1 2017-08-02 12:22:00
2 2017-08-04 12:00:00 Temperatura -2.0 del 04-08-2017 07:00, Menor que la Mínima 3.1 04-08-2017 12:00 -2.0 -- 3.1 2017-08-04 12:22:00
2 2017-08-07 12:00:00 Temperatura 7.7 del 07-08-2017 09:00, Menor que la Mínima 9.0 07-08-2017 12:00 7.7 -- 9.0 2017-08-07 12:22:00
2 2017-08-10 12:00:00 Temperatura 6.7 del 10-08-2017 06:00, Menor que la Mínima 7.7 10-08-2017 12:00 6.7 -- 7.7 2017-08-10 12:22:00
2 2017-08-11 12:00:00 Temperatura 5.5 del 11-08-2017 10:00, Menor que la Mínima 6.9 11-08-2017 12:00 5.5 -- 6.9 2017-08-11 12:22:00
2 2017-08-12 12:00:00 Temperatura 2.9 del 12-08-2017 08:00, Menor que la Mínima 5.9 12-08-2017 12:00 2.9 -- 5.9 2017-08-12 12:22:00
2 2017-08-15 12:00:00 Temperatura 6.4 del 15-08-2017 12:00, Menor que la Mínima 6.7 15-08-2017 12:00 6.4 -- 6.7 2018-05-22 15:16:00
2 2017-08-16 12:00:00 Temperatura 1.2 del 16-08-2017 11:00, Menor que la Mínima 6.5 16-08-2017 12:00 1.2 -- 6.5 2018-05-22 15:16:00
2 2017-08-19 12:00:00 Temperatura 6.4 del 19-08-2017 11:00, Menor que la Mínima 8.0 19-08-2017 12:00 6.4 -- 8.0 2017-08-19 12:22:00
2 2017-08-20 12:00:00 Temperatura 0.6 del 20-08-2017 11:00, Menor que la Mínima 6.4 20-08-2017 12:00 0.6 -- 6.4 2017-08-20 12:22:00
2 2017-08-21 12:00:00 Temperatura -0.8 del 21-08-2017 11:00, Menor que la Mínima 0.5 21-08-2017 12:00 -0.8 -- 0.5 2017-08-21 12:22:00
2 2017-08-23 12:00:00 Temperatura 4.5 del 23-08-2017 07:00, Menor que la Mínima 5.9 23-08-2017 12:00 4.5 -- 5.9 2017-08-23 12:22:00
2 2017-08-25 12:00:00 Temperatura 2.5 del 25-08-2017 11:00, Menor que la Mínima 5.3 25-08-2017 12:00 2.5 -- 5.3 2017-08-25 12:22:00
2 2017-08-27 12:00:00 Temperatura 8.2 del 27-08-2017 10:00, Menor que la Mínima 8.9 27-08-2017 12:00 8.2 -- 8.9 2017-08-27 12:22:00
2 2017-08-28 12:00:00 Temperatura 5.7 del 28-08-2017 11:00, Menor que la Mínima 7.1 28-08-2017 12:00 5.7 -- 7.1 2017-08-28 12:22:00
2 2017-08-29 12:00:00 Temperatura -0.7 del 29-08-2017 11:00, Menor que la Mínima 5.9 29-08-2017 12:00 -0.7 -- 5.9 2017-08-29 12:22:00
2 2017-08-30 12:00:00 Temperatura -0.2 del 30-08-2017 11:00, Menor que la Mínima 0.0 30-08-2017 12:00 -0.2 -- 0.0 2017-08-30 12:22:00
2 2017-09-02 12:00:00 Temperatura 0.8 del 02-09-2017 11:00, Menor que la Mínima 7.2 02-09-2017 12:00 0.8 -- 7.2 2017-09-02 12:22:00
2 2017-09-03 12:00:00 Temperatura 0.0 del 03-09-2017 10:00, Menor que la Mínima 1.8 03-09-2017 12:00 0.0 -- 1.8 2017-09-03 12:22:00
2 2017-09-05 12:00:00 Temperatura 2.2 del 05-09-2017 09:00, Menor que la Mínima 3.8 05-09-2017 12:00 2.2 -- 3.8 2017-09-05 12:22:00
2 2017-09-07 12:00:00 Temperatura 0.7 del 07-09-2017 11:00, Menor que la Mínima 6.6 07-09-2017 12:00 0.7 -- 6.6 2022-05-20 18:55:00
2 2017-09-09 12:00:00 Temperatura 2.2 del 09-09-2017 11:00, Menor que la Mínima 4.9 09-09-2017 12:00 2.2 -- 4.9 2017-09-09 17:22:00
2 2017-09-11 12:00:00 Temperatura -0.5 del 11-09-2017 11:00, Menor que la Mínima 4.1 11-09-2017 12:00 -0.5 -- 4.1 2017-09-11 12:22:00
2 2017-09-13 12:00:00 Temperatura 4.0 del 13-09-2017 07:00, Menor que la Mínima 5.6 13-09-2017 12:00 4.0 -- 5.6 2017-09-13 12:22:00
2 2017-09-15 12:00:00 Temperatura 2.8 del 15-09-2017 10:00, Menor que la Mínima 6.1 15-09-2017 12:00 2.8 -- 6.1 2017-09-15 12:22:00
2 2017-09-17 12:00:00 Temperatura 4.9 del 17-09-2017 11:00, Menor que la Mínima 6.9 17-09-2017 12:00 4.9 -- 6.9 2017-09-17 12:22:00
2 2017-09-18 12:00:00 Temperatura 4.0 del 18-09-2017 09:00, Menor que la Mínima 6.9 18-09-2017 12:00 4.0 -- 6.9 2017-09-19 21:23:00
2 2017-09-20 12:00:00 Temperatura 3.7 del 20-09-2017 11:00, Menor que la Mínima 10.2 20-09-2017 12:00 3.7 -- 10.2 2017-09-20 12:22:00
2 2017-09-21 12:00:00 Temperatura 5.1 del 21-09-2017 10:00, Menor que la Mínima 6.1 21-09-2017 12:00 5.1 -- 6.1 2017-09-21 12:22:00
2 2017-09-22 12:00:00 Temperatura 5.6 del 22-09-2017 11:00, Menor que la Mínima 6.9 22-09-2017 12:00 5.6 -- 6.9 2017-09-22 12:22:00
2 2017-09-23 12:00:00 Temperatura 4.8 del 23-09-2017 10:00, Menor que la Mínima 7.5 23-09-2017 12:00 4.8 -- 7.5 2017-09-23 12:22:00
2 2017-09-24 12:00:00 Temperatura 2.5 del 24-09-2017 11:00, Menor que la Mínima 7.7 24-09-2017 12:00 2.5 -- 7.7 2017-09-24 12:22:00
2 2017-09-25 12:00:00 Temperatura 4.8 del 25-09-2017 11:00, Menor que la Mínima 6.7 25-09-2017 12:00 4.8 -- 6.7 2017-09-25 12:22:00
2 2017-09-26 12:00:00 Temperatura 3.6 del 26-09-2017 10:00, Menor que la Mínima 6.9 26-09-2017 12:00 3.6 -- 6.9 2017-09-26 12:22:00
2 2017-09-29 12:00:00 Temperatura 8.8 del 29-09-2017 10:00, Menor que la Mínima 9.6 29-09-2017 12:00 8.8 -- 9.6 2017-09-29 12:22:00
2 2017-10-01 12:00:00 Temperatura 7.4 del 01-10-2017 09:00, Menor que la Mínima 8.2 01-10-2017 12:00 7.4 -- 8.2 2017-10-01 12:22:00
2 2017-10-02 12:00:00 Temperatura 5.3 del 02-10-2017 09:00, Menor que la Mínima 9.1 02-10-2017 12:00 5.3 -- 9.1 2017-10-02 12:22:00
2 2017-10-05 12:00:00 Temperatura 7.8 del 05-10-2017 02:00, Menor que la Mínima 7.9 05-10-2017 12:00 7.8 -- 7.9 2017-10-05 12:22:00
2 2017-10-06 12:00:00 Temperatura 8.0 del 06-10-2017 11:00, Menor que la Mínima 8.2 06-10-2017 12:00 8.0 -- 8.2 2017-10-06 12:22:00
2 2017-10-07 12:00:00 Temperatura 3.0 del 07-10-2017 10:00, Menor que la Mínima 9.1 07-10-2017 12:00 3.0 -- 9.1 2017-10-07 12:22:00
2 2017-10-09 12:00:00 Temperatura 3.2 del 09-10-2017 10:00, Menor que la Mínima 9.9 09-10-2017 12:00 3.2 -- 9.9 2017-10-09 12:22:00
2 2017-10-10 12:00:00 Temperatura 4.1 del 10-10-2017 11:00, Menor que la Mínima 6.7 10-10-2017 12:00 4.1 -- 6.7 2017-10-10 12:22:00
2 2017-10-11 12:00:00 Temperatura 2.5 del 11-10-2017 08:00, Menor que la Mínima 7.3 11-10-2017 12:00 2.5 -- 7.3 2017-10-11 12:22:00
2 2017-10-12 12:00:00 Temperatura 4.5 del 12-10-2017 08:00, Menor que la Mínima 6.0 12-10-2017 12:00 4.5 -- 6.0 2017-10-12 12:22:00
2 2017-10-13 12:00:00 Temperatura 7.3 del 13-10-2017 09:00, Menor que la Mínima 9.6 13-10-2017 12:00 7.3 -- 9.6 2017-10-13 12:22:00
2 2017-10-14 12:00:00 Temperatura 7.6 del 14-10-2017 10:00, Menor que la Mínima 9.9 14-10-2017 12:00 7.6 -- 9.9 2017-10-14 12:22:00
2 2017-10-15 12:00:00 Temperatura 10.5 del 15-10-2017 10:00, Menor que la Mínima 10.6 15-10-2017 12:00 10.5 -- 10.6 2017-10-15 12:22:00
2 2017-10-16 12:00:00 Temperatura 8.4 del 16-10-2017 06:00, Menor que la Mínima 12.4 16-10-2017 12:00 8.4 -- 12.4 2017-10-16 12:22:00
2 2017-10-17 12:00:00 Temperatura 9.9 del 17-10-2017 10:00, Menor que la Mínima 10.2 17-10-2017 12:00 9.9 -- 10.2 2017-10-17 12:22:00
2 2017-10-18 12:00:00 Temperatura 8.6 del 18-10-2017 09:00, Menor que la Mínima 10.5 18-10-2017 12:00 8.6 -- 10.5 2017-10-18 12:22:00
2 2017-10-19 12:00:00 Temperatura 5.5 del 19-10-2017 10:00, Menor que la Mínima 10.3 19-10-2017 12:00 5.5 -- 10.3 2017-10-19 12:22:00
2 2017-10-21 12:00:00 Temperatura 5.7 del 21-10-2017 08:00, Menor que la Mínima 9.8 21-10-2017 12:00 5.7 -- 9.8 2017-10-21 12:22:00
2 2017-10-22 12:00:00 Temperatura 8.0 del 22-10-2017 09:00, Menor que la Mínima 8.2 22-10-2017 12:00 8.0 -- 8.2 2017-10-22 12:22:00
2 2017-10-23 12:00:00 Temperatura 6.5 del 23-10-2017 10:00, Menor que la Mínima 10.4 23-10-2017 12:00 6.5 -- 10.4 2017-10-23 12:22:00
2 2017-10-24 12:00:00 Temperatura 10.1 del 24-10-2017 11:00, Menor que la Mínima 10.6 24-10-2017 12:00 10.1 -- 10.6 2017-10-24 12:22:00
2 2017-10-25 12:00:00 Temperatura 7.1 del 25-10-2017 10:00, Menor que la Mínima 11.4 25-10-2017 12:00 7.1 -- 11.4 2017-10-25 12:22:00
2 2017-10-26 12:00:00 Temperatura 7.6 del 26-10-2017 10:00, Menor que la Mínima 10.9 26-10-2017 12:00 7.6 -- 10.9 2017-10-26 12:22:00
2 2017-10-27 12:00:00 Temperatura 7.1 del 27-10-2017 10:00, Menor que la Mínima 10.6 27-10-2017 12:00 7.1 -- 10.6 2017-10-27 12:22:00
2 2017-10-28 12:00:00 Temperatura 8.6 del 28-10-2017 12:00, Menor que la Mínima 10.8 28-10-2017 12:00 8.6 -- 10.8 2017-10-28 12:22:00
2 2017-10-29 12:00:00 Temperatura 5.8 del 29-10-2017 07:00, Menor que la Mínima 8.2 29-10-2017 12:00 5.8 -- 8.2 2017-10-29 12:22:00
2 2017-10-30 12:00:00 Temperatura 3.9 del 30-10-2017 10:00, Menor que la Mínima 7.3 30-10-2017 12:00 3.9 -- 7.3 2017-10-30 12:22:00
2 2017-10-31 12:00:00 Temperatura 7.8 del 31-10-2017 07:00, Menor que la Mínima 9.3 31-10-2017 12:00 7.8 -- 9.3 2017-10-31 12:22:00
2 2017-11-01 12:00:00 Temperatura 9.1 del 01-11-2017 07:00, Menor que la Mínima 9.2 01-11-2017 12:00 9.1 -- 9.2 2017-11-01 12:22:00
2 2017-11-02 12:00:00 Temperatura 8.2 del 02-11-2017 08:00, Menor que la Mínima 10.5 02-11-2017 12:00 8.2 -- 10.5 2017-11-02 12:22:00
2 2017-11-03 12:00:00 Temperatura 8.9 del 03-11-2017 10:00, Menor que la Mínima 9.7 03-11-2017 12:00 8.9 -- 9.7 2017-11-03 12:22:00
2 2017-11-04 12:00:00 Temperatura 7.8 del 04-11-2017 08:00, Menor que la Mínima 11.7 04-11-2017 12:00 7.8 -- 11.7 2017-11-04 12:22:00
2 2017-11-06 12:00:00 Temperatura 12.6 del 06-11-2017 10:00, Menor que la Mínima 13.0 06-11-2017 12:00 12.6 -- 13.0 2017-11-06 12:22:00
2 2017-11-07 12:00:00 Temperatura 12.3 del 07-11-2017 09:00, Menor que la Mínima 14.0 07-11-2017 12:00 12.3 -- 14.0 2017-11-07 12:22:00
2 2017-11-08 12:00:00 Temperatura 10.1 del 08-11-2017 06:00, Menor que la Mínima 13.3 08-11-2017 12:00 10.1 -- 13.3 2017-11-08 12:22:00
2 2017-11-10 12:00:00 Temperatura 9.3 del 10-11-2017 09:00, Menor que la Mínima 14.8 10-11-2017 12:00 9.3 -- 14.8 2017-11-10 12:22:00
2 2017-11-11 12:00:00 Temperatura 9.6 del 11-11-2017 08:00, Menor que la Mínima 12.7 11-11-2017 12:00 9.6 -- 12.7 2017-11-11 12:22:00
2 2017-11-12 12:00:00 Temperatura 9.6 del 12-11-2017 10:00, Menor que la Mínima 13.6 12-11-2017 12:00 9.6 -- 13.6 2017-11-12 12:22:00
2 2017-11-13 12:00:00 Temperatura 12.8 del 13-11-2017 09:00, Menor que la Mínima 13.2 13-11-2017 12:00 12.8 -- 13.2 2017-11-13 12:22:00
2 2017-11-14 12:00:00 Temperatura 11.9 del 14-11-2017 10:00, Menor que la Mínima 13.8 14-11-2017 12:00 11.9 -- 13.8 2017-11-14 12:22:00
2 2017-11-15 12:00:00 Temperatura 6.5 del 15-11-2017 09:00, Menor que la Mínima 12.9 15-11-2017 12:00 6.5 -- 12.9 2017-11-15 12:22:00
2 2017-11-16 12:00:00 Temperatura 5.0 del 16-11-2017 10:00, Menor que la Mínima 11.1 16-11-2017 12:00 5.0 -- 11.1 2017-11-16 12:22:00
2 2017-11-17 12:00:00 Temperatura 8.0 del 17-11-2017 09:00, Menor que la Mínima 10.4 17-11-2017 12:00 8.0 -- 10.4 2017-11-17 12:22:00
2 2017-11-18 12:00:00 Temperatura 6.0 del 18-11-2017 10:00, Menor que la Mínima 11.2 18-11-2017 12:00 6.0 -- 11.2 2017-11-18 12:22:00
2 2017-11-19 12:00:00 Temperatura 8.5 del 19-11-2017 05:00, Menor que la Mínima 9.9 19-11-2017 12:00 8.5 -- 9.9 2017-11-19 12:22:00
2 2017-11-20 12:00:00 Temperatura 7.7 del 20-11-2017 10:00, Menor que la Mínima 13.7 20-11-2017 12:00 7.7 -- 13.7 2017-11-20 12:22:00
2 2017-11-21 12:00:00 Temperatura 6.6 del 21-11-2017 09:00, Menor que la Mínima 11.0 21-11-2017 12:00 6.6 -- 11.0 2017-11-21 12:22:00
2 2017-11-22 12:00:00 Temperatura 8.2 del 22-11-2017 10:00, Menor que la Mínima 10.9 22-11-2017 12:00 8.2 -- 10.9 2017-11-22 12:22:00
2 2017-11-23 12:00:00 Temperatura 8.0 del 23-11-2017 09:00, Menor que la Mínima 11.9 23-11-2017 12:00 8.0 -- 11.9 2017-11-23 12:22:00
2 2017-11-24 12:00:00 Temperatura 5.9 del 24-11-2017 09:00, Menor que la Mínima 11.6 24-11-2017 12:00 5.9 -- 11.6 2017-11-24 12:22:00
2 2017-11-25 12:00:00 Temperatura 7.5 del 25-11-2017 08:00, Menor que la Mínima 10.4 25-11-2017 12:00 7.5 -- 10.4 2017-11-25 12:22:00
2 2017-11-26 12:00:00 Temperatura 10.0 del 26-11-2017 09:00, Menor que la Mínima 11.5 26-11-2017 12:00 10.0 -- 11.5 2017-11-26 12:22:00
2 2017-11-27 12:00:00 Temperatura 8.8 del 27-11-2017 09:00, Menor que la Mínima 12.5 27-11-2017 12:00 8.8 -- 12.5 2017-11-27 12:22:00
2 2017-11-28 12:00:00 Temperatura 10.8 del 28-11-2017 09:00, Menor que la Mínima 12.7 28-11-2017 12:00 10.8 -- 12.7 2017-11-28 12:22:00
2 2017-11-29 12:00:00 Temperatura 9.1 del 29-11-2017 09:00, Menor que la Mínima 16.0 29-11-2017 12:00 9.1 -- 16.0 2017-11-29 12:22:00
2 2017-11-30 12:00:00 Temperatura 7.9 del 30-11-2017 09:00, Menor que la Mínima 12.3 30-11-2017 12:00 7.9 -- 12.3 2017-11-30 12:22:00
2 2017-12-01 12:00:00 Temperatura 8.9 del 01-12-2017 09:00, Menor que la Mínima 11.0 01-12-2017 12:00 8.9 -- 11.0 2017-12-01 12:22:00
2 2017-12-02 12:00:00 Temperatura 10.1 del 02-12-2017 10:00, Menor que la Mínima 12.9 02-12-2017 12:00 10.1 -- 12.9 2017-12-02 12:22:00
2 2017-12-03 12:00:00 Temperatura 9.3 del 03-12-2017 09:00, Menor que la Mínima 14.3 03-12-2017 12:00 9.3 -- 14.3 2017-12-03 12:22:00
2 2017-12-04 12:00:00 Temperatura 11.2 del 04-12-2017 10:00, Menor que la Mínima 12.9 04-12-2017 12:00 11.2 -- 12.9 2017-12-04 12:22:00
2 2017-12-05 12:00:00 Temperatura 11.9 del 05-12-2017 10:00, Menor que la Mínima 14.7 05-12-2017 12:00 11.9 -- 14.7 2017-12-05 12:22:00
2 2017-12-06 12:00:00 Temperatura 9.7 del 06-12-2017 08:00, Menor que la Mínima 17.2 06-12-2017 12:00 9.7 -- 17.2 2017-12-06 12:22:00
2 2017-12-07 12:00:00 Temperatura 10.3 del 07-12-2017 10:00, Menor que la Mínima 11.3 07-12-2017 12:00 10.3 -- 11.3 2017-12-07 12:22:00
2 2017-12-08 12:00:00 Temperatura 9.1 del 08-12-2017 09:00, Menor que la Mínima 14.1 08-12-2017 12:00 9.1 -- 14.1 2017-12-08 12:22:00
2 2017-12-09 12:00:00 Temperatura 9.1 del 09-12-2017 10:00, Menor que la Mínima 13.5 09-12-2017 12:00 9.1 -- 13.5 2017-12-09 12:22:00
2 2017-12-10 12:00:00 Temperatura 10.7 del 10-12-2017 09:00, Menor que la Mínima 12.5 10-12-2017 12:00 10.7 -- 12.5 2017-12-10 12:22:00
2 2017-12-11 12:00:00 Temperatura 12.9 del 11-12-2017 09:00, Menor que la Mínima 14.8 11-12-2017 12:00 12.9 -- 14.8 2017-12-11 12:22:00
2 2017-12-12 12:00:00 Temperatura 13.1 del 12-12-2017 10:00, Menor que la Mínima 15.6 12-12-2017 12:00 13.1 -- 15.6 2017-12-12 12:22:00
2 2017-12-14 12:00:00 Temperatura 11.5 del 14-12-2017 10:00, Menor que la Mínima 15.4 14-12-2017 12:00 11.5 -- 15.4 2017-12-14 12:22:00
2 2017-12-15 12:00:00 Temperatura 12.6 del 15-12-2017 09:00, Menor que la Mínima 16.3 15-12-2017 12:00 12.6 -- 16.3 2017-12-15 12:22:00
2 2017-12-16 12:00:00 Temperatura 12.7 del 16-12-2017 08:00, Menor que la Mínima 15.6 16-12-2017 12:00 12.7 -- 15.6 2017-12-16 12:22:00
2 2017-12-17 12:00:00 Temperatura 5.4 del 17-12-2017 08:00, Menor que la Mínima 11.6 17-12-2017 12:00 5.4 -- 11.6 2017-12-17 12:22:00
2 2017-12-18 12:00:00 Temperatura 8.2 del 18-12-2017 10:00, Menor que la Mínima 10.8 18-12-2017 12:00 8.2 -- 10.8 2017-12-18 12:22:00
2 2017-12-19 12:00:00 Temperatura 9.2 del 19-12-2017 10:00, Menor que la Mínima 11.9 19-12-2017 12:00 9.2 -- 11.9 2017-12-19 12:22:00
2 2017-12-20 12:00:00 Temperatura 9.9 del 20-12-2017 10:00, Menor que la Mínima 13.1 20-12-2017 12:00 9.9 -- 13.1 2017-12-20 12:22:00
2 2017-12-21 12:00:00 Temperatura 7.9 del 21-12-2017 10:00, Menor que la Mínima 16.2 21-12-2017 12:00 7.9 -- 16.2 2017-12-21 12:22:00
2 2017-12-22 12:00:00 Temperatura 9.2 del 22-12-2017 09:00, Menor que la Mínima 12.4 22-12-2017 12:00 9.2 -- 12.4 2017-12-22 12:22:00
2 2017-12-23 12:00:00 Temperatura 7.4 del 23-12-2017 10:00, Menor que la Mínima 14.2 23-12-2017 12:00 7.4 -- 14.2 2017-12-23 12:22:00
2 2017-12-24 12:00:00 Temperatura 7.7 del 24-12-2017 08:00, Menor que la Mínima 10.6 24-12-2017 12:00 7.7 -- 10.6 2017-12-24 12:22:00
2 2017-12-26 12:00:00 Temperatura 10.4 del 26-12-2017 09:00, Menor que la Mínima 16.6 26-12-2017 12:00 10.4 -- 16.6 2017-12-26 12:22:00
2 2017-12-27 12:00:00 Temperatura 9.2 del 27-12-2017 10:00, Menor que la Mínima 15.6 27-12-2017 12:00 9.2 -- 15.6 2017-12-27 12:22:00
2 2017-12-28 12:00:00 Temperatura 9.4 del 28-12-2017 10:00, Menor que la Mínima 14.6 28-12-2017 12:00 9.4 -- 14.6 2017-12-28 12:22:00
2 2017-12-29 12:00:00 Temperatura 10.1 del 29-12-2017 10:00, Menor que la Mínima 16.5 29-12-2017 12:00 10.1 -- 16.5 2017-12-29 12:22:00
2 2017-12-30 12:00:00 Temperatura 15.4 del 30-12-2017 11:00, Menor que la Mínima 15.7 30-12-2017 12:00 15.4 -- 15.7 2017-12-30 12:22:00
2 2017-12-31 12:00:00 Temperatura 10.1 del 31-12-2017 10:00, Menor que la Mínima 15.7 31-12-2017 12:00 10.1 -- 15.7 2017-12-31 12:22:00
2 2018-01-01 12:00:00 Temperatura 9.2 del 01-01-2018 10:00, Menor que la Mínima 12.5 01-01-2018 12:00 9.2 -- 12.5 2018-01-01 12:22:00
2 2018-01-01 12:00:00 Temperatura 9.2 del 01-01-2018 10:00, Menor que la Mínima 12.5 01-01-2018 12:00 9.2 -- 12.5 2018-01-01 12:22:00
2 2018-01-02 12:00:00 Temperatura 11.7 del 02-01-2018 07:00, Menor que la Mínima 13.0 02-01-2018 12:00 11.7 -- 13.0 2018-01-02 12:22:00
2 2018-01-03 12:00:00 Temperatura 12.0 del 03-01-2018 09:00, Menor que la Mínima 13.5 03-01-2018 12:00 12.0 -- 13.5 2018-01-03 12:22:00
2 2018-01-05 12:00:00 Temperatura 7.6 del 05-01-2018 10:00, Menor que la Mínima 15.4 05-01-2018 12:00 7.6 -- 15.4 2018-01-05 21:22:00
2 2018-01-06 12:00:00 Temperatura 9.3 del 06-01-2018 09:00, Menor que la Mínima 14.5 06-01-2018 12:00 9.3 -- 14.5 2018-01-06 12:22:00
2 2018-01-08 12:00:00 Temperatura 13.3 del 08-01-2018 10:00, Menor que la Mínima 17.6 08-01-2018 12:00 13.3 -- 17.6 2018-01-08 12:22:00
2 2018-01-09 12:00:00 Temperatura 13.8 del 09-01-2018 10:00, Menor que la Mínima 17.3 09-01-2018 12:00 13.8 -- 17.3 2018-01-09 12:22:00
2 2018-01-10 12:00:00 Temperatura 14.1 del 10-01-2018 10:00, Menor que la Mínima 15.7 10-01-2018 12:00 14.1 -- 15.7 2018-01-10 12:22:00
2 2018-01-11 12:00:00 Temperatura 13.1 del 11-01-2018 10:00, Menor que la Mínima 15.8 11-01-2018 12:00 13.1 -- 15.8 2018-01-11 12:22:00
2 2018-01-12 12:00:00 Temperatura 13.1 del 12-01-2018 10:00, Menor que la Mínima 17.5 12-01-2018 12:00 13.1 -- 17.5 2018-01-12 12:22:00
2 2018-01-13 12:00:00 Temperatura 9.7 del 13-01-2018 10:00, Menor que la Mínima 16.4 13-01-2018 12:00 9.7 -- 16.4 2018-01-13 12:22:00
2 2018-01-14 12:00:00 Temperatura 11.0 del 14-01-2018 09:00, Menor que la Mínima 12.9 14-01-2018 12:00 11.0 -- 12.9 2018-01-14 12:22:00
2 2018-01-15 12:00:00 Temperatura 11.7 del 15-01-2018 10:00, Menor que la Mínima 14.3 15-01-2018 12:00 11.7 -- 14.3 2018-01-15 12:22:00
2 2018-01-16 12:00:00 Temperatura 11.0 del 16-01-2018 10:00, Menor que la Mínima 13.8 16-01-2018 12:00 11.0 -- 13.8 2018-01-16 12:22:00
2 2018-01-17 12:00:00 Temperatura 10.2 del 17-01-2018 09:00, Menor que la Mínima 15.2 17-01-2018 12:00 10.2 -- 15.2 2018-01-17 12:22:00
2 2018-01-18 12:00:00 Temperatura 13.1 del 18-01-2018 10:00, Menor que la Mínima 14.2 18-01-2018 12:00 13.1 -- 14.2 2018-01-18 12:22:00
2 2018-01-19 12:00:00 Temperatura 14.6 del 19-01-2018 10:00, Menor que la Mínima 15.4 19-01-2018 12:00 14.6 -- 15.4 2018-01-19 12:22:00
2 2018-01-20 12:00:00 Temperatura 15.1 del 20-01-2018 10:00, Menor que la Mínima 17.0 20-01-2018 12:00 15.1 -- 17.0 2018-01-20 12:22:00
2 2018-01-21 12:00:00 Temperatura 15.2 del 21-01-2018 10:00, Menor que la Mínima 17.6 21-01-2018 12:00 15.2 -- 17.6 2018-01-21 12:22:00
2 2018-01-22 12:00:00 Temperatura 11.4 del 22-01-2018 09:00, Menor que la Mínima 16.7 22-01-2018 12:00 11.4 -- 16.7 2018-01-22 12:22:00
2 2018-01-23 12:00:00 Temperatura 11.6 del 23-01-2018 09:00, Menor que la Mínima 13.5 23-01-2018 12:00 11.6 -- 13.5 2018-01-23 12:22:00
2 2018-01-24 12:00:00 Temperatura 10.8 del 24-01-2018 10:00, Menor que la Mínima 13.6 24-01-2018 12:00 10.8 -- 13.6 2018-01-24 12:22:00
2 2018-01-25 12:00:00 Temperatura 10.8 del 25-01-2018 10:00, Menor que la Mínima 13.8 25-01-2018 12:00 10.8 -- 13.8 2018-01-25 12:22:00
2 2018-01-26 12:00:00 Temperatura 9.3 del 26-01-2018 10:00, Menor que la Mínima 14.2 26-01-2018 12:00 9.3 -- 14.2 2018-01-26 12:22:00
2 2018-01-27 12:00:00 Temperatura 8.9 del 27-01-2018 10:00, Menor que la Mínima 12.5 27-01-2018 12:00 8.9 -- 12.5 2018-01-27 12:22:00
2 2018-01-28 12:00:00 Temperatura 11.1 del 28-01-2018 08:00, Menor que la Mínima 13.9 28-01-2018 12:00 11.1 -- 13.9 2018-01-28 12:22:00
2 2018-01-29 12:00:00 Temperatura 9.6 del 29-01-2018 10:00, Menor que la Mínima 13.5 29-01-2018 12:00 9.6 -- 13.5 2018-01-29 12:22:00
2 2018-01-30 12:00:00 Temperatura 12.5 del 30-01-2018 07:00, Menor que la Mínima 14.3 30-01-2018 12:00 12.5 -- 14.3 2018-01-30 12:22:00
2 2018-01-31 12:00:00 Temperatura 10.3 del 31-01-2018 10:00, Menor que la Mínima 15.8 31-01-2018 12:00 10.3 -- 15.8 2018-01-31 12:22:00
2 2018-02-02 12:00:00 Temperatura 13.3 del 02-02-2018 10:00, Menor que la Mínima 15.2 02-02-2018 12:00 13.3 -- 15.2 2018-02-02 12:22:00
2 2018-02-03 12:00:00 Temperatura 13.6 del 03-02-2018 10:00, Menor que la Mínima 17.0 03-02-2018 12:00 13.6 -- 17.0 2018-02-03 12:22:00
2 2018-02-04 12:00:00 Temperatura 13.6 del 04-02-2018 10:00, Menor que la Mínima 15.7 04-02-2018 12:00 13.6 -- 15.7 2018-02-04 12:22:00
2 2018-02-05 12:00:00 Temperatura 14.4 del 05-02-2018 09:00, Menor que la Mínima 16.8 05-02-2018 12:00 14.4 -- 16.8 2018-02-05 12:22:00
2 2018-02-06 12:00:00 Temperatura 12.0 del 06-02-2018 10:00, Menor que la Mínima 17.7 06-02-2018 12:00 12.0 -- 17.7 2018-02-06 12:22:00
2 2018-02-07 12:00:00 Temperatura 11.7 del 07-02-2018 10:00, Menor que la Mínima 15.2 07-02-2018 12:00 11.7 -- 15.2 2018-02-07 12:22:00
2 2018-02-08 12:00:00 Temperatura 12.4 del 08-02-2018 10:00, Menor que la Mínima 13.7 08-02-2018 12:00 12.4 -- 13.7 2018-02-08 12:22:00
2 2018-02-09 12:00:00 Temperatura 8.8 del 09-02-2018 09:00, Menor que la Mínima 15.1 09-02-2018 12:00 8.8 -- 15.1 2018-02-09 12:22:00
2 2018-02-10 12:00:00 Temperatura 8.2 del 10-02-2018 10:00, Menor que la Mínima 12.5 10-02-2018 12:00 8.2 -- 12.5 2018-02-10 12:22:00
2 2018-02-11 12:00:00 Temperatura 8.7 del 11-02-2018 09:00, Menor que la Mínima 11.4 11-02-2018 12:00 8.7 -- 11.4 2018-02-11 12:22:00
2 2018-02-13 12:00:00 Temperatura 11.8 del 13-02-2018 10:00, Menor que la Mínima 14.8 13-02-2018 12:00 11.8 -- 14.8 2018-02-13 12:22:00
2 2018-02-14 12:00:00 Temperatura 10.7 del 14-02-2018 10:00, Menor que la Mínima 15.2 14-02-2018 12:00 10.7 -- 15.2 2018-02-14 12:22:00
2 2018-02-15 12:00:00 Temperatura 12.4 del 15-02-2018 11:00, Menor que la Mínima 14.8 15-02-2018 12:00 12.4 -- 14.8 2018-02-15 12:22:00
2 2018-02-16 12:00:00 Temperatura 13.3 del 16-02-2018 10:00, Menor que la Mínima 16.0 16-02-2018 12:00 13.3 -- 16.0 2018-02-16 12:22:00
2 2018-02-17 12:00:00 Temperatura 14.2 del 17-02-2018 10:00, Menor que la Mínima 16.1 17-02-2018 12:00 14.2 -- 16.1 2018-02-17 12:22:00
2 2018-02-18 12:00:00 Temperatura 15.4 del 18-02-2018 10:00, Menor que la Mínima 15.7 18-02-2018 12:00 15.4 -- 15.7 2018-02-18 12:22:00
2 2018-02-19 12:00:00 Temperatura 9.2 del 19-02-2018 10:00, Menor que la Mínima 18.5 19-02-2018 12:00 9.2 -- 18.5 2018-02-19 12:22:00
2 2018-02-20 12:00:00 Temperatura 12.3 del 20-02-2018 12:00, Menor que la Mínima 14.6 20-02-2018 12:00 12.3 -- 14.6 2018-02-20 12:22:00
2 2018-02-21 12:00:00 Temperatura 10.5 del 21-02-2018 11:00, Menor que la Mínima 12.2 21-02-2018 12:00 10.5 -- 12.2 2018-02-21 12:22:00
2 2018-02-22 12:00:00 Temperatura 11.4 del 22-02-2018 10:00, Menor que la Mínima 13.6 22-02-2018 12:00 11.4 -- 13.6 2018-02-22 12:22:00
2 2018-02-24 12:00:00 Temperatura 11.3 del 24-02-2018 10:00, Menor que la Mínima 14.9 24-02-2018 12:00 11.3 -- 14.9 2018-02-24 12:22:00
2 2018-02-25 12:00:00 Temperatura 12.7 del 25-02-2018 09:00, Menor que la Mínima 13.9 25-02-2018 12:00 12.7 -- 13.9 2018-02-25 12:22:00
2 2018-02-26 12:00:00 Temperatura 11.7 del 26-02-2018 10:00, Menor que la Mínima 15.8 26-02-2018 12:00 11.7 -- 15.8 2018-02-26 12:22:00
2 2018-02-27 12:00:00 Temperatura 13.2 del 27-02-2018 10:00, Menor que la Mínima 14.8 27-02-2018 12:00 13.2 -- 14.8 2018-02-27 12:22:00
2 2018-02-28 12:00:00 Temperatura 11.3 del 28-02-2018 10:00, Menor que la Mínima 14.1 28-02-2018 12:00 11.3 -- 14.1 2018-02-28 12:22:00
2 2018-03-01 12:00:00 Temperatura 11.5 del 01-03-2018 11:00, Menor que la Mínima 14.1 01-03-2018 12:00 11.5 -- 14.1 2018-03-01 12:22:00
2 2018-03-02 12:00:00 Temperatura 10.9 del 02-03-2018 10:00, Menor que la Mínima 13.7 02-03-2018 12:00 10.9 -- 13.7 2018-03-02 12:22:00
2 2018-03-03 12:00:00 Temperatura 10.9 del 03-03-2018 11:00, Menor que la Mínima 14.0 03-03-2018 12:00 10.9 -- 14.0 2018-03-03 12:22:00
2 2018-03-04 12:00:00 Temperatura 9.5 del 04-03-2018 11:00, Menor que la Mínima 13.1 04-03-2018 12:00 9.5 -- 13.1 2018-03-04 12:22:00
2 2018-03-05 12:00:00 Temperatura 10.4 del 05-03-2018 10:00, Menor que la Mínima 14.0 05-03-2018 12:00 10.4 -- 14.0 2018-03-05 12:22:00
2 2018-03-06 12:00:00 Temperatura 11.4 del 06-03-2018 11:00, Menor que la Mínima 12.1 06-03-2018 12:00 11.4 -- 12.1 2018-03-06 12:22:00
2 2018-03-07 12:00:00 Temperatura 10.4 del 07-03-2018 10:00, Menor que la Mínima 13.4 07-03-2018 12:00 10.4 -- 13.4 2018-03-07 12:22:00
2 2018-03-08 12:00:00 Temperatura 9.4 del 08-03-2018 11:00, Menor que la Mínima 14.5 08-03-2018 12:00 9.4 -- 14.5 2018-03-08 12:22:00
2 2018-03-10 12:00:00 Temperatura 7.8 del 10-03-2018 10:00, Menor que la Mínima 14.1 10-03-2018 12:00 7.8 -- 14.1 2018-03-10 12:22:00
2 2018-03-11 12:00:00 Temperatura 4.3 del 11-03-2018 10:00, Menor que la Mínima 8.6 11-03-2018 12:00 4.3 -- 8.6 2018-03-11 12:22:00
2 2018-03-12 12:00:00 Temperatura 6.3 del 12-03-2018 11:00, Menor que la Mínima 7.0 12-03-2018 12:00 6.3 -- 7.0 2018-03-12 12:22:00
2 2018-03-13 12:00:00 Temperatura 3.9 del 13-03-2018 09:00, Menor que la Mínima 9.6 13-03-2018 12:00 3.9 -- 9.6 2018-03-13 12:22:00
2 2018-03-14 12:00:00 Temperatura 7.9 del 14-03-2018 08:00, Menor que la Mínima 8.8 14-03-2018 12:00 7.9 -- 8.8 2018-03-14 12:22:00
2 2018-03-15 12:00:00 Temperatura 7.1 del 15-03-2018 06:00, Menor que la Mínima 9.4 15-03-2018 12:00 7.1 -- 9.4 2018-03-15 12:22:00
2 2018-03-16 12:00:00 Temperatura 6.8 del 16-03-2018 09:00, Menor que la Mínima 7.4 16-03-2018 12:00 6.8 -- 7.4 2018-03-16 12:22:00
2 2018-03-18 12:00:00 Temperatura 5.2 del 18-03-2018 09:00, Menor que la Mínima 9.9 18-03-2018 12:00 5.2 -- 9.9 2018-03-18 12:22:00
2 2018-03-19 12:00:00 Temperatura 6.6 del 19-03-2018 11:00, Menor que la Mínima 7.3 19-03-2018 12:00 6.6 -- 7.3 2018-03-19 12:22:00
2 2018-03-21 12:00:00 Temperatura 5.2 del 21-03-2018 11:00, Menor que la Mínima 10.3 21-03-2018 12:00 5.2 -- 10.3 2018-03-21 12:22:00
2 2018-03-23 12:00:00 Temperatura 11.8 del 23-03-2018 08:00, Menor que la Mínima 13.9 23-03-2018 12:00 11.8 -- 13.9 2018-03-23 12:22:00
2 2018-03-24 12:00:00 Temperatura 7.1 del 24-03-2018 10:00, Menor que la Mínima 13.5 24-03-2018 12:00 7.1 -- 13.5 2018-03-24 12:37:00
2 2018-03-25 12:00:00 Temperatura 5.4 del 25-03-2018 11:00, Menor que la Mínima 9.2 25-03-2018 12:00 5.4 -- 9.2 2018-03-25 12:22:00
2 2018-03-27 12:00:00 Temperatura 7.2 del 27-03-2018 11:00, Menor que la Mínima 9.7 27-03-2018 12:00 7.2 -- 9.7 2018-03-27 12:22:00
2 2018-03-28 12:00:00 Temperatura 8.3 del 28-03-2018 11:00, Menor que la Mínima 8.4 28-03-2018 12:00 8.3 -- 8.4 2018-03-28 12:22:00
2 2018-03-30 12:00:00 Temperatura 9.4 del 30-03-2018 09:00, Menor que la Mínima 13.2 30-03-2018 12:00 9.4 -- 13.2 2018-03-30 12:22:00
2 2018-04-01 12:00:00 Temperatura 9.2 del 01-04-2018 09:00, Menor que la Mínima 12.8 01-04-2018 12:00 9.2 -- 12.8 2018-04-01 12:22:00
2 2018-04-02 12:00:00 Temperatura 8.7 del 02-04-2018 10:00, Menor que la Mínima 10.1 02-04-2018 12:00 8.7 -- 10.1 2018-04-02 12:22:00
2 2018-04-03 12:00:00 Temperatura 10.0 del 03-04-2018 11:00, Menor que la Mínima 10.3 03-04-2018 12:00 10.0 -- 10.3 2018-04-03 12:22:00
2 2018-04-04 12:00:00 Temperatura 9.8 del 04-04-2018 06:00, Menor que la Mínima 10.2 04-04-2018 12:00 9.8 -- 10.2 2018-04-04 12:22:00
2 2018-04-05 12:00:00 Temperatura 7.6 del 05-04-2018 09:00, Menor que la Mínima 11.4 05-04-2018 12:00 7.6 -- 11.4 2018-04-05 12:22:00
2 2018-04-06 12:00:00 Temperatura 3.5 del 06-04-2018 11:00, Menor que la Mínima 8.3 06-04-2018 12:00 3.5 -- 8.3 2018-04-06 12:22:00
2 2018-04-07 12:00:00 Temperatura 3.6 del 07-04-2018 09:00, Menor que la Mínima 4.8 07-04-2018 12:00 3.6 -- 4.8 2018-04-07 12:22:00
2 2018-04-09 12:00:00 Temperatura 7.3 del 09-04-2018 10:00, Menor que la Mínima 9.4 09-04-2018 12:00 7.3 -- 9.4 2018-04-09 12:22:00
2 2018-04-11 12:00:00 Temperatura 9.4 del 11-04-2018 10:00, Menor que la Mínima 13.6 11-04-2018 12:00 9.4 -- 13.6 2018-04-11 12:22:00
2 2018-04-12 12:00:00 Temperatura 1.6 del 12-04-2018 10:00, Menor que la Mínima 8.8 12-04-2018 12:00 1.6 -- 8.8 2018-04-12 12:22:00
2 2018-04-13 12:00:00 Temperatura 2.0 del 13-04-2018 11:00, Menor que la Mínima 2.2 13-04-2018 12:00 2.0 -- 2.2 2018-04-13 12:22:00
2 2018-04-16 12:00:00 Temperatura 6.5 del 16-04-2018 11:00, Menor que la Mínima 7.1 16-04-2018 12:00 6.5 -- 7.1 2018-04-16 12:22:00
2 2018-04-17 12:00:00 Temperatura 7.4 del 17-04-2018 11:00, Menor que la Mínima 8.0 17-04-2018 12:00 7.4 -- 8.0 2018-04-17 12:37:00
2 2018-04-18 12:00:00 Temperatura 4.5 del 18-04-2018 09:00, Menor que la Mínima 7.6 18-04-2018 12:00 4.5 -- 7.6 2018-04-18 12:37:00
2 2018-04-20 12:00:00 Temperatura 5.7 del 20-04-2018 11:00, Menor que la Mínima 11.1 20-04-2018 12:00 5.7 -- 11.1 2018-04-20 12:22:00
2 2018-04-21 12:00:00 Temperatura 4.9 del 21-04-2018 11:00, Menor que la Mínima 5.9 21-04-2018 12:00 4.9 -- 5.9 2018-04-21 12:37:00
2 2018-04-23 12:00:00 Temperatura 5.1 del 23-04-2018 11:00, Menor que la Mínima 10.9 23-04-2018 12:00 5.1 -- 10.9 2018-04-23 12:37:00
2 2018-04-24 12:00:00 Temperatura 3.0 del 24-04-2018 12:00, Menor que la Mínima 5.3 24-04-2018 12:00 3.0 -- 5.3 2018-04-24 12:37:00
2 2018-04-25 12:00:00 Temperatura 0.6 del 25-04-2018 09:00, Menor que la Mínima 3.1 25-04-2018 12:00 0.6 -- 3.1 2018-04-25 12:37:00
2 2018-04-27 12:00:00 Temperatura 5.4 del 27-04-2018 10:00, Menor que la Mínima 10.4 27-04-2018 12:00 5.4 -- 10.4 2018-04-27 12:37:00
2 2018-04-29 12:00:00 Temperatura 2.1 del 29-04-2018 07:00, Menor que la Mínima 6.6 29-04-2018 12:00 2.1 -- 6.6 2018-04-29 12:37:00
2 2018-05-02 12:00:00 Temperatura 10.5 del 02-05-2018 02:00, Menor que la Mínima 11.1 02-05-2018 12:00 10.5 -- 11.1 2018-05-02 12:37:00
2 2018-05-03 12:00:00 Temperatura 10.5 del 03-05-2018 12:00, Menor que la Mínima 10.7 03-05-2018 12:00 10.5 -- 10.7 2018-05-03 12:37:00
2 2018-05-04 12:00:00 Temperatura 7.1 del 04-05-2018 11:00, Menor que la Mínima 10.3 04-05-2018 12:00 7.1 -- 10.3 2018-05-04 12:37:00
2 2018-05-05 12:00:00 Temperatura 5.0 del 05-05-2018 09:00, Menor que la Mínima 7.2 05-05-2018 12:00 5.0 -- 7.2 2018-05-05 12:37:00
2 2018-05-08 12:00:00 Temperatura 7.1 del 08-05-2018 07:00, Menor que la Mínima 10.5 08-05-2018 12:00 7.1 -- 10.5 2018-05-08 12:37:00
2 2018-05-09 12:00:00 Temperatura 5.0 del 09-05-2018 07:00, Menor que la Mínima 9.1 09-05-2018 12:00 5.0 -- 9.1 2018-05-09 12:37:00
2 2018-05-10 12:00:00 Temperatura 8.0 del 10-05-2018 12:00, Menor que la Mínima 9.2 10-05-2018 12:00 8.0 -- 9.2 2018-05-10 12:37:00
2 2018-05-11 12:00:00 Temperatura 2.1 del 11-05-2018 12:00, Menor que la Mínima 7.7 11-05-2018 12:00 2.1 -- 7.7 2018-05-11 12:22:00
2 2018-05-14 12:00:00 Temperatura 9.3 del 14-05-2018 06:00, Menor que la Mínima 11.5 14-05-2018 12:00 9.3 -- 11.5 2018-05-14 12:37:00
2 2018-05-15 12:00:00 Temperatura 2.2 del 15-05-2018 09:00, Menor que la Mínima 8.2 15-05-2018 12:00 2.2 -- 8.2 2018-05-15 12:37:00
2 2018-05-18 12:00:00 Temperatura 6.7 del 18-05-2018 12:00, Menor que la Mínima 9.3 18-05-2018 12:00 6.7 -- 9.3 2018-05-18 12:37:00
2 2018-05-19 12:00:00 Temperatura 2.8 del 19-05-2018 11:00, Menor que la Mínima 6.6 19-05-2018 12:00 2.8 -- 6.6 2018-05-22 15:16:00
2 2018-05-21 12:00:00 Temperatura 2.1 del 21-05-2018 12:00, Menor que la Mínima 7.8 21-05-2018 12:00 2.1 -- 7.8 2018-05-22 15:16:00
2 2018-05-22 12:00:00 Temperatura 1.1 del 22-05-2018 10:00, Menor que la Mínima 1.7 22-05-2018 12:00 1.1 -- 1.7 2018-05-22 12:37:00
2 2018-05-23 12:00:00 Temperatura -0.5 del 23-05-2018 12:00, Menor que la Mínima 2.3 23-05-2018 12:00 -0.5 -- 2.3 2018-05-23 12:37:00
2 2018-05-27 12:00:00 Temperatura 7.2 del 27-05-2018 04:00, Menor que la Mínima 8.8 27-05-2018 12:00 7.2 -- 8.8 2018-05-27 12:37:00
2 2018-05-29 12:00:00 Temperatura 7.5 del 29-05-2018 12:00, Menor que la Mínima 9.8 29-05-2018 12:00 7.5 -- 9.8 2018-05-29 12:37:00
2 2018-05-30 12:00:00 Temperatura 1.4 del 30-05-2018 12:00, Menor que la Mínima 7.1 30-05-2018 12:00 1.4 -- 7.1 2018-05-30 12:37:00
2 2018-06-01 12:00:00 Temperatura 1.1 del 01-06-2018 12:00, Menor que la Mínima 2.4 01-06-2018 12:00 1.1 -- 2.4 2018-06-01 12:37:00
2 2018-06-02 12:00:00 Temperatura -3.1 del 02-06-2018 11:00, Menor que la Mínima 1.1 02-06-2018 12:00 -3.1 -- 1.1 2018-06-02 12:37:00
2 2018-06-04 12:00:00 Temperatura -2.0 del 04-06-2018 08:00, Menor que la Mínima -1.6 04-06-2018 12:00 -2.0 -- -1.6 2018-06-04 12:37:00
2 2018-06-06 12:00:00 Temperatura 0.2 del 06-06-2018 12:00, Menor que la Mínima 2.7 06-06-2018 12:00 0.2 -- 2.7 2022-05-20 18:56:00
2 2018-06-07 12:00:00 Temperatura -1.9 del 07-06-2018 12:00, Menor que la Mínima -0.1 07-06-2018 12:00 -1.9 -- -0.1 2022-05-20 18:56:00
2 2018-06-11 12:00:00 Temperatura 3.7 del 11-06-2018 10:00, Menor que la Mínima 4.3 11-06-2018 12:00 3.7 -- 4.3 2018-06-11 12:37:00
2 2018-06-12 12:00:00 Temperatura 0.1 del 12-06-2018 08:00, Menor que la Mínima 3.9 12-06-2018 12:00 0.1 -- 3.9 2018-06-12 12:37:00
2 2018-06-13 12:00:00 Temperatura -1.9 del 13-06-2018 11:00, Menor que la Mínima 0.1 13-06-2018 12:00 -1.9 -- 0.1 2018-06-13 12:37:00
2 2018-06-14 12:00:00 Temperatura -2.9 del 14-06-2018 12:00, Menor que la Mínima -2.3 14-06-2018 12:00 -2.9 -- -2.3 2018-06-14 12:37:00
2 2018-06-16 12:00:00 Temperatura 2.1 del 16-06-2018 11:00, Menor que la Mínima 4.3 16-06-2018 12:00 2.1 -- 4.3 2018-06-16 12:37:00
2 2018-06-19 12:00:00 Temperatura 4.5 del 19-06-2018 02:00, Menor que la Mínima 7.5 19-06-2018 12:00 4.5 -- 7.5 2018-06-19 12:22:00
2 2018-06-20 12:00:00 Temperatura 3.9 del 20-06-2018 06:00, Menor que la Mínima 6.2 20-06-2018 12:00 3.9 -- 6.2 2018-06-20 12:37:00
2 2018-06-21 12:00:00 Temperatura -1.6 del 21-06-2018 10:00, Menor que la Mínima 3.5 21-06-2018 12:00 -1.6 -- 3.5 2018-06-21 12:37:00
2 2018-06-24 12:00:00 Temperatura 0.3 del 24-06-2018 12:00, Menor que la Mínima 6.3 24-06-2018 12:00 0.3 -- 6.3 2018-06-24 12:37:00
2 2018-06-28 12:00:00 Temperatura 7.4 del 28-06-2018 11:00, Menor que la Mínima 9.8 28-06-2018 12:00 7.4 -- 9.8 2018-06-28 12:37:00
2 2018-06-29 12:00:00 Temperatura 5.3 del 29-06-2018 05:00, Menor que la Mínima 6.2 29-06-2018 12:00 5.3 -- 6.2 2018-06-29 12:37:00
2 2018-07-01 12:00:00 Temperatura 7.4 del 01-07-2018 01:00, Menor que la Mínima 7.7 01-07-2018 12:00 7.4 -- 7.7 2018-07-01 12:37:00
2 2018-07-03 12:00:00 Temperatura 4.6 del 03-07-2018 12:00, Menor que la Mínima 8.9 03-07-2018 12:00 4.6 -- 8.9 2018-07-03 13:24:00
2 2018-07-06 12:00:00 Temperatura 9.2 del 06-07-2018 06:00, Menor que la Mínima 10.1 06-07-2018 12:00 9.2 -- 10.1 2018-07-06 12:37:00
2 2018-07-07 12:00:00 Temperatura 7.9 del 07-07-2018 10:00, Menor que la Mínima 9.1 07-07-2018 12:00 7.9 -- 9.1 2018-07-07 12:37:00
2 2018-07-08 12:00:00 Temperatura 4.4 del 08-07-2018 10:00, Menor que la Mínima 7.8 08-07-2018 12:00 4.4 -- 7.8 2018-07-08 12:37:00
2 2018-07-09 12:00:00 Temperatura 0.7 del 09-07-2018 12:00, Menor que la Mínima 4.4 09-07-2018 12:00 0.7 -- 4.4 2018-07-09 12:37:00
2 2018-07-10 12:00:00 Temperatura 0.3 del 10-07-2018 11:00, Menor que la Mínima 0.6 10-07-2018 12:00 0.3 -- 0.6 2018-07-10 12:37:00
2 2018-07-14 12:00:00 Temperatura 8.2 del 14-07-2018 12:00, Menor que la Mínima 10.1 14-07-2018 12:00 8.2 -- 10.1 2018-07-14 12:37:00
2 2018-07-15 12:00:00 Temperatura 1.4 del 15-07-2018 11:00, Menor que la Mínima 7.7 15-07-2018 12:00 1.4 -- 7.7 2018-07-15 12:37:00
2 2018-07-17 12:00:00 Temperatura 1.8 del 17-07-2018 05:00, Menor que la Mínima 3.0 17-07-2018 12:00 1.8 -- 3.0 2018-07-17 12:37:00
2 2018-07-18 12:00:00 Temperatura -4.1 del 18-07-2018 12:00, Menor que la Mínima 2.6 18-07-2018 12:00 -4.1 -- 2.6 2018-07-18 12:37:00
2 2018-07-23 12:00:00 Temperatura 1.1 del 23-07-2018 12:00, Menor que la Mínima 3.0 23-07-2018 12:00 1.1 -- 3.0 2018-07-23 12:37:00
2 2018-07-24 12:00:00 Temperatura -1.9 del 24-07-2018 12:00, Menor que la Mínima 0.9 24-07-2018 12:00 -1.9 -- 0.9 2018-07-24 12:37:00
2 2018-07-25 12:00:00 Temperatura -3.1 del 25-07-2018 12:00, Menor que la Mínima -2.0 25-07-2018 12:00 -3.1 -- -2.0 2018-07-25 12:37:00
2 2018-07-27 12:00:00 Temperatura -1.7 del 27-07-2018 05:00, Menor que la Mínima -1.4 27-07-2018 12:00 -1.7 -- -1.4 2018-07-27 12:37:00
2 2018-07-29 12:00:00 Temperatura -0.3 del 29-07-2018 12:00, Menor que la Mínima -0.2 29-07-2018 12:00 -0.3 -- -0.2 2018-07-29 12:37:00
2 2018-07-31 12:00:00 Temperatura 1.7 del 31-07-2018 10:00, Menor que la Mínima 4.8 31-07-2018 12:00 1.7 -- 4.8 2018-07-31 12:37:00
2 2018-08-01 12:00:00 Temperatura -0.4 del 01-08-2018 08:00, Menor que la Mínima 1.7 01-08-2018 12:00 -0.4 -- 1.7 2018-08-01 12:37:00
2 2018-08-02 12:00:00 Temperatura -3.4 del 02-08-2018 09:00, Menor que la Mínima -0.4 02-08-2018 12:00 -3.4 -- -0.4 2018-08-02 12:37:00
2 2018-08-04 12:00:00 Temperatura 2.1 del 04-08-2018 09:00, Menor que la Mínima 5.6 04-08-2018 12:00 2.1 -- 5.6 2018-08-04 12:37:00
2 2018-08-07 12:00:00 Temperatura 4.5 del 07-08-2018 12:00, Menor que la Mínima 9.5 07-08-2018 12:00 4.5 -- 9.5 2018-08-07 12:37:00
2 2018-08-08 12:00:00 Temperatura -0.9 del 08-08-2018 12:00, Menor que la Mínima 4.5 08-08-2018 12:00 -0.9 -- 4.5 2018-08-08 12:37:00
2 2018-08-10 12:00:00 Temperatura 1.5 del 10-08-2018 09:00, Menor que la Mínima 2.0 10-08-2018 12:00 1.5 -- 2.0 2018-08-10 12:37:00
2 2018-08-12 12:00:00 Temperatura 1.2 del 12-08-2018 11:00, Menor que la Mínima 7.2 12-08-2018 12:00 1.2 -- 7.2 2018-08-12 12:37:00
2 2018-08-14 12:00:00 Temperatura 1.4 del 14-08-2018 12:00, Menor que la Mínima 6.4 14-08-2018 12:00 1.4 -- 6.4 2018-08-14 12:37:00
2 2018-08-16 12:00:00 Temperatura 1.4 del 16-08-2018 12:00, Menor que la Mínima 2.9 16-08-2018 12:00 1.4 -- 2.9 2018-08-16 12:37:00
2 2018-08-18 12:00:00 Temperatura 2.1 del 18-08-2018 12:00, Menor que la Mínima 8.4 18-08-2018 12:00 2.1 -- 8.4 2018-08-18 12:22:00
2 2018-08-19 12:00:00 Temperatura 1.8 del 19-08-2018 12:00, Menor que la Mínima 2.1 19-08-2018 12:00 1.8 -- 2.1 2018-08-19 12:22:00
2 2018-08-20 12:00:00 Temperatura -0.1 del 20-08-2018 12:00, Menor que la Mínima 1.8 20-08-2018 12:00 -0.1 -- 1.8 2018-08-20 12:22:00
2 2018-08-21 12:00:00 Temperatura -0.3 del 21-08-2018 12:00, Menor que la Mínima 0.1 21-08-2018 12:00 -0.3 -- 0.1 2018-08-21 12:22:00
2 2018-08-23 12:00:00 Temperatura 5.0 del 23-08-2018 12:00, Menor que la Mínima 5.2 23-08-2018 12:00 5.0 -- 5.2 2018-08-23 12:22:00
2 2018-08-24 12:00:00 Temperatura 0.7 del 24-08-2018 12:00, Menor que la Mínima 4.6 24-08-2018 12:00 0.7 -- 4.6 2018-08-24 12:22:00
2 2018-08-27 12:00:00 Temperatura 6.1 del 27-08-2018 12:00, Menor que la Mínima 7.3 27-08-2018 12:00 6.1 -- 7.3 2018-08-27 12:22:00
2 2018-08-28 12:00:00 Temperatura 4.5 del 28-08-2018 05:00, Menor que la Mínima 6.1 28-08-2018 12:00 4.5 -- 6.1 2018-08-28 12:22:00
2 2018-08-30 12:00:00 Temperatura 7.3 del 30-08-2018 10:00, Menor que la Mínima 7.7 30-08-2018 12:00 7.3 -- 7.7 2018-08-30 12:22:00
2 2018-08-31 12:00:00 Temperatura 7.0 del 31-08-2018 12:00, Menor que la Mínima 7.3 31-08-2018 12:00 7.0 -- 7.3 2018-08-31 12:22:00
2 2018-09-01 12:00:00 Temperatura 1.5 del 01-09-2018 11:00, Menor que la Mínima 7.0 01-09-2018 12:00 1.5 -- 7.0 2018-09-01 12:37:00
2 2018-09-03 12:00:00 Temperatura 4.8 del 03-09-2018 10:00, Menor que la Mínima 5.7 03-09-2018 12:00 4.8 -- 5.7 2018-09-03 12:37:00
2 2018-09-06 12:00:00 Temperatura 4.6 del 06-09-2018 12:00, Menor que la Mínima 7.2 06-09-2018 12:00 4.6 -- 7.2 2018-09-06 12:37:00
2 2018-09-07 12:00:00 Temperatura 2.8 del 07-09-2018 10:00, Menor que la Mínima 4.6 07-09-2018 12:00 2.8 -- 4.6 2018-09-07 12:37:00
2 2018-09-08 12:00:00 Temperatura 3.2 del 08-09-2018 11:00, Menor que la Mínima 3.7 08-09-2018 12:00 3.2 -- 3.7 2018-09-08 12:37:00
2 2018-09-09 12:00:00 Temperatura 3.5 del 09-09-2018 10:00, Menor que la Mínima 4.4 09-09-2018 12:00 3.5 -- 4.4 2018-09-09 12:37:00
2 2018-09-10 12:00:00 Temperatura 2.4 del 10-09-2018 10:00, Menor que la Mínima 5.4 10-09-2018 12:00 2.4 -- 5.4 2018-09-10 12:37:00
2 2018-09-12 12:00:00 Temperatura 6.5 del 12-09-2018 08:00, Menor que la Mínima 6.8 12-09-2018 12:00 6.5 -- 6.8 2018-09-12 12:37:00
2 2018-09-13 12:00:00 Temperatura 6.2 del 13-09-2018 11:00, Menor que la Mínima 8.0 13-09-2018 12:00 6.2 -- 8.0 2018-09-13 12:37:00
2 2018-09-14 12:00:00 Temperatura 2.4 del 14-09-2018 11:00, Menor que la Mínima 6.9 14-09-2018 12:00 2.4 -- 6.9 2018-09-14 12:37:00
2 2018-09-18 12:00:00 Temperatura 9.0 del 18-09-2018 11:00, Menor que la Mínima 9.6 18-09-2018 12:00 9.0 -- 9.6 2018-09-18 12:37:00
2 2018-09-20 12:00:00 Temperatura 8.4 del 20-09-2018 10:00, Menor que la Mínima 9.2 20-09-2018 12:00 8.4 -- 9.2 2018-09-20 12:37:00
2 2018-09-22 12:00:00 Temperatura 8.9 del 22-09-2018 11:00, Menor que la Mínima 11.6 22-09-2018 12:00 8.9 -- 11.6 2018-09-22 12:37:00
2 2018-09-23 12:00:00 Temperatura 7.4 del 23-09-2018 10:00, Menor que la Mínima 9.6 23-09-2018 12:00 7.4 -- 9.6 2018-09-23 12:37:00
2 2018-09-24 12:00:00 Temperatura 5.6 del 24-09-2018 08:00, Menor que la Mínima 9.3 24-09-2018 12:00 5.6 -- 9.3 2018-09-24 12:37:00
2 2018-09-25 12:00:00 Temperatura 4.2 del 25-09-2018 10:00, Menor que la Mínima 6.1 25-09-2018 12:00 4.2 -- 6.1 2018-09-25 12:37:00
2 2018-09-28 12:00:00 Temperatura 9.5 del 28-09-2018 11:00, Menor que la Mínima 9.6 28-09-2018 12:00 9.5 -- 9.6 2018-09-28 12:37:00
2 2018-09-29 12:00:00 Temperatura 9.8 del 29-09-2018 09:00, Menor que la Mínima 9.9 29-09-2018 12:00 9.8 -- 9.9 2018-09-29 12:37:00
2 2018-09-30 12:00:00 Temperatura 5.0 del 30-09-2018 11:00, Menor que la Mínima 9.2 30-09-2018 12:00 5.0 -- 9.2 2018-09-30 12:37:00
2 2018-10-01 12:00:00 Temperatura -1.2 del 01-10-2018 10:00, Menor que la Mínima 5.2 01-10-2018 12:00 -1.2 -- 5.2 2018-10-01 12:37:00
2 2018-10-02 12:00:00 Temperatura 0.4 del 02-10-2018 10:00, Menor que la Mínima 1.8 02-10-2018 12:00 0.4 -- 1.8 2018-10-02 12:22:00
2 2018-10-04 12:00:00 Temperatura 5.4 del 04-10-2018 10:00, Menor que la Mínima 6.4 04-10-2018 12:00 5.4 -- 6.4 2018-10-05 16:37:00
2 2018-10-06 12:00:00 Temperatura 7.8 del 06-10-2018 05:00, Menor que la Mínima 9.6 06-10-2018 12:00 7.8 -- 9.6 2018-10-06 12:22:00
2 2018-10-07 12:00:00 Temperatura 8.6 del 07-10-2018 07:00, Menor que la Mínima 9.3 07-10-2018 12:00 8.6 -- 9.3 2018-10-07 12:22:00
2 2018-10-08 12:00:00 Temperatura 8.8 del 08-10-2018 08:00, Menor que la Mínima 8.9 08-10-2018 12:00 8.8 -- 8.9 2018-10-08 12:22:00
2 2018-10-09 12:00:00 Temperatura 4.1 del 09-10-2018 03:00, Menor que la Mínima 8.1 09-10-2018 12:00 4.1 -- 8.1 2018-10-09 12:22:00
2 2018-10-10 12:00:00 Temperatura 3.7 del 10-10-2018 10:00, Menor que la Mínima 7.6 10-10-2018 12:00 3.7 -- 7.6 2018-10-10 12:22:00
2 2018-10-11 12:00:00 Temperatura 4.7 del 11-10-2018 11:00, Menor que la Mínima 5.3 11-10-2018 12:00 4.7 -- 5.3 2018-10-11 12:22:00
2 2018-10-12 12:00:00 Temperatura 2.5 del 12-10-2018 10:00, Menor que la Mínima 7.7 12-10-2018 12:00 2.5 -- 7.7 2018-10-12 12:22:00
2 2018-10-13 12:00:00 Temperatura 1.0 del 13-10-2018 10:00, Menor que la Mínima 7.4 13-10-2018 12:00 1.0 -- 7.4 2018-10-13 18:22:00
2 2018-10-14 12:00:00 Temperatura 4.5 del 14-10-2018 10:00, Menor que la Mínima 4.7 14-10-2018 12:00 4.5 -- 4.7 2018-10-14 12:22:00
2 2018-10-15 12:00:00 Temperatura 5.5 del 15-10-2018 10:00, Menor que la Mínima 8.7 15-10-2018 12:00 5.5 -- 8.7 2018-10-15 12:22:00
2 2018-10-16 12:00:00 Temperatura 7.0 del 16-10-2018 07:00, Menor que la Mínima 8.3 16-10-2018 12:00 7.0 -- 8.3 2018-10-16 12:22:00
2 2018-10-17 12:00:00 Temperatura 10.1 del 17-10-2018 10:00, Menor que la Mínima 10.3 17-10-2018 12:00 10.1 -- 10.3 2018-10-17 12:22:00
2 2018-10-18 12:00:00 Temperatura 5.4 del 18-10-2018 10:00, Menor que la Mínima 8.7 18-10-2018 12:00 5.4 -- 8.7 2018-10-18 12:22:00
2 2018-10-19 12:00:00 Temperatura 5.8 del 19-10-2018 11:00, Menor que la Mínima 8.3 19-10-2018 12:00 5.8 -- 8.3 2018-10-19 12:22:00
2 2018-10-20 12:00:00 Temperatura 6.8 del 20-10-2018 10:00, Menor que la Mínima 9.5 20-10-2018 12:00 6.8 -- 9.5 2018-10-20 12:22:00
2 2018-10-21 12:00:00 Temperatura 2.8 del 21-10-2018 10:00, Menor que la Mínima 10.4 21-10-2018 12:00 2.8 -- 10.4 2018-10-21 12:22:00
2 2018-10-22 12:00:00 Temperatura 6.8 del 22-10-2018 08:00, Menor que la Mínima 8.1 22-10-2018 12:00 6.8 -- 8.1 2018-10-22 12:22:00
2 2018-10-24 12:00:00 Temperatura 7.9 del 24-10-2018 09:00, Menor que la Mínima 10.7 24-10-2018 12:00 7.9 -- 10.7 2018-10-24 12:22:00
2 2018-10-25 12:00:00 Temperatura 6.2 del 25-10-2018 09:00, Menor que la Mínima 9.3 25-10-2018 12:00 6.2 -- 9.3 2018-10-25 12:22:00
2 2018-10-28 12:00:00 Temperatura 11.2 del 28-10-2018 10:00, Menor que la Mínima 14.8 28-10-2018 12:00 11.2 -- 14.8 2018-10-28 12:22:00
2 2018-10-30 12:00:00 Temperatura 12.4 del 30-10-2018 04:00, Menor que la Mínima 14.0 30-10-2018 12:00 12.4 -- 14.0 2018-10-30 13:23:00
2 2018-10-31 12:00:00 Temperatura 5.1 del 31-10-2018 10:00, Menor que la Mínima 11.7 31-10-2018 12:00 5.1 -- 11.7 2018-10-31 12:22:00
2 2018-11-01 12:00:00 Temperatura 8.0 del 01-11-2018 08:00, Menor que la Mínima 10.0 01-11-2018 12:00 8.0 -- 10.0 2018-11-01 12:22:00
2 2018-11-02 12:00:00 Temperatura 9.2 del 02-11-2018 01:00, Menor que la Mínima 9.6 02-11-2018 12:00 9.2 -- 9.6 2022-05-20 18:56:00
2 2018-11-03 12:00:00 Temperatura 9.1 del 03-11-2018 03:00, Menor que la Mínima 11.0 03-11-2018 12:00 9.1 -- 11.0 2022-05-20 18:56:00
2 2018-11-07 12:00:00 Temperatura 8.4 del 07-11-2018 10:00, Menor que la Mínima 9.9 07-11-2018 12:00 8.4 -- 9.9 2018-11-07 12:22:00
2 2018-11-08 12:00:00 Temperatura 8.3 del 08-11-2018 10:00, Menor que la Mínima 14.9 08-11-2018 12:00 8.3 -- 14.9 2018-11-08 12:22:00
2 2018-11-09 12:00:00 Temperatura 9.2 del 09-11-2018 07:00, Menor que la Mínima 14.4 09-11-2018 12:00 9.2 -- 14.4 2018-11-09 12:22:00
2 2018-11-11 12:00:00 Temperatura 7.2 del 11-11-2018 10:00, Menor que la Mínima 13.3 11-11-2018 12:00 7.2 -- 13.3 2018-11-11 12:22:00
2 2018-11-12 12:00:00 Temperatura 8.0 del 12-11-2018 09:00, Menor que la Mínima 12.3 12-11-2018 12:00 8.0 -- 12.3 2018-11-12 12:37:00
2 2018-11-13 12:00:00 Temperatura 7.1 del 13-11-2018 09:00, Menor que la Mínima 10.4 13-11-2018 12:00 7.1 -- 10.4 2018-11-13 12:37:00
2 2018-11-14 12:00:00 Temperatura 7.9 del 14-11-2018 10:00, Menor que la Mínima 12.8 14-11-2018 12:00 7.9 -- 12.8 2018-11-14 12:37:00
2 2018-11-15 12:00:00 Temperatura 11.0 del 15-11-2018 10:00, Menor que la Mínima 13.0 15-11-2018 12:00 11.0 -- 13.0 2018-11-15 12:37:00
2 2018-11-16 12:00:00 Temperatura 8.0 del 16-11-2018 09:00, Menor que la Mínima 11.2 16-11-2018 12:00 8.0 -- 11.2 2018-11-16 12:22:00
2 2018-11-17 12:00:00 Temperatura 9.1 del 17-11-2018 09:00, Menor que la Mínima 11.3 17-11-2018 12:00 9.1 -- 11.3 2018-11-17 12:37:00
2 2018-11-18 12:00:00 Temperatura 9.1 del 18-11-2018 05:00, Menor que la Mínima 10.7 18-11-2018 12:00 9.1 -- 10.7 2018-11-18 12:37:00
2 2018-11-19 12:00:00 Temperatura 8.2 del 19-11-2018 10:00, Menor que la Mínima 12.8 19-11-2018 12:00 8.2 -- 12.8 2018-11-19 12:37:00
2 2018-11-20 12:00:00 Temperatura 8.6 del 20-11-2018 09:00, Menor que la Mínima 12.8 20-11-2018 12:00 8.6 -- 12.8 2018-11-20 12:37:00
2 2018-11-21 12:00:00 Temperatura 10.5 del 21-11-2018 09:00, Menor que la Mínima 13.9 21-11-2018 12:00 10.5 -- 13.9 2018-11-21 12:37:00
2 2018-11-22 12:00:00 Temperatura 7.4 del 22-11-2018 10:00, Menor que la Mínima 14.3 22-11-2018 12:00 7.4 -- 14.3 2018-11-22 12:22:00
2 2018-11-23 12:00:00 Temperatura 7.9 del 23-11-2018 09:00, Menor que la Mínima 10.0 23-11-2018 12:00 7.9 -- 10.0 2018-11-23 12:22:00
2 2018-11-24 12:00:00 Temperatura 8.1 del 24-11-2018 09:00, Menor que la Mínima 11.8 24-11-2018 12:00 8.1 -- 11.8 2018-11-24 12:22:00
2 2018-11-25 12:00:00 Temperatura 9.1 del 25-11-2018 10:00, Menor que la Mínima 11.7 25-11-2018 12:00 9.1 -- 11.7 2018-11-25 12:22:00
2 2018-11-26 12:00:00 Temperatura 8.3 del 26-11-2018 09:00, Menor que la Mínima 12.4 26-11-2018 12:00 8.3 -- 12.4 2018-11-26 12:22:00
2 2018-11-27 12:00:00 Temperatura 8.1 del 27-11-2018 08:00, Menor que la Mínima 12.3 27-11-2018 12:00 8.1 -- 12.3 2018-11-27 12:22:00
2 2018-11-28 12:00:00 Temperatura 8.6 del 28-11-2018 09:00, Menor que la Mínima 11.7 28-11-2018 12:00 8.6 -- 11.7 2018-11-28 12:22:00
2 2018-11-29 12:00:00 Temperatura 8.3 del 29-11-2018 10:00, Menor que la Mínima 11.1 29-11-2018 12:00 8.3 -- 11.1 2018-11-29 12:37:00
2 2018-12-01 12:00:00 Temperatura 8.2 del 01-12-2018 10:00, Menor que la Mínima 15.2 01-12-2018 12:00 8.2 -- 15.2 2018-12-01 12:37:00
2 2018-12-02 12:00:00 Temperatura 9.9 del 02-12-2018 10:00, Menor que la Mínima 12.0 02-12-2018 12:00 9.9 -- 12.0 2018-12-02 12:37:00
2 2018-12-03 12:00:00 Temperatura 10.1 del 03-12-2018 09:00, Menor que la Mínima 17.9 03-12-2018 12:00 10.1 -- 17.9 2018-12-03 12:37:00
2 2018-12-04 12:00:00 Temperatura 10.1 del 04-12-2018 08:00, Menor que la Mínima 16.1 04-12-2018 12:00 10.1 -- 16.1 2018-12-04 12:37:00
2 2018-12-05 12:00:00 Temperatura 10.8 del 05-12-2018 10:00, Menor que la Mínima 11.7 05-12-2018 12:00 10.8 -- 11.7 2018-12-05 12:22:00
2 2018-12-06 12:00:00 Temperatura 12.7 del 06-12-2018 10:00, Menor que la Mínima 15.1 06-12-2018 12:00 12.7 -- 15.1 2018-12-06 12:22:00
2 2018-12-07 12:00:00 Temperatura 11.2 del 07-12-2018 10:00, Menor que la Mínima 19.1 07-12-2018 12:00 11.2 -- 19.1 2018-12-07 12:23:00
2 2018-12-08 12:00:00 Temperatura 14.1 del 08-12-2018 09:00, Menor que la Mínima 15.9 08-12-2018 12:00 14.1 -- 15.9 2018-12-08 12:37:00
2 2018-12-09 12:00:00 Temperatura 13.6 del 09-12-2018 10:00, Menor que la Mínima 16.2 09-12-2018 12:00 13.6 -- 16.2 2018-12-09 12:37:00
2 2018-12-10 12:00:00 Temperatura 10.8 del 10-12-2018 10:00, Menor que la Mínima 16.5 10-12-2018 12:00 10.8 -- 16.5 2018-12-10 12:37:00
2 2018-12-11 12:00:00 Temperatura 13.8 del 11-12-2018 04:00, Menor que la Mínima 15.5 11-12-2018 12:00 13.8 -- 15.5 2018-12-11 12:40:00
2 2018-12-12 12:00:00 Temperatura 8.6 del 12-12-2018 09:00, Menor que la Mínima 15.6 12-12-2018 12:00 8.6 -- 15.6 2022-05-20 18:57:00
2 2018-12-13 12:00:00 Temperatura 8.7 del 13-12-2018 09:00, Menor que la Mínima 13.4 13-12-2018 12:00 8.7 -- 13.4 2018-12-13 12:20:00
2 2018-12-14 12:00:00 Temperatura 6.4 del 14-12-2018 08:00, Menor que la Mínima 11.3 14-12-2018 12:00 6.4 -- 11.3 2018-12-14 12:20:00
2 2018-12-15 12:00:00 Temperatura 6.7 del 15-12-2018 09:00, Menor que la Mínima 12.1 15-12-2018 12:00 6.7 -- 12.1 2018-12-15 12:20:00
2 2018-12-16 12:00:00 Temperatura 8.5 del 16-12-2018 10:00, Menor que la Mínima 11.8 16-12-2018 12:00 8.5 -- 11.8 2018-12-16 12:20:00
2 2018-12-17 12:00:00 Temperatura 8.6 del 17-12-2018 10:00, Menor que la Mínima 15.3 17-12-2018 12:00 8.6 -- 15.3 2018-12-17 12:20:00
2 2018-12-18 12:00:00 Temperatura 10.5 del 18-12-2018 10:00, Menor que la Mínima 12.0 18-12-2018 12:00 10.5 -- 12.0 2018-12-18 12:20:00
2 2018-12-19 12:00:00 Temperatura 10.4 del 19-12-2018 10:00, Menor que la Mínima 14.3 19-12-2018 12:00 10.4 -- 14.3 2018-12-19 12:20:00
2 2018-12-20 12:00:00 Temperatura 9.4 del 20-12-2018 10:00, Menor que la Mínima 15.5 20-12-2018 12:00 9.4 -- 15.5 2018-12-20 12:20:00
2 2018-12-21 12:00:00 Temperatura 11.1 del 21-12-2018 09:00, Menor que la Mínima 13.4 21-12-2018 12:00 11.1 -- 13.4 2018-12-21 12:20:00
2 2018-12-22 12:00:00 Temperatura 11.0 del 22-12-2018 10:00, Menor que la Mínima 15.2 22-12-2018 12:00 11.0 -- 15.2 2018-12-22 12:20:00
2 2018-12-23 12:00:00 Temperatura 10.6 del 23-12-2018 10:00, Menor que la Mínima 14.4 23-12-2018 12:00 10.6 -- 14.4 2018-12-23 12:20:00
2 2018-12-24 12:00:00 Temperatura 12.1 del 24-12-2018 10:00, Menor que la Mínima 13.2 24-12-2018 12:00 12.1 -- 13.2 2018-12-24 12:20:00
2 2018-12-25 12:00:00 Temperatura 11.5 del 25-12-2018 09:00, Menor que la Mínima 16.1 25-12-2018 12:00 11.5 -- 16.1 2018-12-25 12:20:00
2 2018-12-26 12:00:00 Temperatura 12.6 del 26-12-2018 09:00, Menor que la Mínima 14.8 26-12-2018 12:00 12.6 -- 14.8 2018-12-26 12:40:00
2 2018-12-27 12:00:00 Temperatura 6.0 del 27-12-2018 09:00, Menor que la Mínima 16.9 27-12-2018 12:00 6.0 -- 16.9 2018-12-27 12:20:00
2 2018-12-28 12:00:00 Temperatura 9.2 del 28-12-2018 10:00, Menor que la Mínima 13.9 28-12-2018 12:00 9.2 -- 13.9 2018-12-28 12:40:00
2 2018-12-29 12:00:00 Temperatura 6.5 del 29-12-2018 10:00, Menor que la Mínima 12.5 29-12-2018 12:00 6.5 -- 12.5 2018-12-29 12:40:00
2 2018-12-30 12:00:00 Temperatura 6.0 del 30-12-2018 10:00, Menor que la Mínima 12.7 30-12-2018 12:00 6.0 -- 12.7 2018-12-30 12:40:00
2 2018-12-31 12:00:00 Temperatura 8.4 del 31-12-2018 10:00, Menor que la Mínima 10.9 31-12-2018 12:00 8.4 -- 10.9 2018-12-31 12:40:00
2 2019-01-01 12:00:00 Temperatura 11.5 del 01-01-2019 10:00, Menor que la Mínima 14.0 01-01-2019 12:00 11.5 -- 14.0 2019-01-01 12:40:00
2 2019-01-01 12:00:00 Temperatura 11.5 del 01-01-2019 10:00, Menor que la Mínima 14.0 01-01-2019 12:00 11.5 -- 14.0 2019-01-01 12:40:00
2 2019-01-02 12:00:00 Temperatura 7.9 del 02-01-2019 09:00, Menor que la Mínima 15.4 02-01-2019 12:00 7.9 -- 15.4 2019-01-02 12:40:00
2 2019-01-03 12:00:00 Temperatura 9.0 del 03-01-2019 09:00, Menor que la Mínima 12.1 03-01-2019 12:00 9.0 -- 12.1 2019-01-03 12:40:00
2 2019-01-04 12:00:00 Temperatura 11.4 del 04-01-2019 10:00, Menor que la Mínima 12.7 04-01-2019 12:00 11.4 -- 12.7 2019-01-04 12:40:00
2 2019-01-05 12:00:00 Temperatura 12.4 del 05-01-2019 10:00, Menor que la Mínima 14.9 05-01-2019 12:00 12.4 -- 14.9 2019-01-05 12:40:00
2 2019-01-06 12:00:00 Temperatura 9.8 del 06-01-2019 10:00, Menor que la Mínima 16.0 06-01-2019 12:00 9.8 -- 16.0 2019-01-06 12:40:00
2 2019-01-07 12:00:00 Temperatura 10.5 del 07-01-2019 10:00, Menor que la Mínima 14.3 07-01-2019 12:00 10.5 -- 14.3 2019-01-07 12:40:00
2 2019-01-08 12:00:00 Temperatura 11.8 del 08-01-2019 07:00, Menor que la Mínima 14.4 08-01-2019 12:00 11.8 -- 14.4 2019-01-08 12:40:00
2 2019-01-09 12:00:00 Temperatura 10.9 del 09-01-2019 03:00, Menor que la Mínima 11.2 09-01-2019 12:00 10.9 -- 11.2 2019-01-09 12:40:00
2 2019-01-10 12:00:00 Temperatura 4.4 del 10-01-2019 09:00, Menor que la Mínima 11.3 10-01-2019 12:00 4.4 -- 11.3 2019-01-10 12:40:00
2 2019-01-11 12:00:00 Temperatura 6.7 del 11-01-2019 10:00, Menor que la Mínima 9.3 11-01-2019 12:00 6.7 -- 9.3 2019-01-11 12:40:00
2 2019-01-12 12:00:00 Temperatura 9.0 del 12-01-2019 10:00, Menor que la Mínima 13.4 12-01-2019 12:00 9.0 -- 13.4 2019-01-12 12:40:00
2 2019-01-14 12:00:00 Temperatura 11.8 del 14-01-2019 10:00, Menor que la Mínima 14.4 14-01-2019 12:00 11.8 -- 14.4 2019-01-14 12:40:00
2 2019-01-15 12:00:00 Temperatura 9.8 del 15-01-2019 09:00, Menor que la Mínima 16.5 15-01-2019 12:00 9.8 -- 16.5 2019-01-15 12:40:00
2 2019-01-16 12:00:00 Temperatura 11.7 del 16-01-2019 10:00, Menor que la Mínima 14.5 16-01-2019 12:00 11.7 -- 14.5 2019-01-16 12:40:00
2 2019-01-17 12:00:00 Temperatura 10.1 del 17-01-2019 10:00, Menor que la Mínima 15.5 17-01-2019 12:00 10.1 -- 15.5 2019-01-17 12:40:00
2 2019-01-18 12:00:00 Temperatura 12.8 del 18-01-2019 10:00, Menor que la Mínima 13.4 18-01-2019 12:00 12.8 -- 13.4 2019-01-18 12:40:00
2 2019-01-19 12:00:00 Temperatura 13.0 del 19-01-2019 10:00, Menor que la Mínima 16.6 19-01-2019 12:00 13.0 -- 16.6 2019-01-19 12:40:00
2 2019-01-20 12:00:00 Temperatura 11.0 del 20-01-2019 10:00, Menor que la Mínima 19.9 20-01-2019 12:00 11.0 -- 19.9 2019-01-20 12:40:00
2 2019-01-21 12:00:00 Temperatura 11.1 del 21-01-2019 10:00, Menor que la Mínima 12.9 21-01-2019 12:00 11.1 -- 12.9 2019-01-21 12:40:00
2 2019-01-22 12:00:00 Temperatura 8.5 del 22-01-2019 09:00, Menor que la Mínima 14.6 22-01-2019 12:00 8.5 -- 14.6 2019-01-22 12:40:00
2 2019-01-23 12:00:00 Temperatura 9.4 del 23-01-2019 10:00, Menor que la Mínima 12.0 23-01-2019 12:00 9.4 -- 12.0 2019-01-23 12:40:00
2 2019-01-24 12:00:00 Temperatura 10.8 del 24-01-2019 09:00, Menor que la Mínima 13.0 24-01-2019 12:00 10.8 -- 13.0 2019-01-24 12:40:00
2 2019-01-25 12:00:00 Temperatura 11.1 del 25-01-2019 10:00, Menor que la Mínima 14.5 25-01-2019 12:00 11.1 -- 14.5 2019-01-25 12:40:00
2 2019-01-26 12:00:00 Temperatura 11.2 del 26-01-2019 10:00, Menor que la Mínima 14.3 26-01-2019 12:00 11.2 -- 14.3 2019-01-26 12:20:00
2 2019-01-27 12:00:00 Temperatura 10.4 del 27-01-2019 10:00, Menor que la Mínima 13.7 27-01-2019 12:00 10.4 -- 13.7 2019-01-27 12:20:00
2 2019-01-28 12:00:00 Temperatura 9.4 del 28-01-2019 09:00, Menor que la Mínima 12.8 28-01-2019 12:00 9.4 -- 12.8 2019-01-28 12:20:00
2 2019-01-29 12:00:00 Temperatura 12.6 del 29-01-2019 10:00, Menor que la Mínima 13.5 29-01-2019 12:00 12.6 -- 13.5 2019-01-29 12:15:00
2 2019-01-30 12:00:00 Temperatura 10.2 del 30-01-2019 10:00, Menor que la Mínima 16.3 30-01-2019 12:00 10.2 -- 16.3 2019-01-30 12:20:00
2 2019-01-31 12:00:00 Temperatura 10.2 del 31-01-2019 10:00, Menor que la Mínima 13.7 31-01-2019 12:00 10.2 -- 13.7 2019-01-31 12:20:00
2 2019-02-02 12:00:00 Temperatura 13.1 del 02-02-2019 10:00, Menor que la Mínima 15.4 02-02-2019 12:00 13.1 -- 15.4 2019-02-02 12:15:00
2 2019-02-03 12:00:00 Temperatura 14.6 del 03-02-2019 10:00, Menor que la Mínima 17.6 03-02-2019 12:00 14.6 -- 17.6 2019-02-03 12:20:00
2 2019-02-04 12:00:00 Temperatura 12.5 del 04-02-2019 10:00, Menor que la Mínima 20.7 04-02-2019 12:00 12.5 -- 20.7 2019-02-04 12:20:00
2 2019-02-05 12:00:00 Temperatura 13.3 del 05-02-2019 09:00, Menor que la Mínima 16.9 05-02-2019 12:00 13.3 -- 16.9 2019-02-05 12:15:00
2 2019-02-06 12:00:00 Temperatura 12.4 del 06-02-2019 09:00, Menor que la Mínima 18.2 06-02-2019 12:00 12.4 -- 18.2 2019-02-06 12:20:00
2 2019-02-07 12:00:00 Temperatura 11.6 del 07-02-2019 10:00, Menor que la Mínima 14.9 07-02-2019 12:00 11.6 -- 14.9 2019-02-07 12:20:00
2 2019-02-08 12:00:00 Temperatura 12.4 del 08-02-2019 10:00, Menor que la Mínima 13.2 08-02-2019 12:00 12.4 -- 13.2 2019-02-08 12:20:00
2 2019-02-09 12:00:00 Temperatura 11.7 del 09-02-2019 10:00, Menor que la Mínima 13.5 09-02-2019 12:00 11.7 -- 13.5 2019-02-09 12:20:00
2 2019-02-10 12:00:00 Temperatura 11.5 del 10-02-2019 10:00, Menor que la Mínima 13.7 10-02-2019 12:00 11.5 -- 13.7 2019-02-10 12:20:00
2 2019-02-11 12:00:00 Temperatura 6.7 del 11-02-2019 10:00, Menor que la Mínima 14.3 11-02-2019 12:00 6.7 -- 14.3 2019-02-11 12:20:00
2 2019-02-13 12:00:00 Temperatura 13.4 del 13-02-2019 11:00, Menor que la Mínima 15.8 13-02-2019 12:00 13.4 -- 15.8 2019-02-13 12:20:00
2 2019-02-14 12:00:00 Temperatura 13.4 del 14-02-2019 09:00, Menor que la Mínima 16.7 14-02-2019 12:00 13.4 -- 16.7 2019-02-14 12:20:00
2 2019-02-15 12:00:00 Temperatura 13.9 del 15-02-2019 10:00, Menor que la Mínima 15.3 15-02-2019 12:00 13.9 -- 15.3 2019-02-15 12:20:00
2 2019-02-16 12:00:00 Temperatura 12.8 del 16-02-2019 10:00, Menor que la Mínima 18.7 16-02-2019 12:00 12.8 -- 18.7 2019-02-16 12:20:00
2 2019-02-18 12:00:00 Temperatura 10.8 del 18-02-2019 09:00, Menor que la Mínima 15.5 18-02-2019 12:00 10.8 -- 15.5 2019-02-18 12:20:00
2 2019-02-19 12:00:00 Temperatura 12.6 del 19-02-2019 08:00, Menor que la Mínima 13.1 19-02-2019 12:00 12.6 -- 13.1 2019-02-19 12:20:00
2 2019-02-20 12:00:00 Temperatura 13.2 del 20-02-2019 08:00, Menor que la Mínima 15.8 20-02-2019 12:00 13.2 -- 15.8 2019-02-20 12:20:00
2 2019-02-21 12:00:00 Temperatura 15.6 del 21-02-2019 11:00, Menor que la Mínima 15.9 21-02-2019 12:00 15.6 -- 15.9 2019-02-21 12:20:00
2 2019-02-22 12:00:00 Temperatura 16.2 del 22-02-2019 06:00, Menor que la Mínima 17.1 22-02-2019 12:00 16.2 -- 17.1 2019-02-22 12:20:00
2 2019-02-23 12:00:00 Temperatura 13.7 del 23-02-2019 08:00, Menor que la Mínima 16.8 23-02-2019 12:00 13.7 -- 16.8 2019-02-23 12:20:00
2 2019-02-24 12:00:00 Temperatura 8.2 del 24-02-2019 10:00, Menor que la Mínima 15.5 24-02-2019 12:00 8.2 -- 15.5 2019-02-24 12:20:00
2 2019-02-25 12:00:00 Temperatura 7.5 del 25-02-2019 11:00, Menor que la Mínima 10.8 25-02-2019 12:00 7.5 -- 10.8 2019-02-25 12:20:00
2 2019-02-26 12:00:00 Temperatura 8.8 del 26-02-2019 09:00, Menor que la Mínima 9.3 26-02-2019 12:00 8.8 -- 9.3 2019-02-26 12:20:00
2 2019-02-27 12:00:00 Temperatura 9.3 del 27-02-2019 11:00, Menor que la Mínima 11.1 27-02-2019 12:00 9.3 -- 11.1 2019-02-27 12:20:00
2 2019-02-28 12:00:00 Temperatura 9.3 del 28-02-2019 10:00, Menor que la Mínima 11.8 28-02-2019 12:00 9.3 -- 11.8 2019-02-28 12:20:00
2 2019-03-01 12:00:00 Temperatura 9.3 del 01-03-2019 10:00, Menor que la Mínima 12.3 01-03-2019 12:00 9.3 -- 12.3 2019-03-01 12:20:00
2 2019-03-02 12:00:00 Temperatura 9.5 del 02-03-2019 11:00, Menor que la Mínima 13.0 02-03-2019 12:00 9.5 -- 13.0 2019-03-02 12:20:00
2 2019-03-03 12:00:00 Temperatura 10.6 del 03-03-2019 08:00, Menor que la Mínima 11.8 03-03-2019 12:00 10.6 -- 11.8 2019-03-03 12:20:00
2 2019-03-04 12:00:00 Temperatura 5.5 del 04-03-2019 11:00, Menor que la Mínima 12.3 04-03-2019 12:00 5.5 -- 12.3 2019-03-04 12:20:00
2 2019-03-05 12:00:00 Temperatura 7.8 del 05-03-2019 11:00, Menor que la Mínima 11.0 05-03-2019 12:00 7.8 -- 11.0 2019-03-05 12:20:00
2 2019-03-06 12:00:00 Temperatura 6.0 del 06-03-2019 11:00, Menor que la Mínima 10.9 06-03-2019 12:00 6.0 -- 10.9 2019-03-06 12:20:00
2 2019-03-08 12:00:00 Temperatura 10.0 del 08-03-2019 11:00, Menor que la Mínima 13.7 08-03-2019 12:00 10.0 -- 13.7 2019-03-08 12:20:00
2 2019-03-09 12:00:00 Temperatura 9.1 del 09-03-2019 10:00, Menor que la Mínima 11.3 09-03-2019 12:00 9.1 -- 11.3 2019-03-09 12:20:00
2 2019-03-10 12:00:00 Temperatura 9.1 del 10-03-2019 11:00, Menor que la Mínima 13.9 10-03-2019 12:00 9.1 -- 13.9 2019-03-10 12:20:00
2 2019-03-11 12:00:00 Temperatura 10.9 del 11-03-2019 11:00, Menor que la Mínima 11.8 11-03-2019 12:00 10.9 -- 11.8 2019-03-11 12:20:00
2 2019-03-12 12:00:00 Temperatura 10.9 del 12-03-2019 09:00, Menor que la Mínima 12.9 12-03-2019 12:00 10.9 -- 12.9 2019-03-12 12:20:00
2 2019-03-13 12:00:00 Temperatura 11.3 del 13-03-2019 11:00, Menor que la Mínima 12.4 13-03-2019 12:00 11.3 -- 12.4 2019-03-13 12:20:00
2 2019-03-14 12:00:00 Temperatura 9.2 del 14-03-2019 10:00, Menor que la Mínima 11.9 14-03-2019 12:00 9.2 -- 11.9 2019-03-14 12:20:00
2 2019-03-15 12:00:00 Temperatura 8.0 del 15-03-2019 11:00, Menor que la Mínima 10.4 15-03-2019 12:00 8.0 -- 10.4 2019-03-15 12:20:00
2 2019-03-16 12:00:00 Temperatura 8.5 del 16-03-2019 11:00, Menor que la Mínima 10.4 16-03-2019 12:00 8.5 -- 10.4 2019-03-16 12:20:00
2 2019-03-17 12:00:00 Temperatura 7.5 del 17-03-2019 09:00, Menor que la Mínima 11.6 17-03-2019 12:00 7.5 -- 11.6 2019-03-17 12:20:00
2 2019-03-18 12:00:00 Temperatura 8.8 del 18-03-2019 11:00, Menor que la Mínima 9.8 18-03-2019 12:00 8.8 -- 9.8 2019-03-18 12:20:00
2 2019-03-19 12:00:00 Temperatura 5.5 del 19-03-2019 10:00, Menor que la Mínima 10.6 19-03-2019 12:00 5.5 -- 10.6 2019-03-19 12:20:00
2 2019-03-20 12:00:00 Temperatura 5.7 del 20-03-2019 11:00, Menor que la Mínima 7.3 20-03-2019 12:00 5.7 -- 7.3 2019-03-20 12:20:00
2 2019-03-21 12:00:00 Temperatura 6.9 del 21-03-2019 10:00, Menor que la Mínima 7.4 21-03-2019 12:00 6.9 -- 7.4 2019-03-21 12:20:00
2 2019-03-23 12:00:00 Temperatura 9.4 del 23-03-2019 11:00, Menor que la Mínima 12.6 23-03-2019 12:00 9.4 -- 12.6 2019-03-25 12:50:00
2 2019-03-24 12:00:00 Temperatura 8.8 del 24-03-2019 11:00, Menor que la Mínima 11.6 24-03-2019 12:00 8.8 -- 11.6 2019-03-25 12:50:00
2 2019-03-26 12:00:00 Temperatura 8.8 del 26-03-2019 11:00, Menor que la Mínima 11.1 26-03-2019 12:00 8.8 -- 11.1 2019-03-26 12:20:00
2 2019-03-27 12:00:00 Temperatura 8.2 del 27-03-2019 11:00, Menor que la Mínima 11.1 27-03-2019 12:00 8.2 -- 11.1 2019-03-27 12:30:00
2 2019-03-28 12:00:00 Temperatura 7.5 del 28-03-2019 07:00, Menor que la Mínima 10.0 28-03-2019 12:00 7.5 -- 10.0 2019-03-28 12:30:00
2 2019-03-29 12:00:00 Temperatura 8.8 del 29-03-2019 04:00, Menor que la Mínima 10.5 29-03-2019 12:00 8.8 -- 10.5 2019-03-29 12:20:00
2 2019-03-30 12:00:00 Temperatura 6.7 del 30-03-2019 11:00, Menor que la Mínima 11.4 30-03-2019 12:00 6.7 -- 11.4 2019-03-30 12:20:00
2 2019-04-01 12:00:00 Temperatura 10.9 del 01-04-2019 11:00, Menor que la Mínima 13.3 01-04-2019 12:00 10.9 -- 13.3 2019-04-01 12:20:00
2 2019-04-03 12:00:00 Temperatura 8.5 del 03-04-2019 11:00, Menor que la Mínima 13.2 03-04-2019 12:00 8.5 -- 13.2 2019-04-03 12:30:00
2 2019-04-04 12:00:00 Temperatura 5.6 del 04-04-2019 10:00, Menor que la Mínima 9.0 04-04-2019 12:00 5.6 -- 9.0 2019-04-04 12:30:00
2 2019-04-05 12:00:00 Temperatura 5.8 del 05-04-2019 10:00, Menor que la Mínima 8.8 05-04-2019 12:00 5.8 -- 8.8 2019-04-05 12:30:00
2 2019-04-06 12:00:00 Temperatura 4.7 del 06-04-2019 11:00, Menor que la Mínima 7.3 06-04-2019 12:00 4.7 -- 7.3 2019-04-06 12:30:00
2 2019-04-08 12:00:00 Temperatura 6.0 del 08-04-2019 10:00, Menor que la Mínima 9.1 08-04-2019 12:00 6.0 -- 9.1 2019-04-08 12:40:00
2 2019-04-10 12:00:00 Temperatura 7.4 del 10-04-2019 08:00, Menor que la Mínima 11.1 10-04-2019 12:00 7.4 -- 11.1 2019-04-10 12:40:00
2 2019-04-12 12:00:00 Temperatura 5.7 del 12-04-2019 08:00, Menor que la Mínima 11.4 12-04-2019 12:00 5.7 -- 11.4 2019-04-12 12:40:00
2 2019-04-14 12:00:00 Temperatura 4.2 del 14-04-2019 11:00, Menor que la Mínima 11.2 14-04-2019 12:00 4.2 -- 11.2 2019-04-14 12:40:00
2 2019-04-15 12:00:00 Temperatura 4.8 del 15-04-2019 11:00, Menor que la Mínima 5.0 15-04-2019 12:00 4.8 -- 5.0 2019-04-15 12:40:00
2 2019-04-16 12:00:00 Temperatura 1.4 del 16-04-2019 11:00, Menor que la Mínima 5.6 16-04-2019 12:00 1.4 -- 5.6 2019-04-16 12:40:00
2 2019-04-19 12:00:00 Temperatura 6.7 del 19-04-2019 09:00, Menor que la Mínima 9.1 19-04-2019 12:00 6.7 -- 9.1 2019-04-19 12:40:00
2 2019-04-21 12:00:00 Temperatura 4.2 del 21-04-2019 12:00, Menor que la Mínima 11.6 21-04-2019 12:00 4.2 -- 11.6 2019-04-21 12:40:00
2 2019-04-24 12:00:00 Temperatura 4.5 del 24-04-2019 03:00, Menor que la Mínima 7.9 24-04-2019 12:00 4.5 -- 7.9 2019-04-24 12:40:00
2 2019-04-26 12:00:00 Temperatura 6.0 del 26-04-2019 08:00, Menor que la Mínima 9.6 26-04-2019 12:00 6.0 -- 9.6 2019-04-26 12:40:00
2 2019-04-27 12:00:00 Temperatura 5.9 del 27-04-2019 12:00, Menor que la Mínima 6.9 27-04-2019 12:00 5.9 -- 6.9 2022-05-20 18:57:00
2 2019-05-01 12:00:00 Temperatura 4.5 del 01-05-2019 04:00, Menor que la Mínima 6.3 01-05-2019 12:00 4.5 -- 6.3 2019-05-01 12:40:00
2 2019-05-03 12:00:00 Temperatura 12.3 del 03-05-2019 11:00, Menor que la Mínima 13.2 03-05-2019 12:00 12.3 -- 13.2 2019-05-03 12:40:00
2 2019-05-05 12:00:00 Temperatura 5.6 del 05-05-2019 12:00, Menor que la Mínima 12.2 05-05-2019 12:00 5.6 -- 12.2 2019-05-05 12:40:00
2 2019-05-07 12:00:00 Temperatura 6.8 del 07-05-2019 08:00, Menor que la Mínima 10.0 07-05-2019 12:00 6.8 -- 10.0 2019-05-07 12:40:00
2 2019-05-09 12:00:00 Temperatura 5.6 del 09-05-2019 06:00, Menor que la Mínima 6.8 09-05-2019 12:00 5.6 -- 6.8 2019-05-09 12:40:00
2 2019-05-10 12:00:00 Temperatura 1.1 del 10-05-2019 12:00, Menor que la Mínima 6.4 10-05-2019 12:00 1.1 -- 6.4 2019-05-14 19:21:00
2 2019-05-13 12:00:00 Temperatura 8.4 del 13-05-2019 12:00, Menor que la Mínima 11.0 13-05-2019 12:00 8.4 -- 11.0 2019-05-14 19:21:00
2 2019-05-14 12:00:00 Temperatura 2.3 del 14-05-2019 11:00, Menor que la Mínima 8.4 14-05-2019 12:00 2.3 -- 8.4 2019-05-14 19:21:00
2 2019-05-18 12:00:00 Temperatura 1.1 del 18-05-2019 12:00, Menor que la Mínima 10.0 18-05-2019 12:00 1.1 -- 10.0 2019-05-24 13:04:00
2 2019-05-19 12:00:00 Temperatura 0.6 del 19-05-2019 12:00, Menor que la Mínima 1.0 19-05-2019 12:00 0.6 -- 1.0 2019-05-24 13:16:00
2 2019-05-21 12:00:00 Temperatura 1.1 del 21-05-2019 08:00, Menor que la Mínima 4.9 21-05-2019 12:00 1.1 -- 4.9 2019-05-24 13:28:00
2 2019-05-22 12:00:00 Temperatura -0.4 del 22-05-2019 12:00, Menor que la Mínima 1.7 22-05-2019 12:00 -0.4 -- 1.7 2019-05-24 13:28:00
2 2019-05-24 12:00:00 Temperatura -0.4 del 24-05-2019 09:00, Menor que la Mínima 1.0 24-05-2019 12:00 -0.4 -- 1.0 2019-05-28 12:24:00
2 2019-05-28 12:00:00 Temperatura 7.4 del 28-05-2019 12:00, Menor que la Mínima 10.0 28-05-2019 12:00 7.4 -- 10.0 2019-05-28 12:37:00
2 2019-05-29 12:00:00 Temperatura 6.9 del 29-05-2019 05:00, Menor que la Mínima 7.3 29-05-2019 12:00 6.9 -- 7.3 2022-05-20 18:57:00
2 2019-06-02 12:00:00 Temperatura 10.2 del 02-06-2019 10:00, Menor que la Mínima 10.8 02-06-2019 12:00 10.2 -- 10.8 2022-05-20 18:57:00
2 2019-06-03 12:00:00 Temperatura 6.6 del 03-06-2019 10:00, Menor que la Mínima 9.5 03-06-2019 12:00 6.6 -- 9.5 2022-05-20 18:57:00
2 2019-06-06 12:00:00 Temperatura 9.6 del 06-06-2019 09:00, Menor que la Mínima 11.7 06-06-2019 12:00 9.6 -- 11.7 2022-05-20 18:57:00
2 2019-06-07 12:00:00 Temperatura 1.5 del 07-06-2019 11:00, Menor que la Mínima 5.7 07-06-2019 12:00 1.5 -- 5.7 2022-05-20 18:57:00
2 2019-06-08 12:00:00 Temperatura 0.9 del 08-06-2019 11:00, Menor que la Mínima 1.8 08-06-2019 12:00 0.9 -- 1.8 2022-05-20 18:57:00
2 2019-06-11 12:00:00 Temperatura 4.9 del 11-06-2019 12:00, Menor que la Mínima 7.3 11-06-2019 12:00 4.9 -- 7.3 2022-05-20 18:57:00
2 2019-06-13 12:00:00 Temperatura 6.2 del 13-06-2019 11:00, Menor que la Mínima 9.6 13-06-2019 12:00 6.2 -- 9.6 2022-05-20 18:57:00
2 2019-06-14 12:00:00 Temperatura 4.1 del 14-06-2019 11:00, Menor que la Mínima 6.9 14-06-2019 12:00 4.1 -- 6.9 2022-05-20 18:57:00
2 2019-06-15 12:00:00 Temperatura 2.6 del 15-06-2019 12:00, Menor que la Mínima 3.9 15-06-2019 12:00 2.6 -- 3.9 2022-05-20 18:58:00
2 2019-06-16 12:00:00 Temperatura 2.0 del 16-06-2019 04:00, Menor que la Mínima 2.1 16-06-2019 12:00 2.0 -- 2.1 2022-05-20 18:58:00
2 2019-06-17 12:00:00 Temperatura -0.9 del 17-06-2019 10:00, Menor que la Mínima 5.4 17-06-2019 12:00 -0.9 -- 5.4 2022-05-20 18:58:00
2 2019-06-19 12:00:00 Temperatura -0.4 del 19-06-2019 12:00, Menor que la Mínima 4.3 19-06-2019 12:00 -0.4 -- 4.3 2019-06-19 12:20:00
2 2019-06-22 12:00:00 Temperatura 1.5 del 22-06-2019 12:00, Menor que la Mínima 7.8 22-06-2019 12:00 1.5 -- 7.8 2022-05-20 18:58:00
2 2019-06-25 12:00:00 Temperatura 1.9 del 25-06-2019 02:00, Menor que la Mínima 3.0 25-06-2019 12:00 1.9 -- 3.0 2019-06-25 12:20:00
2 2019-06-28 12:00:00 Temperatura 6.2 del 28-06-2019 12:00, Menor que la Mínima 7.9 28-06-2019 12:00 6.2 -- 7.9 2022-05-20 18:58:00
2 2019-06-30 12:00:00 Temperatura -1.1 del 30-06-2019 12:00, Menor que la Mínima 4.2 30-06-2019 12:00 -1.1 -- 4.2 2019-06-30 12:20:00
2 2019-07-03 12:00:00 Temperatura 4.5 del 03-07-2019 03:00, Menor que la Mínima 5.6 03-07-2019 12:00 4.5 -- 5.6 2022-05-20 18:58:00
2 2019-07-04 12:00:00 Temperatura 1.1 del 04-07-2019 12:00, Menor que la Mínima 4.2 04-07-2019 12:00 1.1 -- 4.2 2022-05-20 18:58:00
2 2019-07-08 12:00:00 Temperatura 9.2 del 08-07-2019 10:00, Menor que la Mínima 11.5 08-07-2019 12:00 9.2 -- 11.5 2019-07-08 12:20:00
2 2019-07-09 12:00:00 Temperatura 9.7 del 09-07-2019 11:00, Menor que la Mínima 10.1 09-07-2019 12:00 9.7 -- 10.1 2019-07-09 12:20:00
2 2019-07-10 12:00:00 Temperatura 8.3 del 10-07-2019 09:00, Menor que la Mínima 9.4 10-07-2019 12:00 8.3 -- 9.4 2019-07-10 12:20:00
2 2019-07-11 12:00:00 Temperatura 5.8 del 11-07-2019 09:00, Menor que la Mínima 8.8 11-07-2019 12:00 5.8 -- 8.8 2019-07-11 12:20:00
2 2019-07-12 12:00:00 Temperatura 2.9 del 12-07-2019 12:00, Menor que la Mínima 6.0 12-07-2019 12:00 2.9 -- 6.0 2019-07-12 12:20:00
2 2019-07-14 12:00:00 Temperatura 6.7 del 14-07-2019 03:00, Menor que la Mínima 7.0 14-07-2019 12:00 6.7 -- 7.0 2019-07-14 12:20:00
2 2019-07-15 12:00:00 Temperatura 0.4 del 15-07-2019 12:00, Menor que la Mínima 5.5 15-07-2019 12:00 0.4 -- 5.5 2019-07-15 12:20:00
2 2020-11-22 12:00:00 Temperatura 7.1 del 22-11-2020 09:00, Menor que la Mínima 12.8 22-11-2020 12:00 7.1 -- 12.8 2020-11-22 12:20:00
2 2020-11-25 12:00:00 Temperatura 8.2 del 25-11-2020 09:00, Menor que la Mínima 11.6 25-11-2020 12:00 8.2 -- 11.6 2020-11-25 12:20:00
2 2020-12-06 12:00:00 Temperatura 11.6 del 06-12-2020 10:00, Menor que la Mínima 15.3 06-12-2020 12:00 11.6 -- 15.3 2020-12-06 12:20:00
2 2020-12-07 12:00:00 Temperatura 10.4 del 07-12-2020 09:00, Menor que la Mínima 16.9 07-12-2020 12:00 10.4 -- 16.9 2020-12-07 12:20:00
2 2020-12-09 12:00:00 Temperatura 9.3 del 09-12-2020 09:00, Menor que la Mínima 14.6 09-12-2020 12:00 9.3 -- 14.6 2020-12-09 12:20:00
2 2020-12-10 12:00:00 Temperatura 8.2 del 10-12-2020 09:00, Menor que la Mínima 14.2 10-12-2020 12:00 8.2 -- 14.2 2020-12-10 12:20:00
2 2020-12-17 12:00:00 Temperatura 8.9 del 17-12-2020 10:00, Menor que la Mínima 14.4 17-12-2020 12:00 8.9 -- 14.4 2020-12-17 12:20:00
2 2020-12-21 12:00:00 Temperatura 9.5 del 21-12-2020 09:00, Menor que la Mínima 14.1 21-12-2020 12:00 9.5 -- 14.1 2020-12-21 12:20:00
2 2020-12-23 12:00:00 Temperatura 11.0 del 23-12-2020 09:00, Menor que la Mínima 13.1 23-12-2020 12:00 11.0 -- 13.1 2020-12-23 12:20:00
2 2020-12-25 12:00:00 Temperatura 12.6 del 25-12-2020 08:00, Menor que la Mínima 16.7 25-12-2020 12:00 12.6 -- 16.7 2020-12-25 12:20:00
2 2020-12-26 12:00:00 Temperatura 13.2 del 26-12-2020 07:00, Menor que la Mínima 15.2 26-12-2020 12:00 13.2 -- 15.2 2020-12-26 12:20:00
2 2020-12-27 12:00:00 Temperatura 12.4 del 27-12-2020 10:00, Menor que la Mínima 15.1 27-12-2020 12:00 12.4 -- 15.1 2020-12-27 12:20:00
2 2020-12-28 12:00:00 Temperatura 13.1 del 28-12-2020 09:00, Menor que la Mínima 17.7 28-12-2020 12:00 13.1 -- 17.7 2020-12-28 12:20:00
2 2020-12-29 12:00:00 Temperatura 10.1 del 29-12-2020 10:00, Menor que la Mínima 15.8 29-12-2020 12:00 10.1 -- 15.8 2020-12-29 12:20:00
2 2020-12-30 12:00:00 Temperatura 7.7 del 30-12-2020 10:00, Menor que la Mínima 16.3 30-12-2020 12:00 7.7 -- 16.3 2020-12-30 12:20:00
2 2020-12-31 12:00:00 Temperatura 10.2 del 31-12-2020 10:00, Menor que la Mínima 14.8 31-12-2020 12:00 10.2 -- 14.8 2020-12-31 12:20:00
2 2021-02-02 12:00:00 Temperatura 11.0 del 02-02-2021 10:00, Menor que la Mínima 14.8 02-02-2021 12:00 11.0 -- 14.8 2021-02-02 12:20:00
2 2021-02-03 12:00:00 Temperatura 12.4 del 03-02-2021 10:00, Menor que la Mínima 16.7 03-02-2021 12:00 12.4 -- 16.7 2021-02-03 12:20:00
2 2021-02-04 12:00:00 Temperatura 14.0 del 04-02-2021 10:00, Menor que la Mínima 19.9 04-02-2021 12:00 14.0 -- 19.9 2021-02-04 12:20:00
2 2021-02-05 12:00:00 Temperatura 11.4 del 05-02-2021 10:00, Menor que la Mínima 12.8 05-02-2021 12:00 11.4 -- 12.8 2021-02-05 12:20:00
2 2021-02-06 12:00:00 Temperatura 11.5 del 06-02-2021 09:00, Menor que la Mínima 13.4 06-02-2021 12:00 11.5 -- 13.4 2021-02-06 12:20:00
2 2021-02-07 12:00:00 Temperatura 14.6 del 07-02-2021 10:00, Menor que la Mínima 15.1 07-02-2021 12:00 14.6 -- 15.1 2021-02-07 12:20:00
2 2021-02-08 12:00:00 Temperatura 11.9 del 08-02-2021 06:00, Menor que la Mínima 15.1 08-02-2021 12:00 11.9 -- 15.1 2021-02-08 12:20:00
2 2021-02-09 12:00:00 Temperatura 14.9 del 09-02-2021 09:00, Menor que la Mínima 17.6 09-02-2021 12:00 14.9 -- 17.6 2021-02-09 12:20:00
2 2021-02-10 12:00:00 Temperatura 14.6 del 10-02-2021 10:00, Menor que la Mínima 19.2 10-02-2021 12:00 14.6 -- 19.2 2021-02-10 12:20:00
2 2021-02-11 12:00:00 Temperatura 13.8 del 11-02-2021 07:00, Menor que la Mínima 14.4 11-02-2021 12:00 13.8 -- 14.4 2021-02-11 12:20:00
2 2021-02-12 12:00:00 Temperatura 13.6 del 12-02-2021 09:00, Menor que la Mínima 16.0 12-02-2021 12:00 13.6 -- 16.0 2021-02-12 12:20:00
2 2021-02-13 12:00:00 Temperatura 12.7 del 13-02-2021 10:00, Menor que la Mínima 15.0 13-02-2021 12:00 12.7 -- 15.0 2021-02-13 12:20:00
2 2021-02-14 12:00:00 Temperatura 11.1 del 14-02-2021 10:00, Menor que la Mínima 14.2 14-02-2021 12:00 11.1 -- 14.2 2021-02-14 12:20:00
2 2021-02-15 12:00:00 Temperatura 11.3 del 15-02-2021 10:00, Menor que la Mínima 14.5 15-02-2021 12:00 11.3 -- 14.5 2021-02-15 12:20:00
2 2021-02-16 12:00:00 Temperatura 8.6 del 16-02-2021 11:00, Menor que la Mínima 11.8 16-02-2021 12:00 8.6 -- 11.8 2021-02-16 12:20:00
2 2021-02-17 12:00:00 Temperatura 12.9 del 17-02-2021 11:00, Menor que la Mínima 13.5 17-02-2021 12:00 12.9 -- 13.5 2021-02-17 12:20:00
2 2021-02-18 12:00:00 Temperatura 9.4 del 18-02-2021 10:00, Menor que la Mínima 12.8 18-02-2021 12:00 9.4 -- 12.8 2021-02-18 12:20:00
2 2021-02-19 12:00:00 Temperatura 6.6 del 19-02-2021 10:00, Menor que la Mínima 9.1 19-02-2021 12:00 6.6 -- 9.1 2021-02-19 12:20:00
2 2021-02-20 12:00:00 Temperatura 5.8 del 20-02-2021 11:00, Menor que la Mínima 9.8 20-02-2021 12:00 5.8 -- 9.8 2021-02-20 12:20:00
2 2021-02-21 12:00:00 Temperatura 6.9 del 21-02-2021 11:00, Menor que la Mínima 12.0 21-02-2021 12:00 6.9 -- 12.0 2021-02-21 12:20:00
2 2021-02-22 12:00:00 Temperatura 10.3 del 22-02-2021 11:00, Menor que la Mínima 13.5 22-02-2021 12:00 10.3 -- 13.5 2021-02-22 12:20:00
2 2021-02-23 12:00:00 Temperatura 9.2 del 23-02-2021 10:00, Menor que la Mínima 11.8 23-02-2021 12:00 9.2 -- 11.8 2021-02-23 12:20:00
2 2021-02-24 12:00:00 Temperatura 11.3 del 24-02-2021 11:00, Menor que la Mínima 14.4 24-02-2021 12:00 11.3 -- 14.4 2021-02-24 12:20:00
2 2021-02-25 12:00:00 Temperatura 10.4 del 25-02-2021 11:00, Menor que la Mínima 15.5 25-02-2021 12:00 10.4 -- 15.5 2021-02-25 12:20:00
2 2021-02-26 12:00:00 Temperatura 10.4 del 26-02-2021 09:00, Menor que la Mínima 13.0 26-02-2021 12:00 10.4 -- 13.0 2021-02-26 12:20:00
2 2021-02-27 12:00:00 Temperatura 10.3 del 27-02-2021 09:00, Menor que la Mínima 12.3 27-02-2021 12:00 10.3 -- 12.3 2021-02-27 12:21:00
2 2021-02-28 12:00:00 Temperatura 10.4 del 28-02-2021 10:00, Menor que la Mínima 13.0 28-02-2021 12:00 10.4 -- 13.0 2021-02-28 12:20:00
2 2021-03-01 12:00:00 Temperatura 15.1 del 01-03-2021 11:00, Menor que la Mínima 16.8 01-03-2021 12:00 15.1 -- 16.8 2021-03-01 12:20:00
2 2021-03-02 12:00:00 Temperatura 14.1 del 02-03-2021 10:00, Menor que la Mínima 17.4 02-03-2021 12:00 14.1 -- 17.4 2021-03-02 12:20:00
2 2021-03-03 12:00:00 Temperatura 13.6 del 03-03-2021 11:00, Menor que la Mínima 15.4 03-03-2021 12:00 13.6 -- 15.4 2021-03-03 12:20:00
2 2021-03-04 12:00:00 Temperatura 13.2 del 04-03-2021 10:00, Menor que la Mínima 15.4 04-03-2021 12:00 13.2 -- 15.4 2021-03-04 12:20:00
2 2021-03-05 12:00:00 Temperatura 15.9 del 05-03-2021 09:00, Menor que la Mínima 18.6 05-03-2021 12:00 15.9 -- 18.6 2021-03-05 12:20:00
2 2021-03-06 12:00:00 Temperatura 10.3 del 06-03-2021 11:00, Menor que la Mínima 13.3 06-03-2021 12:00 10.3 -- 13.3 2021-03-06 12:20:00
2 2021-03-07 12:00:00 Temperatura 12.0 del 07-03-2021 11:00, Menor que la Mínima 15.0 07-03-2021 12:00 12.0 -- 15.0 2021-03-07 12:20:00
2 2021-03-08 12:00:00 Temperatura 12.4 del 08-03-2021 10:00, Menor que la Mínima 14.5 08-03-2021 12:00 12.4 -- 14.5 2021-03-08 12:20:00
2 2021-03-09 12:00:00 Temperatura 8.5 del 09-03-2021 11:00, Menor que la Mínima 12.5 09-03-2021 12:00 8.5 -- 12.5 2021-03-09 12:20:00
2 2021-03-10 12:00:00 Temperatura 10.9 del 10-03-2021 08:00, Menor que la Mínima 13.6 10-03-2021 12:00 10.9 -- 13.6 2021-03-10 12:20:00
2 2021-03-11 12:00:00 Temperatura 10.4 del 11-03-2021 11:00, Menor que la Mínima 11.6 11-03-2021 12:00 10.4 -- 11.6 2021-03-11 12:20:00
2 2021-03-12 12:00:00 Temperatura 9.8 del 12-03-2021 08:00, Menor que la Mínima 12.1 12-03-2021 12:00 9.8 -- 12.1 2021-03-12 12:20:00
2 2021-03-13 12:00:00 Temperatura 9.5 del 13-03-2021 11:00, Menor que la Mínima 11.7 13-03-2021 12:00 9.5 -- 11.7 2021-03-13 12:20:00
2 2021-03-14 12:00:00 Temperatura 8.9 del 14-03-2021 11:00, Menor que la Mínima 11.7 14-03-2021 12:00 8.9 -- 11.7 2021-03-14 12:20:00
2 2021-03-15 12:00:00 Temperatura 9.4 del 15-03-2021 06:00, Menor que la Mínima 10.8 15-03-2021 12:00 9.4 -- 10.8 2021-03-15 12:22:00
2 2021-03-16 12:00:00 Temperatura 13.7 del 16-03-2021 11:00, Menor que la Mínima 13.9 16-03-2021 12:00 13.7 -- 13.9 2021-03-16 12:20:00
2 2021-03-17 12:00:00 Temperatura 9.8 del 17-03-2021 11:00, Menor que la Mínima 15.5 17-03-2021 12:00 9.8 -- 15.5 2021-03-17 12:20:00
2 2021-03-18 12:00:00 Temperatura 9.9 del 18-03-2021 09:00, Menor que la Mínima 12.2 18-03-2021 12:00 9.9 -- 12.2 2021-03-18 12:21:00
2 2021-03-19 12:00:00 Temperatura 8.1 del 19-03-2021 06:00, Menor que la Mínima 10.4 19-03-2021 12:00 8.1 -- 10.4 2021-03-19 12:20:00
2 2021-03-20 12:00:00 Temperatura 8.1 del 20-03-2021 11:00, Menor que la Mínima 9.6 20-03-2021 12:00 8.1 -- 9.6 2021-03-20 12:20:00
2 2021-03-21 12:00:00 Temperatura 7.2 del 21-03-2021 11:00, Menor que la Mínima 9.9 21-03-2021 12:00 7.2 -- 9.9 2021-03-21 12:20:00
2 2021-03-22 12:00:00 Temperatura 6.8 del 22-03-2021 11:00, Menor que la Mínima 9.8 22-03-2021 12:00 6.8 -- 9.8 2021-03-22 12:20:00
2 2021-03-23 12:00:00 Temperatura 9.6 del 23-03-2021 11:00, Menor que la Mínima 10.9 23-03-2021 12:00 9.6 -- 10.9 2021-03-23 12:20:00
2 2021-03-24 12:00:00 Temperatura 10.6 del 24-03-2021 10:00, Menor que la Mínima 11.3 24-03-2021 12:00 10.6 -- 11.3 2021-03-24 12:20:00
2 2021-03-25 12:00:00 Temperatura 7.8 del 25-03-2021 11:00, Menor que la Mínima 8.8 25-03-2021 12:00 7.8 -- 8.8 2021-03-25 12:20:00
2 2021-03-26 12:00:00 Temperatura 6.0 del 26-03-2021 10:00, Menor que la Mínima 8.6 26-03-2021 12:00 6.0 -- 8.6 2021-03-26 12:20:00
2 2021-03-27 12:00:00 Temperatura 9.8 del 27-03-2021 11:00, Menor que la Mínima 10.7 27-03-2021 12:00 9.8 -- 10.7 2021-03-27 12:20:00
2 2021-03-28 12:00:00 Temperatura 8.8 del 28-03-2021 10:00, Menor que la Mínima 10.7 28-03-2021 12:00 8.8 -- 10.7 2021-03-28 12:21:00
2 2021-03-29 12:00:00 Temperatura 6.5 del 29-03-2021 10:00, Menor que la Mínima 9.0 29-03-2021 12:00 6.5 -- 9.0 2021-03-29 12:22:00
2 2021-03-30 12:00:00 Temperatura 6.8 del 30-03-2021 06:00, Menor que la Mínima 9.6 30-03-2021 12:00 6.8 -- 9.6 2021-03-30 12:21:00
2 2021-03-31 12:00:00 Temperatura 10.6 del 31-03-2021 04:00, Menor que la Mínima 13.6 31-03-2021 12:00 10.6 -- 13.6 2021-03-31 12:21:00
2 2021-04-01 12:00:00 Temperatura 10.5 del 01-04-2021 05:00, Menor que la Mínima 12.7 01-04-2021 12:00 10.5 -- 12.7 2021-04-01 12:20:00
2 2021-04-02 12:00:00 Temperatura 11.2 del 02-04-2021 06:00, Menor que la Mínima 12.9 02-04-2021 12:00 11.2 -- 12.9 2021-04-02 12:20:00
2 2021-04-03 12:00:00 Temperatura 7.2 del 03-04-2021 11:00, Menor que la Mínima 9.3 03-04-2021 12:00 7.2 -- 9.3 2021-04-03 12:20:00
2 2021-04-04 12:00:00 Temperatura 3.5 del 04-04-2021 11:00, Menor que la Mínima 6.3 04-04-2021 12:00 3.5 -- 6.3 2021-04-04 12:20:00
2 2021-04-05 12:00:00 Temperatura 10.3 del 05-04-2021 01:00, Menor que la Mínima 13.8 05-04-2021 12:00 10.3 -- 13.8 2021-04-05 12:21:00
2 2021-04-07 12:00:00 Temperatura 12.1 del 07-04-2021 11:00, Menor que la Mínima 12.4 07-04-2021 12:00 12.1 -- 12.4 2021-04-07 12:21:00
2 2021-04-08 12:00:00 Temperatura 6.9 del 08-04-2021 08:00, Menor que la Mínima 8.5 08-04-2021 12:00 6.9 -- 8.5 2021-04-08 12:21:00
2 2021-04-09 12:00:00 Temperatura 5.1 del 09-04-2021 06:00, Menor que la Mínima 6.8 09-04-2021 12:00 5.1 -- 6.8 2021-04-09 12:20:00
2 2021-04-10 12:00:00 Temperatura 2.2 del 10-04-2021 10:00, Menor que la Mínima 3.7 10-04-2021 12:00 2.2 -- 3.7 2021-04-10 12:20:00
2 2021-04-11 12:00:00 Temperatura 3.6 del 11-04-2021 10:00, Menor que la Mínima 5.1 11-04-2021 12:00 3.6 -- 5.1 2021-04-11 12:21:00
2 2021-04-13 12:00:00 Temperatura 11.7 del 13-04-2021 11:00, Menor que la Mínima 12.1 13-04-2021 12:00 11.7 -- 12.1 2021-04-13 12:20:00
2 2021-04-14 12:00:00 Temperatura 9.9 del 14-04-2021 08:00, Menor que la Mínima 13.1 14-04-2021 12:00 9.9 -- 13.1 2021-04-14 12:20:00
2 2021-04-15 12:00:00 Temperatura 7.4 del 15-04-2021 11:00, Menor que la Mínima 8.3 15-04-2021 12:00 7.4 -- 8.3 2021-04-15 12:21:00
2 2021-04-16 12:00:00 Temperatura 10.6 del 16-04-2021 08:00, Menor que la Mínima 11.9 16-04-2021 12:00 10.6 -- 11.9 2021-04-16 12:21:00
2 2021-04-17 12:00:00 Temperatura 4.6 del 17-04-2021 10:00, Menor que la Mínima 15.0 17-04-2021 12:00 4.6 -- 15.0 2021-04-17 12:32:00
2 2021-04-18 12:00:00 Temperatura 10.9 del 18-04-2021 07:00, Menor que la Mínima 12.1 18-04-2021 12:00 10.9 -- 12.1 2021-04-18 12:21:00
2 2021-04-19 12:00:00 Temperatura 7.4 del 19-04-2021 04:00, Menor que la Mínima 10.4 19-04-2021 12:00 7.4 -- 10.4 2021-04-19 12:21:00
2 2021-04-20 12:00:00 Temperatura 10.6 del 20-04-2021 10:00, Menor que la Mínima 11.3 20-04-2021 12:00 10.6 -- 11.3 2021-04-20 12:21:00
2 2021-04-21 12:00:00 Temperatura 11.2 del 21-04-2021 11:00, Menor que la Mínima 11.3 21-04-2021 12:00 11.2 -- 11.3 2021-04-21 12:21:00
2 2021-04-23 12:00:00 Temperatura 5.0 del 23-04-2021 08:00, Menor que la Mínima 7.1 23-04-2021 12:00 5.0 -- 7.1 2021-04-23 12:20:00
2 2021-04-24 12:00:00 Temperatura 7.4 del 24-04-2021 09:00, Menor que la Mínima 9.5 24-04-2021 12:00 7.4 -- 9.5 2021-04-24 12:31:00
2 2021-04-25 12:00:00 Temperatura 6.6 del 25-04-2021 11:00, Menor que la Mínima 7.3 25-04-2021 12:00 6.6 -- 7.3 2021-04-25 12:20:00
2 2021-04-26 12:00:00 Temperatura 10.0 del 26-04-2021 06:00, Menor que la Mínima 11.7 26-04-2021 12:00 10.0 -- 11.7 2021-04-26 12:20:00
2 2021-04-27 12:00:00 Temperatura 5.9 del 27-04-2021 10:00, Menor que la Mínima 7.2 27-04-2021 12:00 5.9 -- 7.2 2021-04-27 12:20:00
2 2021-04-29 12:00:00 Temperatura 2.1 del 29-04-2021 11:00, Menor que la Mínima 2.2 29-04-2021 12:00 2.1 -- 2.2 2021-04-29 12:34:00
2 2021-04-30 12:00:00 Temperatura 9.3 del 30-04-2021 02:00, Menor que la Mínima 11.0 30-04-2021 12:00 9.3 -- 11.0 2021-04-30 12:31:00
2 2021-05-01 12:00:00 Temperatura 11.4 del 01-05-2021 10:00, Menor que la Mínima 11.6 01-05-2021 12:00 11.4 -- 11.6 2021-05-01 12:35:00
2 2021-05-02 12:00:00 Temperatura 11.2 del 02-05-2021 02:00, Menor que la Mínima 11.8 02-05-2021 12:00 11.2 -- 11.8 2021-05-02 12:21:00
2 2021-05-07 12:00:00 Temperatura 3.9 del 07-05-2021 09:00, Menor que la Mínima 4.0 07-05-2021 12:00 3.9 -- 4.0 2021-05-07 12:22:00
2 2021-05-09 12:00:00 Temperatura 6.9 del 09-05-2021 05:00, Menor que la Mínima 9.1 09-05-2021 12:00 6.9 -- 9.1 2021-05-09 12:22:00
2 2021-05-15 12:00:00 Temperatura 7.0 del 15-05-2021 05:00, Menor que la Mínima 8.1 15-05-2021 12:00 7.0 -- 8.1 2021-05-15 12:31:00
2 2021-05-16 12:00:00 Temperatura 2.9 del 16-05-2021 07:00, Menor que la Mínima 4.7 16-05-2021 12:00 2.9 -- 4.7 2021-05-16 12:31:00
2 2021-05-17 12:00:00 Temperatura 2.6 del 17-05-2021 11:00, Menor que la Mínima 3.0 17-05-2021 12:00 2.6 -- 3.0 2021-05-17 12:21:00
2 2021-05-18 12:00:00 Temperatura 1.4 del 18-05-2021 09:00, Menor que la Mínima 7.4 18-05-2021 12:00 1.4 -- 7.4 2021-05-18 12:41:00
2 2021-05-21 12:00:00 Temperatura 5.0 del 21-05-2021 06:00, Menor que la Mínima 5.8 21-05-2021 12:00 5.0 -- 5.8 2021-05-21 12:22:00
2 2021-05-23 12:00:00 Temperatura 1.2 del 23-05-2021 09:00, Menor que la Mínima 1.6 23-05-2021 12:00 1.2 -- 1.6 2021-05-23 12:21:00
2 2021-05-26 12:00:00 Temperatura 5.7 del 26-05-2021 08:00, Menor que la Mínima 6.8 26-05-2021 12:00 5.7 -- 6.8 2021-05-26 12:32:00
2 2021-05-27 12:00:00 Temperatura 12.1 del 27-05-2021 05:00, Menor que la Mínima 12.6 27-05-2021 12:00 12.1 -- 12.6 2021-05-27 12:31:00
2 2021-05-28 12:00:00 Temperatura 8.0 del 28-05-2021 01:00, Menor que la Mínima 9.6 28-05-2021 12:00 8.0 -- 9.6 2021-05-28 12:21:00
2 2021-05-29 12:00:00 Temperatura 4.7 del 29-05-2021 10:00, Menor que la Mínima 4.9 29-05-2021 12:00 4.7 -- 4.9 2021-05-29 12:31:00
2 2021-05-30 12:00:00 Temperatura 0.9 del 30-05-2021 11:00, Menor que la Mínima 1.2 30-05-2021 12:00 0.9 -- 1.2 2021-05-30 12:31:00
2 2021-05-31 12:00:00 Temperatura 9.9 del 31-05-2021 06:00, Menor que la Mínima 11.4 31-05-2021 12:00 9.9 -- 11.4 2021-05-31 12:31:00
2 2021-10-02 12:00:00 Temperatura 4.3 del 02-10-2021 11:00, Menor que la Mínima 6.5 02-10-2021 12:00 4.3 -- 6.5 2021-10-02 12:31:00
2 2021-10-03 12:00:00 Temperatura 4.1 del 03-10-2021 10:00, Menor que la Mínima 6.2 03-10-2021 12:00 4.1 -- 6.2 2021-10-03 12:20:00
2 2021-10-04 12:00:00 Temperatura 5.3 del 04-10-2021 07:00, Menor que la Mínima 7.4 04-10-2021 12:00 5.3 -- 7.4 2021-10-04 12:20:00
2 2021-10-05 12:00:00 Temperatura 6.3 del 05-10-2021 09:00, Menor que la Mínima 8.1 05-10-2021 12:00 6.3 -- 8.1 2021-10-05 12:20:00
2 2021-10-06 12:00:00 Temperatura 2.7 del 06-10-2021 09:00, Menor que la Mínima 6.7 06-10-2021 12:00 2.7 -- 6.7 2021-10-06 12:20:00
2 2021-10-07 12:00:00 Temperatura 6.3 del 07-10-2021 10:00, Menor que la Mínima 9.6 07-10-2021 12:00 6.3 -- 9.6 2021-10-07 12:20:00
2 2021-10-08 12:00:00 Temperatura 5.2 del 08-10-2021 11:00, Menor que la Mínima 7.7 08-10-2021 12:00 5.2 -- 7.7 2021-10-08 12:20:00
2 2021-10-09 12:00:00 Temperatura 7.7 del 09-10-2021 10:00, Menor que la Mínima 9.6 09-10-2021 12:00 7.7 -- 9.6 2021-10-09 12:20:00
2 2021-10-10 12:00:00 Temperatura 6.0 del 10-10-2021 06:00, Menor que la Mínima 9.5 10-10-2021 12:00 6.0 -- 9.5 2021-10-10 12:20:00
2 2021-10-11 12:00:00 Temperatura 6.9 del 11-10-2021 10:00, Menor que la Mínima 8.9 11-10-2021 12:00 6.9 -- 8.9 2021-10-11 12:20:00
2 2021-10-12 12:00:00 Temperatura 6.2 del 12-10-2021 08:00, Menor que la Mínima 15.8 12-10-2021 12:00 6.2 -- 15.8 2021-10-12 12:31:00
2 2021-10-13 12:00:00 Temperatura 7.8 del 13-10-2021 04:00, Menor que la Mínima 10.8 13-10-2021 12:00 7.8 -- 10.8 2021-10-13 12:20:00
2 2021-10-14 12:00:00 Temperatura 3.6 del 14-10-2021 10:00, Menor que la Mínima 6.6 14-10-2021 12:00 3.6 -- 6.6 2021-10-14 12:20:00
2 2021-10-15 12:00:00 Temperatura 0.5 del 15-10-2021 10:00, Menor que la Mínima 5.0 15-10-2021 12:00 0.5 -- 5.0 2021-10-15 12:20:00
2 2021-10-16 12:00:00 Temperatura 3.0 del 16-10-2021 10:00, Menor que la Mínima 6.9 16-10-2021 12:00 3.0 -- 6.9 2021-10-16 12:20:00
2 2021-10-17 12:00:00 Temperatura 6.0 del 17-10-2021 10:00, Menor que la Mínima 9.9 17-10-2021 12:00 6.0 -- 9.9 2021-10-17 12:20:00
2 2021-10-18 12:00:00 Temperatura 7.2 del 18-10-2021 10:00, Menor que la Mínima 10.1 18-10-2021 12:00 7.2 -- 10.1 2021-10-18 12:20:00
2 2021-10-19 12:00:00 Temperatura 8.4 del 19-10-2021 10:00, Menor que la Mínima 13.1 19-10-2021 12:00 8.4 -- 13.1 2021-10-19 12:20:00
2 2021-10-20 12:00:00 Temperatura 9.1 del 20-10-2021 10:00, Menor que la Mínima 9.6 20-10-2021 12:00 9.1 -- 9.6 2021-10-20 12:20:00
2 2021-10-21 12:00:00 Temperatura 9.0 del 21-10-2021 07:00, Menor que la Mínima 11.1 21-10-2021 12:00 9.0 -- 11.1 2021-10-21 12:22:00
2 2021-10-22 12:00:00 Temperatura 3.6 del 22-10-2021 10:00, Menor que la Mínima 9.3 22-10-2021 12:00 3.6 -- 9.3 2021-10-22 12:20:00
2 2021-10-23 12:00:00 Temperatura 5.7 del 23-10-2021 08:00, Menor que la Mínima 9.8 23-10-2021 12:00 5.7 -- 9.8 2021-10-23 12:31:00
2 2021-10-24 12:00:00 Temperatura 6.7 del 24-10-2021 10:00, Menor que la Mínima 12.4 24-10-2021 12:00 6.7 -- 12.4 2021-10-24 12:31:00
2 2021-10-25 12:00:00 Temperatura 9.7 del 25-10-2021 10:00, Menor que la Mínima 15.0 25-10-2021 12:00 9.7 -- 15.0 2021-10-25 12:20:00
2 2021-10-26 12:00:00 Temperatura 9.3 del 26-10-2021 10:00, Menor que la Mínima 12.7 26-10-2021 12:00 9.3 -- 12.7 2021-10-26 12:20:00
2 2021-10-27 12:00:00 Temperatura 9.0 del 27-10-2021 07:00, Menor que la Mínima 12.4 27-10-2021 12:00 9.0 -- 12.4 2021-10-27 12:20:00
2 2021-10-28 12:00:00 Temperatura 10.8 del 28-10-2021 10:00, Menor que la Mínima 11.5 28-10-2021 12:00 10.8 -- 11.5 2021-10-28 12:31:00
2 2021-10-29 12:00:00 Temperatura 9.7 del 29-10-2021 07:00, Menor que la Mínima 11.3 29-10-2021 12:00 9.7 -- 11.3 2021-10-29 12:31:00
2 2021-10-30 12:00:00 Temperatura 10.4 del 30-10-2021 08:00, Menor que la Mínima 12.3 30-10-2021 12:00 10.4 -- 12.3 2021-10-30 12:31:00
2 2021-10-31 12:00:00 Temperatura 9.0 del 31-10-2021 09:00, Menor que la Mínima 13.9 31-10-2021 12:00 9.0 -- 13.9 2021-10-31 12:20:00
2 2021-11-01 12:00:00 Temperatura 7.1 del 01-11-2021 08:00, Menor que la Mínima 9.5 01-11-2021 12:00 7.1 -- 9.5 2021-11-01 12:20:00
2 2021-11-02 12:00:00 Temperatura 6.9 del 02-11-2021 10:00, Menor que la Mínima 9.6 02-11-2021 12:00 6.9 -- 9.6 2021-11-02 12:20:00
2 2021-11-03 12:00:00 Temperatura 9.5 del 03-11-2021 07:00, Menor que la Mínima 10.9 03-11-2021 12:00 9.5 -- 10.9 2021-11-03 12:20:00
2 2021-11-04 12:00:00 Temperatura 3.4 del 04-11-2021 09:00, Menor que la Mínima 10.0 04-11-2021 12:00 3.4 -- 10.0 2021-11-04 12:20:00
2 2021-11-05 12:00:00 Temperatura 7.1 del 05-11-2021 10:00, Menor que la Mínima 10.3 05-11-2021 12:00 7.1 -- 10.3 2021-11-05 12:20:00
2 2021-11-06 12:00:00 Temperatura 8.0 del 06-11-2021 10:00, Menor que la Mínima 14.1 06-11-2021 12:00 8.0 -- 14.1 2021-11-06 12:20:00
2 2021-11-07 12:00:00 Temperatura 9.5 del 07-11-2021 10:00, Menor que la Mínima 10.1 07-11-2021 12:00 9.5 -- 10.1 2021-11-07 12:20:00
2 2021-11-08 12:00:00 Temperatura 10.2 del 08-11-2021 10:00, Menor que la Mínima 13.3 08-11-2021 12:00 10.2 -- 13.3 2021-11-08 12:20:00
2 2021-11-09 12:00:00 Temperatura 8.9 del 09-11-2021 10:00, Menor que la Mínima 14.4 09-11-2021 12:00 8.9 -- 14.4 2021-11-09 12:20:00
2 2021-11-10 12:00:00 Temperatura 10.5 del 10-11-2021 10:00, Menor que la Mínima 11.8 10-11-2021 12:00 10.5 -- 11.8 2021-11-10 12:20:00
2 2021-11-11 12:00:00 Temperatura 10.6 del 11-11-2021 10:00, Menor que la Mínima 13.2 11-11-2021 12:00 10.6 -- 13.2 2021-11-11 12:20:00
2 2021-11-12 12:00:00 Temperatura 11.1 del 12-11-2021 04:00, Menor que la Mínima 13.2 12-11-2021 12:00 11.1 -- 13.2 2021-11-12 12:20:00
2 2021-11-13 12:00:00 Temperatura 7.1 del 13-11-2021 06:00, Menor que la Mínima 10.4 13-11-2021 12:00 7.1 -- 10.4 2021-11-13 12:20:00
2 2021-11-14 12:00:00 Temperatura 4.0 del 14-11-2021 09:00, Menor que la Mínima 10.3 14-11-2021 12:00 4.0 -- 10.3 2021-11-14 12:20:00
2 2021-11-15 12:00:00 Temperatura 7.0 del 15-11-2021 07:00, Menor que la Mínima 9.5 15-11-2021 12:00 7.0 -- 9.5 2021-11-15 12:20:00
2 2021-11-16 12:00:00 Temperatura 6.4 del 16-11-2021 10:00, Menor que la Mínima 11.2 16-11-2021 12:00 6.4 -- 11.2 2021-11-16 12:20:00
2 2021-11-17 12:00:00 Temperatura 8.8 del 17-11-2021 10:00, Menor que la Mínima 14.0 17-11-2021 12:00 8.8 -- 14.0 2021-11-17 12:20:00
2 2021-11-18 12:00:00 Temperatura 11.3 del 18-11-2021 09:00, Menor que la Mínima 13.6 18-11-2021 12:00 11.3 -- 13.6 2021-11-18 12:20:00
2 2021-11-19 12:00:00 Temperatura 9.9 del 19-11-2021 09:00, Menor que la Mínima 15.2 19-11-2021 12:00 9.9 -- 15.2 2021-11-19 12:20:00
2 2021-11-20 12:00:00 Temperatura 11.1 del 20-11-2021 10:00, Menor que la Mínima 14.9 20-11-2021 12:00 11.1 -- 14.9 2021-11-20 12:20:00
2 2021-11-21 12:00:00 Temperatura 10.2 del 21-11-2021 09:00, Menor que la Mínima 15.7 21-11-2021 12:00 10.2 -- 15.7 2021-11-21 12:20:00
2 2021-11-22 12:00:00 Temperatura 11.0 del 22-11-2021 09:00, Menor que la Mínima 13.8 22-11-2021 12:00 11.0 -- 13.8 2021-11-22 12:31:00
2 2021-11-23 12:00:00 Temperatura 10.6 del 23-11-2021 09:00, Menor que la Mínima 15.9 23-11-2021 12:00 10.6 -- 15.9 2021-11-23 12:31:00
2 2021-11-24 12:00:00 Temperatura 10.9 del 24-11-2021 07:00, Menor que la Mínima 12.4 24-11-2021 12:00 10.9 -- 12.4 2021-11-24 12:31:00
2 2021-11-25 12:00:00 Temperatura 8.0 del 25-11-2021 09:00, Menor que la Mínima 13.5 25-11-2021 12:00 8.0 -- 13.5 2021-11-25 12:31:00
2 2021-11-26 12:00:00 Temperatura 11.6 del 26-11-2021 08:00, Menor que la Mínima 14.3 26-11-2021 12:00 11.6 -- 14.3 2021-11-26 12:20:00
2 2021-11-27 12:00:00 Temperatura 8.9 del 27-11-2021 08:00, Menor que la Mínima 13.0 27-11-2021 12:00 8.9 -- 13.0 2021-11-27 12:32:00
2 2021-11-28 12:00:00 Temperatura 6.7 del 28-11-2021 09:00, Menor que la Mínima 11.3 28-11-2021 12:00 6.7 -- 11.3 2021-11-28 12:20:00
2 2021-11-29 12:00:00 Temperatura 8.3 del 29-11-2021 09:00, Menor que la Mínima 13.9 29-11-2021 12:00 8.3 -- 13.9 2021-11-29 12:20:00
2 2021-11-30 12:00:00 Temperatura 9.1 del 30-11-2021 10:00, Menor que la Mínima 14.6 30-11-2021 12:00 9.1 -- 14.6 2021-11-30 12:20:00
2 2021-12-07 12:00:00 Temperatura 11.9 del 07-12-2021 06:00, Menor que la Mínima 16.8 07-12-2021 12:00 11.9 -- 16.8 2021-12-08 00:53:00
2 2021-12-08 12:00:00 Temperatura 10.8 del 08-12-2021 10:00, Menor que la Mínima 14.9 08-12-2021 12:00 10.8 -- 14.9 2021-12-08 12:31:00
2 2021-12-09 12:00:00 Temperatura 15.2 del 09-12-2021 09:00, Menor que la Mínima 21.0 09-12-2021 12:00 15.2 -- 21.0 2021-12-09 12:31:00
2 2021-12-10 12:00:00 Temperatura 13.3 del 10-12-2021 07:00, Menor que la Mínima 20.4 10-12-2021 12:00 13.3 -- 20.4 2021-12-10 12:31:00
2 2021-12-11 12:00:00 Temperatura 12.6 del 11-12-2021 06:00, Menor que la Mínima 13.1 11-12-2021 12:00 12.6 -- 13.1 2021-12-11 12:31:00
2 2021-12-12 12:00:00 Temperatura 9.4 del 12-12-2021 08:00, Menor que la Mínima 12.5 12-12-2021 12:00 9.4 -- 12.5 2021-12-12 12:20:00
2 2021-12-13 12:00:00 Temperatura 7.0 del 13-12-2021 10:00, Menor que la Mínima 13.0 13-12-2021 12:00 7.0 -- 13.0 2021-12-13 12:20:00
2 2021-12-14 12:00:00 Temperatura 8.1 del 14-12-2021 09:00, Menor que la Mínima 13.8 14-12-2021 12:00 8.1 -- 13.8 2021-12-14 12:20:00
2 2021-12-15 12:00:00 Temperatura 9.0 del 15-12-2021 09:00, Menor que la Mínima 14.5 15-12-2021 12:00 9.0 -- 14.5 2021-12-15 12:20:00
2 2021-12-16 12:00:00 Temperatura 9.7 del 16-12-2021 10:00, Menor que la Mínima 16.9 16-12-2021 12:00 9.7 -- 16.9 2021-12-16 12:31:00
2 2021-12-17 12:00:00 Temperatura 8.7 del 17-12-2021 09:00, Menor que la Mínima 15.3 17-12-2021 12:00 8.7 -- 15.3 2021-12-17 12:20:00
2 2022-01-11 12:00:00 Temperatura 12.9 del 11-01-2022 10:00, Menor que la Mínima 17.8 11-01-2022 12:00 12.9 -- 17.8 2022-01-11 12:20:00
2 2022-01-12 12:00:00 Temperatura 12.3 del 12-01-2022 10:00, Menor que la Mínima 17.3 12-01-2022 12:00 12.3 -- 17.3 2022-01-12 12:20:00
2 2022-09-21 12:00:00 Temperatura 4.9 del 21-09-2022 10:00, Menor que la Mínima 5.6 21-09-2022 12:00 4.9 -- 5.6 2022-09-21 12:10:00
2 2022-10-03 12:00:00 Temperatura 6.7 del 03-10-2022 08:00, Menor que la Mínima 7.1 03-10-2022 12:00 6.7 -- 7.1 2022-10-03 12:10:00
2 2022-10-04 12:00:00 Temperatura 8.1 del 04-10-2022 02:00, Menor que la Mínima 8.5 04-10-2022 12:00 8.1 -- 8.5 2022-10-04 12:10:00
2 2022-10-05 12:00:00 Temperatura 3.1 del 05-10-2022 09:00, Menor que la Mínima 6.2 05-10-2022 12:00 3.1 -- 6.2 2022-10-05 12:10:00
2 2022-10-06 12:00:00 Temperatura 9.1 del 06-10-2022 09:00, Menor que la Mínima 10.0 06-10-2022 12:00 9.1 -- 10.0 2022-10-06 12:08:00
2 2022-10-07 12:00:00 Temperatura 11.6 del 07-10-2022 08:00, Menor que la Mínima 11.9 07-10-2022 12:00 11.6 -- 11.9 2022-10-07 12:09:00
2 2022-10-08 12:00:00 Temperatura 2.0 del 08-10-2022 09:00, Menor que la Mínima 5.2 08-10-2022 12:00 2.0 -- 5.2 2022-10-08 12:09:00
2 2022-10-09 12:00:00 Temperatura 4.5 del 09-10-2022 10:00, Menor que la Mínima 7.0 09-10-2022 12:00 4.5 -- 7.0 2022-10-09 12:09:00
2 2022-10-10 12:00:00 Temperatura 5.9 del 10-10-2022 09:00, Menor que la Mínima 8.0 10-10-2022 12:00 5.9 -- 8.0 2022-10-10 12:09:00
2 2022-10-11 12:00:00 Temperatura 5.6 del 11-10-2022 07:00, Menor que la Mínima 7.6 11-10-2022 12:00 5.6 -- 7.6 2022-10-11 12:08:00
2 2022-10-12 12:00:00 Temperatura 8.0 del 12-10-2022 09:00, Menor que la Mínima 10.5 12-10-2022 12:00 8.0 -- 10.5 2022-10-12 12:08:00
2 2022-10-13 12:00:00 Temperatura 2.5 del 13-10-2022 10:00, Menor que la Mínima 5.3 13-10-2022 12:00 2.5 -- 5.3 2022-10-13 12:08:00
2 2022-10-14 12:00:00 Temperatura 4.2 del 14-10-2022 09:00, Menor que la Mínima 8.5 14-10-2022 12:00 4.2 -- 8.5 2022-10-14 12:08:00
2 2022-10-15 12:00:00 Temperatura 8.3 del 15-10-2022 10:00, Menor que la Mínima 11.5 15-10-2022 12:00 8.3 -- 11.5 2022-10-15 12:08:00
2 2022-10-16 12:00:00 Temperatura 8.1 del 16-10-2022 10:00, Menor que la Mínima 10.1 16-10-2022 12:00 8.1 -- 10.1 2022-10-16 12:08:00
2 2022-10-17 12:00:00 Temperatura 7.9 del 17-10-2022 10:00, Menor que la Mínima 9.9 17-10-2022 12:00 7.9 -- 9.9 2022-10-17 12:08:00
2 2022-10-18 12:00:00 Temperatura 8.8 del 18-10-2022 05:00, Menor que la Mínima 10.5 18-10-2022 12:00 8.8 -- 10.5 2022-10-18 12:09:00
2 2022-10-19 12:00:00 Temperatura 9.4 del 19-10-2022 07:00, Menor que la Mínima 11.4 19-10-2022 12:00 9.4 -- 11.4 2022-10-19 12:09:00
2 2022-10-20 12:00:00 Temperatura 8.8 del 20-10-2022 10:00, Menor que la Mínima 9.3 20-10-2022 12:00 8.8 -- 9.3 2022-10-20 12:09:00
2 2022-10-21 12:00:00 Temperatura 5.8 del 21-10-2022 10:00, Menor que la Mínima 8.8 21-10-2022 12:00 5.8 -- 8.8 2022-10-21 12:08:00
2 2022-10-22 12:00:00 Temperatura 5.2 del 22-10-2022 10:00, Menor que la Mínima 11.3 22-10-2022 12:00 5.2 -- 11.3 2022-10-22 12:09:00
2 2022-10-23 12:00:00 Temperatura 5.2 del 23-10-2022 07:00, Menor que la Mínima 8.3 23-10-2022 12:00 5.2 -- 8.3 2022-10-23 12:09:00
2 2022-10-24 12:00:00 Temperatura 2.8 del 24-10-2022 09:00, Menor que la Mínima 9.6 24-10-2022 12:00 2.8 -- 9.6 2022-10-24 12:09:00
2 2022-10-25 12:00:00 Temperatura 6.4 del 25-10-2022 09:00, Menor que la Mínima 10.4 25-10-2022 12:00 6.4 -- 10.4 2022-10-25 12:09:00
2 2022-10-26 12:00:00 Temperatura 11.6 del 26-10-2022 08:00, Menor que la Mínima 12.2 26-10-2022 12:00 11.6 -- 12.2 2022-10-27 15:11:00
2 2022-10-27 12:00:00 Temperatura 5.8 del 27-10-2022 10:00, Menor que la Mínima 10.9 27-10-2022 12:00 5.8 -- 10.9 2022-10-27 15:11:00
2 2022-10-28 12:00:00 Temperatura 10.5 del 28-10-2022 08:00, Menor que la Mínima 10.9 28-10-2022 12:00 10.5 -- 10.9 2022-10-28 12:10:00
2 2022-10-30 12:00:00 Temperatura 3.3 del 30-10-2022 10:00, Menor que la Mínima 6.8 30-10-2022 12:00 3.3 -- 6.8 2022-10-30 12:09:00
2 2022-10-31 12:00:00 Temperatura 4.2 del 31-10-2022 09:00, Menor que la Mínima 9.1 31-10-2022 12:00 4.2 -- 9.1 2022-10-31 12:09:00
2 2022-11-01 12:00:00 Temperatura 8.3 del 01-11-2022 10:00, Menor que la Mínima 13.1 01-11-2022 12:00 8.3 -- 13.1 2022-11-01 12:09:00
2 2022-11-02 12:00:00 Temperatura 9.2 del 02-11-2022 10:00, Menor que la Mínima 15.9 02-11-2022 12:00 9.2 -- 15.9 2022-11-02 12:10:00
2 2022-11-03 12:00:00 Temperatura 8.1 del 03-11-2022 10:00, Menor que la Mínima 12.8 03-11-2022 12:00 8.1 -- 12.8 2022-11-03 12:09:00
2 2022-11-04 12:00:00 Temperatura 6.8 del 04-11-2022 10:00, Menor que la Mínima 10.4 04-11-2022 12:00 6.8 -- 10.4 2022-11-04 12:08:00
2 2022-11-05 12:00:00 Temperatura 9.7 del 05-11-2022 08:00, Menor que la Mínima 12.6 05-11-2022 12:00 9.7 -- 12.6 2022-11-05 12:09:00
2 2022-11-06 12:00:00 Temperatura 7.9 del 06-11-2022 10:00, Menor que la Mínima 12.3 06-11-2022 12:00 7.9 -- 12.3 2022-11-06 12:08:00
2 2022-11-07 12:00:00 Temperatura 8.3 del 07-11-2022 10:00, Menor que la Mínima 12.1 07-11-2022 12:00 8.3 -- 12.1 2022-11-07 12:08:00
2 2022-11-08 12:00:00 Temperatura 13.3 del 08-11-2022 10:00, Menor que la Mínima 15.7 08-11-2022 12:00 13.3 -- 15.7 2022-11-08 17:21:00
2 2022-11-09 12:00:00 Temperatura 11.8 del 09-11-2022 02:00, Menor que la Mínima 12.6 09-11-2022 12:00 11.8 -- 12.6 2022-11-09 12:09:00
2 2022-11-10 12:00:00 Temperatura 10.6 del 10-11-2022 05:00, Menor que la Mínima 13.0 10-11-2022 12:00 10.6 -- 13.0 2022-11-10 12:09:00
2 2022-11-11 12:00:00 Temperatura 11.6 del 11-11-2022 06:00, Menor que la Mínima 12.8 11-11-2022 12:00 11.6 -- 12.8 2022-11-11 12:09:00
2 2022-11-12 12:00:00 Temperatura 10.5 del 12-11-2022 10:00, Menor que la Mínima 12.1 12-11-2022 12:00 10.5 -- 12.1 2022-11-12 12:21:00
2 2022-11-13 12:00:00 Temperatura 8.1 del 13-11-2022 04:00, Menor que la Mínima 13.2 13-11-2022 12:00 8.1 -- 13.2 2022-11-13 12:21:00
2 2022-11-14 12:00:00 Temperatura 9.1 del 14-11-2022 06:00, Menor que la Mínima 12.0 14-11-2022 12:00 9.1 -- 12.0 2022-11-14 12:21:00
2 2022-11-15 12:00:00 Temperatura 9.4 del 15-11-2022 10:00, Menor que la Mínima 13.2 15-11-2022 12:00 9.4 -- 13.2 2022-11-15 12:21:00
2 2022-11-16 12:00:00 Temperatura 10.6 del 16-11-2022 10:00, Menor que la Mínima 15.2 16-11-2022 12:00 10.6 -- 15.2 2022-11-16 12:36:00
2 2022-11-17 12:00:00 Temperatura 12.3 del 17-11-2022 09:00, Menor que la Mínima 16.0 17-11-2022 12:00 12.3 -- 16.0 2022-11-17 12:36:00
2 2022-11-19 12:00:00 Temperatura 11.6 del 19-11-2022 10:00, Menor que la Mínima 14.1 19-11-2022 12:00 11.6 -- 14.1 2022-11-19 12:09:00
2 2022-11-20 12:00:00 Temperatura 8.8 del 20-11-2022 10:00, Menor que la Mínima 10.8 20-11-2022 12:00 8.8 -- 10.8 2022-11-20 12:09:00
2 2022-11-21 12:00:00 Temperatura 9.2 del 21-11-2022 08:00, Menor que la Mínima 13.8 21-11-2022 12:00 9.2 -- 13.8 2022-11-21 19:15:00
2 2022-11-22 12:00:00 Temperatura 10.5 del 22-11-2022 09:00, Menor que la Mínima 15.7 22-11-2022 12:00 10.5 -- 15.7 2022-11-22 12:21:00
2 2022-11-23 12:00:00 Temperatura 11.3 del 23-11-2022 08:00, Menor que la Mínima 16.9 23-11-2022 12:00 11.3 -- 16.9 2022-11-23 12:09:00
2 2022-12-03 12:00:00 Temperatura 12.5 del 03-12-2022 10:00, Menor que la Mínima 18.6 03-12-2022 12:00 12.5 -- 18.6 2022-12-03 12:09:00
2 2022-12-04 12:00:00 Temperatura 10.6 del 04-12-2022 09:00, Menor que la Mínima 15.2 04-12-2022 12:00 10.6 -- 15.2 2022-12-04 12:09:00
2 2022-12-05 12:00:00 Temperatura 10.2 del 05-12-2022 09:00, Menor que la Mínima 16.0 05-12-2022 12:00 10.2 -- 16.0 2022-12-05 12:09:00
2 2022-12-08 12:00:00 Temperatura 16.2 del 08-12-2022 10:00, Menor que la Mínima 17.1 08-12-2022 12:00 16.2 -- 17.1 2022-12-08 12:08:00
2 2022-12-10 12:00:00 Temperatura 11.7 del 10-12-2022 09:00, Menor que la Mínima 16.3 10-12-2022 12:00 11.7 -- 16.3 2022-12-10 12:09:00
2 2022-12-11 12:00:00 Temperatura 11.3 del 11-12-2022 09:00, Menor que la Mínima 16.7 11-12-2022 12:00 11.3 -- 16.7 2022-12-11 12:09:00
2 2022-12-12 12:00:00 Temperatura 9.4 del 12-12-2022 09:00, Menor que la Mínima 14.7 12-12-2022 12:00 9.4 -- 14.7 2022-12-12 12:09:00
2 2022-12-13 12:00:00 Temperatura 10.2 del 13-12-2022 09:00, Menor que la Mínima 14.9 13-12-2022 12:00 10.2 -- 14.9 2022-12-13 12:09:00
2 2022-12-14 12:00:00 Temperatura 12.2 del 14-12-2022 09:00, Menor que la Mínima 16.5 14-12-2022 12:00 12.2 -- 16.5 2022-12-14 12:08:00
2 2022-12-15 12:00:00 Temperatura 13.1 del 15-12-2022 10:00, Menor que la Mínima 17.0 15-12-2022 12:00 13.1 -- 17.0 2022-12-15 12:08:00
2 2022-12-18 12:00:00 Temperatura 12.2 del 18-12-2022 10:00, Menor que la Mínima 16.9 18-12-2022 12:00 12.2 -- 16.9 2022-12-18 12:08:00
2 2022-12-19 12:00:00 Temperatura 9.6 del 19-12-2022 09:00, Menor que la Mínima 14.8 19-12-2022 12:00 9.6 -- 14.8 2022-12-19 12:08:00
2 2022-12-20 12:00:00 Temperatura 9.7 del 20-12-2022 04:00, Menor que la Mínima 15.2 20-12-2022 12:00 9.7 -- 15.2 2022-12-20 12:08:00
2 2022-12-21 12:00:00 Temperatura 10.9 del 21-12-2022 09:00, Menor que la Mínima 16.8 21-12-2022 12:00 10.9 -- 16.8 2022-12-21 12:35:00
2 2022-12-22 12:00:00 Temperatura 12.0 del 22-12-2022 08:00, Menor que la Mínima 16.8 22-12-2022 12:00 12.0 -- 16.8 2022-12-22 12:09:00
2 2022-12-23 12:00:00 Temperatura 8.9 del 23-12-2022 10:00, Menor que la Mínima 12.0 23-12-2022 12:00 8.9 -- 12.0 2022-12-23 12:21:00
2 2022-12-24 12:00:00 Temperatura 9.0 del 24-12-2022 10:00, Menor que la Mínima 12.8 24-12-2022 12:00 9.0 -- 12.8 2022-12-24 12:36:00